Provisional Data: Yellow Breeches Creek near Lisburn, PA


Please select a monitoring station.
Please select start date.
Please select start date.

Toggle Unit: C/F Toggle Unit: C/F
Sample Time Temperature (C) Temperature (F) Specific Conductivity (mS/cm) pH   Turbidity (NTU+) DO (mg/L)
3/23/2021 12:00:00 AM 10.68 51.224 0.258 6.95 3.96 9.94
3/23/2021 12:15:00 AM 10.64 51.152 0.257 6.94 1.02 9.93
3/23/2021 12:30:00 AM 10.58 51.044 0.257 6.93 1.56 9.91
3/23/2021 12:45:00 AM 10.52 50.936 0.256 6.91 1.85 9.88
3/23/2021 1:00:00 AM 10.48 50.864 0.255 6.9 0.18 9.85
3/23/2021 1:15:00 AM 10.41 50.738 0.256 6.88 0.54 9.84
3/23/2021 1:30:00 AM 10.34 50.612 0.257 6.86 1.76 9.82
3/23/2021 1:45:00 AM 10.28 50.504 0.258 6.84 0.31 9.8
3/23/2021 2:00:00 AM 10.21 50.378 0.259 6.82 -0.34 9.8
3/23/2021 2:15:00 AM 10.14 50.252 0.259 6.81 0.99 9.79
3/23/2021 2:30:00 AM 10.06 50.108 0.259 6.79 -0.09 9.79
3/23/2021 2:45:00 AM 9.98 49.964 0.259 6.78 -0.09 9.78
3/23/2021 3:00:00 AM 9.9 49.82 0.258 6.76 -0.13 9.8
3/23/2021 3:15:00 AM 9.82 49.676 0.257 6.74 0.63 9.8
3/23/2021 3:30:00 AM 9.74 49.532 0.257 6.73 -0.01 9.79
3/23/2021 3:45:00 AM 9.66 49.388 0.256 6.72 -0.96 9.8
3/23/2021 4:00:00 AM 9.58 49.244 0.256 6.7 -0.95 9.8
3/23/2021 4:15:00 AM 9.49 49.082 0.257 6.68 0 9.84
3/23/2021 4:30:00 AM 9.41 48.938 0.257 6.66 -0.48 9.85
3/23/2021 4:45:00 AM 9.34 48.812 0.259 6.64 -1.17 9.84
3/23/2021 5:00:00 AM 9.26 48.668 0.26 6.62 -0.36 9.85
3/23/2021 5:15:00 AM 9.17 48.506 0.26 6.61 5.45 9.86
3/23/2021 5:30:00 AM 9.1 48.38 0.26 6.59 1.65 9.85
3/23/2021 5:45:00 AM 9.04 48.272 0.259 6.58 -1.08 9.87
3/23/2021 6:00:00 AM 8.95 48.11 0.259 6.56 -0.13 9.88
3/23/2021 6:15:00 AM 8.88 47.984 0.258 6.56 -0.03 9.9
3/23/2021 6:30:00 AM 8.8 47.84 0.257 6.55 0.89 9.91
3/23/2021 6:45:00 AM 8.73 47.714 0.257 6.53 0.61 9.96
3/23/2021 7:00:00 AM 8.67 47.606 0.256 6.52 -0.4 9.98
3/23/2021 7:15:00 AM 8.61 47.498 0.257 6.52 -1.12 10
3/23/2021 7:30:00 AM 8.56 47.408 0.258 6.51 -1.82 10.02
3/23/2021 7:45:00 AM 8.51 47.318 0.26 6.5 -0.68 10.06
3/23/2021 8:00:00 AM 8.48 47.264 0.261 6.49 -0.87 10.1
3/23/2021 8:15:00 AM 8.46 47.228 0.261 6.5 -1.66 10.16
3/23/2021 8:30:00 AM 8.45 47.21 0.261 6.5 -0.66 10.26
3/23/2021 8:45:00 AM 8.45 47.21 0.261 6.5 -0.79 10.36
3/23/2021 9:00:00 AM 8.46 47.228 0.26 6.51 -0.61 10.49
3/23/2021 9:15:00 AM 8.5 47.3 0.258 6.53 -1.53 10.62
3/23/2021 9:30:00 AM 8.57 47.426 0.258 6.55 -0.43 10.74
3/23/2021 9:45:00 AM 8.62 47.516 0.257 6.58 -0.18 10.88
3/23/2021 10:00:00 AM 8.71 47.678 0.256 6.61 -0.79 11.01
3/23/2021 10:15:00 AM 8.79 47.822 0.256 6.63 0.71 11.15
3/23/2021 10:30:00 AM 8.88 47.984 0.257 6.66 -0.95 11.29
3/23/2021 10:45:00 AM 8.98 48.164 0.257 6.69 -0.67 11.41
3/23/2021 11:00:00 AM 9.08 48.344 0.258 6.72 -1.02 11.52
3/23/2021 11:15:00 AM 9.2 48.56 0.258 6.75 -1.8 11.63
3/23/2021 11:30:00 AM 9.34 48.812 0.257 6.78 -0.38 11.73
3/23/2021 11:45:00 AM 9.49 49.082 0.257 6.82 -1.91 11.85
3/23/2021 12:00:00 PM 9.63 49.334 0.256 6.86 0.1 11.94
3/23/2021 12:15:00 PM 9.76 49.568 0.255 6.9 -0.28 12.03
3/23/2021 12:30:00 PM 9.92 49.856 0.254 6.94 -1.44 12.14
3/23/2021 12:45:00 PM 10.04 50.072 0.254 7 -1.23 12.22
3/23/2021 1:00:00 PM 10.18 50.324 0.253 7.05 -0.41 12.29
3/23/2021 1:15:00 PM 10.32 50.576 0.253 7.1 -1.49 12.35
3/23/2021 1:30:00 PM 10.47 50.846 0.253 7.14 -1.15 12.43
3/23/2021 1:45:00 PM 10.62 51.116 0.253 7.17 -1.34 12.49
3/23/2021 2:00:00 PM 10.73 51.314 0.254 7.2 -1.23 12.55
3/23/2021 2:15:00 PM 10.84 51.512 0.254 7.25 -1.63 12.6
3/23/2021 2:30:00 PM 10.93 51.674 0.254 7.29 -1.43 12.64
3/23/2021 2:45:00 PM 11.06 51.908 0.254 7.32 -0.96 12.68
3/23/2021 3:00:00 PM 11.16 52.088 0.253 7.35 -0.45 12.73
3/23/2021 3:15:00 PM 11.25 52.25 0.253 7.39 -2.22 12.77
3/23/2021 3:30:00 PM 11.31 52.358 0.253 7.41 -1.35 12.78
3/23/2021 3:45:00 PM 11.38 52.484 0.252 7.44 -1.54 12.79
3/23/2021 4:00:00 PM 11.44 52.592 0.252 7.46 -1.06 12.78
3/23/2021 4:15:00 PM 11.51 52.718 0.252 7.49 -1.89 12.75
3/23/2021 4:30:00 PM 11.58 52.844 0.253 7.51 -1.82 12.75
3/23/2021 4:45:00 PM 11.63 52.934 0.253 7.52 -0.55 12.72
3/23/2021 5:00:00 PM 11.65 52.97 0.254 7.53 -1.57 12.69
3/23/2021 5:15:00 PM 11.67 53.006 0.254 7.54 -1.16 12.64
3/23/2021 5:30:00 PM 11.7 53.06 0.254 7.55 -1.35 12.57
3/23/2021 5:45:00 PM 11.73 53.114 0.254 7.55 0.32 12.48
3/23/2021 6:00:00 PM 11.73 53.114 0.254 7.55 -1.74 12.38
3/23/2021 6:15:00 PM 11.74 53.132 0.253 7.55 -1.4 12.28
3/23/2021 6:30:00 PM 11.75 53.15 0.253 7.55 -1.07 12.16
3/23/2021 6:45:00 PM 11.76 53.168 0.253 7.54 -1.68 12.06
3/23/2021 7:00:00 PM 11.75 53.15 0.253 7.53 -1.31 11.94
3/23/2021 7:15:00 PM 11.75 53.15 0.253 7.52 -1.34 11.78
3/23/2021 7:30:00 PM 11.75 53.15 0.254 7.5 -1.45 11.61
3/23/2021 7:45:00 PM 11.75 53.15 0.256 7.45 -1.55 11.33
3/23/2021 8:00:00 PM 11.75 53.15 0.257 7.44 -1.05 11.32
3/23/2021 8:15:00 PM 11.74 53.132 0.258 7.43 -1.57 11.15
3/23/2021 8:30:00 PM 11.73 53.114 0.258 7.39 -1.08 11.01
3/23/2021 8:45:00 PM 11.72 53.096 0.258 7.38 -1.91 10.86
3/23/2021 9:00:00 PM 11.72 53.096 0.257 7.34 -0.7 10.73
3/23/2021 9:15:00 PM 11.71 53.078 0.257 7.33 3.46 10.62
3/23/2021 9:30:00 PM 11.7 53.06 0.255 7.31 -1.25 10.54
3/23/2021 9:45:00 PM 11.7 53.06 0.255 7.3 -0.94 10.44
3/23/2021 10:00:00 PM 11.68 53.024 0.254 7.28 -1.27 10.32
3/23/2021 10:15:00 PM 11.67 53.006 0.255 7.27 -0.85 10.25
3/23/2021 10:30:00 PM 11.64 52.952 0.257 7.22 -1.05 10.15
3/23/2021 10:45:00 PM 11.62 52.916 0.259 7.19 -0.84 10.06
3/23/2021 11:00:00 PM 11.6 52.88 0.26 7.16 -0.82 9.99
3/23/2021 11:15:00 PM 11.57 52.826 0.261 7.13 -1.59 9.92
3/23/2021 11:30:00 PM 11.55 52.79 0.261 7.11 -0.22 9.88
3/23/2021 11:45:00 PM 11.52 52.736 0.261 7.09 -1.73 9.83
3/24/2021 12:00:00 AM 11.49 52.682 0.26 7.08 -0.68 9.79
3/24/2021 12:15:00 AM 11.47 52.646 0.258 7.05 -0.25 9.74
3/24/2021 12:30:00 AM 11.45 52.61 0.257 7.04 -0.89 9.72
3/24/2021 12:45:00 AM 11.43 52.574 0.256 7.03 -0.99 9.68
3/24/2021 1:00:00 AM 11.41 52.538 0.256 7.02 0.52 9.64
3/24/2021 1:15:00 AM 11.39 52.502 0.256 7.01 -1.74 9.62
3/24/2021 1:30:00 AM 11.37 52.466 0.257 6.99 -1.53 9.6
3/24/2021 1:45:00 AM 11.35 52.43 0.258 6.97 1.69 9.57
3/24/2021 2:00:00 AM 11.33 52.394 0.26 6.94 -1.3 9.55
3/24/2021 2:15:00 AM 11.3 52.34 0.26 6.92 0.31 9.53
3/24/2021 2:30:00 AM 11.27 52.286 0.261 6.91 -0.71 9.5
3/24/2021 2:45:00 AM 11.24 52.232 0.26 6.89 -0.9 9.49
3/24/2021 3:00:00 AM 11.22 52.196 0.259 6.87 0.82 9.48
3/24/2021 3:15:00 AM 11.19 52.142 0.259 6.86 -1.78 9.46
3/24/2021 3:30:00 AM 11.17 52.106 0.258 6.83 -1.32 9.46
3/24/2021 3:45:00 AM 11.14 52.052 0.257 6.82 -0.8 9.45
3/24/2021 4:00:00 AM 11.12 52.016 0.256 6.81 0.05 9.45
3/24/2021 4:15:00 AM 11.1 51.98 0.257 6.8 -0.97 9.43
3/24/2021 4:30:00 AM 11.08 51.944 0.258 6.79 -1.51 9.43
3/24/2021 4:45:00 AM 11.05 51.89 0.259 6.77 -1.69 9.42
3/24/2021 5:00:00 AM 11.03 51.854 0.26 6.75 -0.77 9.4
3/24/2021 5:15:00 AM 11 51.8 0.261 6.74 -0.51 9.4
3/24/2021 5:30:00 AM 10.98 51.764 0.261 6.74 -1.96 9.4
3/24/2021 5:45:00 AM 10.95 51.71 0.26 6.72 -0.55 9.39
3/24/2021 6:00:00 AM 10.93 51.674 0.259 6.71 -0.9 9.39
3/24/2021 6:15:00 AM 10.9 51.62 0.258 6.7 -0.51 9.38
3/24/2021 6:30:00 AM 10.88 51.584 0.257 6.7 0.35 9.4
3/24/2021 6:45:00 AM 10.86 51.548 0.256 6.68 -0.24 9.39
3/24/2021 7:00:00 AM 10.85 51.53 0.255 6.67 -0.29 9.39
3/24/2021 7:15:00 AM 10.84 51.512 0.256 6.67 -2.05 9.4
3/24/2021 7:30:00 AM 10.83 51.494 0.257 6.65 -0.87 9.38
3/24/2021 7:45:00 AM 10.82 51.476 0.258 6.64 -0.89 9.38
3/24/2021 8:00:00 AM 10.82 51.476 0.259 6.64 0.13 9.38
3/24/2021 8:15:00 AM 10.82 51.476 0.26 6.64 1.91 9.39
3/24/2021 8:30:00 AM 10.81 51.458 0.26 6.64 -1.44 9.41
3/24/2021 8:45:00 AM 10.81 51.458 0.259 6.63 -1.63 9.43
3/24/2021 9:00:00 AM 10.81 51.458 0.258 6.62 -0.7 9.45
3/24/2021 9:15:00 AM 10.81 51.458 0.254 6.63 0.77 9.52
3/24/2021 9:30:00 AM 10.82 51.476 0.254 6.64 0 9.55
3/24/2021 9:45:00 AM 10.83 51.494 0.253 6.64 3.47 9.6
3/24/2021 10:00:00 AM 10.85 51.53 0.253 6.66 -0.56 9.69
3/24/2021 10:15:00 AM 10.87 51.566 0.253 6.66 0.31 9.74
3/24/2021 10:30:00 AM 10.88 51.584 0.253 6.66 -0.06 9.79
3/24/2021 10:45:00 AM 10.9 51.62 0.253 6.66 -0.27 9.82
3/24/2021 11:00:00 AM 10.92 51.656 0.254 6.67 0.54 9.87
3/24/2021 11:15:00 AM 10.95 51.71 0.254 6.68 0.01 9.95
3/24/2021 11:30:00 AM 10.98 51.764 0.254 6.7 1.04 10.03
3/24/2021 11:45:00 AM 11.01 51.818 0.253 6.72 -0.01 10.13
3/24/2021 12:00:00 PM 11.03 51.854 0.253 6.75 -0.58 10.23
3/24/2021 12:15:00 PM 11.05 51.89 0.252 6.76 -1.28 10.29
3/24/2021 12:30:00 PM 11.07 51.926 0.252 6.77 0.33 10.32
3/24/2021 12:45:00 PM 11.1 51.98 0.251 6.79 7.03 10.38
3/24/2021 1:00:00 PM 11.13 52.034 0.251 6.8 -0.03 10.45
3/24/2021 1:15:00 PM 11.15 52.07 0.252 6.82 0.55 10.5
3/24/2021 1:30:00 PM 11.16 52.088 0.253 6.83 0.66 10.51
3/24/2021 1:45:00 PM 11.17 52.106 0.254 6.82 1.13 10.49
3/24/2021 2:00:00 PM 11.19 52.142 0.254 6.83 0.49 10.51
3/24/2021 2:15:00 PM 11.21 52.178 0.255 6.84 1.26 10.53
3/24/2021 2:30:00 PM 11.22 52.196 0.255 6.85 -0.35 10.55
3/24/2021 2:45:00 PM 11.24 52.232 0.255 6.86 -0.51 10.55
3/24/2021 3:00:00 PM 11.26 52.268 0.254 6.88 -0.48 10.61
3/24/2021 3:15:00 PM 11.29 52.322 0.253 6.89 -0.11 10.65
3/24/2021 3:30:00 PM 11.32 52.376 0.253 6.9 -0.08 10.72
3/24/2021 3:45:00 PM 11.35 52.43 0.252 6.91 0.33 10.75
3/24/2021 4:00:00 PM 11.38 52.484 0.253 6.93 -0.39 10.81
3/24/2021 4:15:00 PM 11.4 52.52 0.255 6.94 -0.7 10.82
3/24/2021 4:30:00 PM 11.42 52.556 0.256 6.94 -0.22 10.83
3/24/2021 4:45:00 PM 11.43 52.574 0.257 6.95 -0.54 10.8
3/24/2021 5:00:00 PM 11.43 52.574 0.258 6.95 -0.13 10.76
3/24/2021 5:15:00 PM 11.43 52.574 0.257 6.94 2.44 10.7
3/24/2021 5:30:00 PM 11.43 52.574 0.256 6.94 -0.05 10.66
3/24/2021 5:45:00 PM 11.43 52.574 0.254 6.94 -0.29 10.61
3/24/2021 6:00:00 PM 11.43 52.574 0.254 6.94 -0.04 10.57
3/24/2021 6:15:00 PM 11.43 52.574 0.254 6.93 1.83 10.51
3/24/2021 6:30:00 PM 11.44 52.592 0.255 6.92 1.35 10.48
3/24/2021 6:45:00 PM 11.43 52.574 0.258 6.92 0.56 10.45
3/24/2021 7:00:00 PM 11.43 52.574 0.261 6.91 0.36 10.39
3/24/2021 7:15:00 PM 11.43 52.574 0.264 6.89 1.68 10.34
3/24/2021 7:30:00 PM 11.42 52.556 0.265 6.88 11.34 10.29
3/24/2021 7:45:00 PM 11.41 52.538 0.265 6.87 -0.23 10.24
3/24/2021 8:00:00 PM 11.41 52.538 0.264 6.86 0.69 10.18
3/24/2021 8:15:00 PM 11.4 52.52 0.263 6.85 2.35 10.13
3/24/2021 8:30:00 PM 11.39 52.502 0.262 6.84 1.17 10.09
3/24/2021 8:45:00 PM 11.39 52.502 0.261 6.84 2.64 10.04
3/24/2021 9:00:00 PM 11.39 52.502 0.261 6.83 1.84 10.02
3/24/2021 9:15:00 PM 11.39 52.502 0.262 6.82 1.79 9.98
3/24/2021 9:30:00 PM 11.39 52.502 0.263 6.81 1.94 9.93
3/24/2021 9:45:00 PM 11.4 52.52 0.265 6.79 4.48 9.88
3/24/2021 10:00:00 PM 11.4 52.52 0.267 6.77 5.06 9.82
3/24/2021 10:15:00 PM 11.4 52.52 0.268 6.76 2.09 9.79
3/24/2021 10:30:00 PM 11.4 52.52 0.267 6.75 2.95 9.76
3/24/2021 10:45:00 PM 11.4 52.52 0.266 6.75 6.36 9.72
3/24/2021 11:00:00 PM 11.4 52.52 0.263 6.75 2.17 9.71
3/24/2021 11:15:00 PM 11.4 52.52 0.261 6.74 0.72 9.68
3/24/2021 11:30:00 PM 11.4 52.52 0.259 6.73 1.28 9.66
3/24/2021 11:45:00 PM 11.4 52.52 0.258 6.72 1.72 9.63
3/25/2021 12:00:00 AM 11.4 52.52 0.257 6.71 2.82 9.63
3/25/2021 12:15:00 AM 11.39 52.502 0.257 6.7 0.1 9.59
3/25/2021 12:30:00 AM 11.39 52.502 0.258 6.69 4.31 9.56
3/25/2021 12:45:00 AM 11.39 52.502 0.259 6.68 5.1 9.54
3/25/2021 1:00:00 AM 11.39 52.502 0.259 6.67 4.86 9.51
3/25/2021 1:15:00 AM 11.39 52.502 0.259 6.66 1.87 9.49
3/25/2021 1:30:00 AM 11.38 52.484 0.257 6.65 3.37 9.5
3/25/2021 1:45:00 AM 11.37 52.466 0.255 6.66 0.77 9.47
3/25/2021 2:00:00 AM 11.36 52.448 0.254 6.64 1.9 9.43
3/25/2021 2:15:00 AM 11.35 52.43 0.252 6.64 1.97 9.45
3/25/2021 2:30:00 AM 11.33 52.394 0.25 6.63 2.76 9.43
3/25/2021 2:45:00 AM 11.32 52.376 0.25 6.62 0.05 9.42
3/25/2021 3:00:00 AM 11.31 52.358 0.248 6.62 3.27 9.42
3/25/2021 3:15:00 AM 11.3 52.34 0.248 6.62 0.94 9.41
3/25/2021 3:30:00 AM 11.29 52.322 0.248 6.61 3.61 9.41
3/25/2021 3:45:00 AM 11.29 52.322 0.249 6.59 1.15 9.4
3/25/2021 4:00:00 AM 11.28 52.304 0.249 6.59 3.92 9.38
3/25/2021 4:15:00 AM 11.27 52.286 0.25 6.58 0.91 9.37
3/25/2021 4:30:00 AM 11.26 52.268 0.248 6.58 4.23 9.36
3/25/2021 4:45:00 AM 11.24 52.232 0.247 6.57 2.48 9.36
3/25/2021 5:00:00 AM 11.23 52.214 0.245 6.57 2.73 9.35
3/25/2021 5:15:00 AM 11.22 52.196 0.243 6.56 4.79 9.36
3/25/2021 5:30:00 AM 11.21 52.178 0.242 6.57 0.51 9.36
3/25/2021 5:45:00 AM 11.19 52.142 0.241 6.56 2.63 9.36
3/25/2021 6:00:00 AM 11.19 52.142 0.241 6.55 0.42 9.34
3/25/2021 6:15:00 AM 11.18 52.124 0.24 6.55 2.56 9.36
3/25/2021 6:30:00 AM 11.17 52.106 0.241 6.55 2.12 9.36
3/25/2021 6:45:00 AM 11.17 52.106 0.242 6.54 1.36 9.34
3/25/2021 7:00:00 AM 11.16 52.088 0.244 6.53 1.56 9.32
3/25/2021 7:15:00 AM 11.16 52.088 0.244 6.53 4.35 9.33
3/25/2021 7:30:00 AM 11.16 52.088 0.244 6.52 2.15 9.32
3/25/2021 7:45:00 AM 11.15 52.07 0.243 6.53 2.54 9.35
3/25/2021 8:00:00 AM 11.15 52.07 0.241 6.53 2.43 9.35
3/25/2021 8:15:00 AM 11.16 52.088 0.24 6.53 1.84 9.39
3/25/2021 8:30:00 AM 11.16 52.088 0.239 6.53 1.2 9.43
3/25/2021 8:45:00 AM 11.18 52.124 0.238 6.54 0.7 9.5
3/25/2021 9:00:00 AM 11.19 52.142 0.237 6.54 2.7 9.56
3/25/2021 9:15:00 AM 11.22 52.196 0.236 6.55 0.27 9.64
3/25/2021 9:30:00 AM 11.24 52.232 0.237 6.56 0.78 9.75
3/25/2021 9:45:00 AM 11.26 52.268 0.238 6.58 -0.01 9.81
3/25/2021 10:00:00 AM 11.3 52.34 0.239 6.59 1.19 9.86
3/25/2021 10:15:00 AM 11.32 52.376 0.239 6.61 1.3 9.95
3/25/2021 10:30:00 AM 11.34 52.412 0.239 6.63 0.17 10.03
3/25/2021 10:45:00 AM 11.36 52.448 0.238 6.64 0.87 10.07
3/25/2021 11:00:00 AM 11.39 52.502 0.237 6.67 0.18 10.17
3/25/2021 11:15:00 AM 11.41 52.538 0.236 6.68 0.27 10.25
3/25/2021 11:30:00 AM 11.44 52.592 0.235 6.71 -0.64 10.33
3/25/2021 11:45:00 AM 11.47 52.646 0.235 6.72 0.66 10.43
3/25/2021 12:00:00 PM 11.49 52.682 0.234 6.74 0.92 10.5
3/25/2021 12:15:00 PM 11.54 52.772 0.234 6.75 -0.28 10.57
3/25/2021 12:30:00 PM 11.57 52.826 0.234 6.78 -0.39 10.67
3/25/2021 12:45:00 PM 11.61 52.898 0.234 6.81 -0.71 10.73
3/25/2021 1:00:00 PM 11.66 52.988 0.235 6.83 0.21 10.79
3/25/2021 1:15:00 PM 11.7 53.06 0.235 6.84 -0.31 10.84
3/25/2021 1:30:00 PM 11.75 53.15 0.235 6.87 0.23 10.95
3/25/2021 1:45:00 PM 11.79 53.222 0.235 6.9 0.95 11.03
3/25/2021 2:00:00 PM 11.82 53.276 0.235 6.93 -0.24 11.05
3/25/2021 2:15:00 PM 11.87 53.366 0.235 6.95 -0.5 11.11
3/25/2021 2:30:00 PM 11.92 53.456 0.234 6.99 0.16 11.18
3/25/2021 2:45:00 PM 12.01 53.618 0.234 7.03 -0.16 11.28
3/25/2021 3:00:00 PM 12.11 53.798 0.234 7.06 1.1 11.39
3/25/2021 3:15:00 PM 12.17 53.906 0.233 7.1 -0.57 11.46
3/25/2021 3:30:00 PM 12.23 54.014 0.233 7.14 -0.03 11.52
3/25/2021 3:45:00 PM 12.28 54.104 0.234 7.18 -0.32 11.55
3/25/2021 4:00:00 PM 12.34 54.212 0.235 7.2 -1.05 11.58
3/25/2021 4:15:00 PM 12.4 54.32 0.235 7.24 -0.37 11.65
3/25/2021 4:30:00 PM 12.46 54.428 0.236 7.25 0.97 11.66
3/25/2021 4:45:00 PM 12.5 54.5 0.236 7.28 -0.65 11.67
3/25/2021 5:00:00 PM 12.55 54.59 0.235 7.3 0.6 11.65
3/25/2021 5:15:00 PM 12.59 54.662 0.235 7.33 -0.71 11.64
3/25/2021 5:30:00 PM 12.62 54.716 0.235 7.34 -0.59 11.6
3/25/2021 5:45:00 PM 12.63 54.734 0.234 7.35 -0.44 11.56
3/25/2021 6:00:00 PM 12.65 54.77 0.234 7.36 -0.47 11.49
3/25/2021 6:15:00 PM 12.67 54.806 0.234 7.36 -0.04 11.46
3/25/2021 6:30:00 PM 12.68 54.824 0.234 7.36 -1.06 11.38
3/25/2021 6:45:00 PM 12.69 54.842 0.235 7.35 0 11.24
3/25/2021 7:00:00 PM 12.7 54.86 0.237 7.33 0.11 11.09
3/25/2021 7:15:00 PM 12.7 54.86 0.24 7.31 -0.39 10.96
3/25/2021 7:30:00 PM 12.7 54.86 0.241 7.3 0.04 10.84
3/25/2021 7:45:00 PM 12.7 54.86 0.242 7.28 -0.04 10.72
3/25/2021 8:00:00 PM 12.7 54.86 0.241 7.28 -1.1 10.62
3/25/2021 8:15:00 PM 12.7 54.86 0.241 7.25 -1.06 10.5
3/25/2021 8:30:00 PM 12.7 54.86 0.24 7.24 -0.42 10.39
3/25/2021 8:45:00 PM 12.7 54.86 0.239 7.21 0.19 10.3
3/25/2021 9:00:00 PM 12.7 54.86 0.238 7.2 -0.03 10.19
3/25/2021 9:15:00 PM 12.71 54.878 0.237 7.17 -0.18 10.1
3/25/2021 9:30:00 PM 12.72 54.896 0.237 7.15 0.68 10.01
3/25/2021 9:45:00 PM 12.73 54.914 0.238 7.13 1.82 9.9
3/25/2021 10:00:00 PM 12.75 54.95 0.239 7.11 0.45 9.84
3/25/2021 10:15:00 PM 12.76 54.968 0.241 7.09 1.21 9.76
3/25/2021 10:30:00 PM 12.78 55.004 0.242 7.06 0.51 9.46
3/25/2021 10:45:00 PM 12.78 55.004 0.243 7.05 0.28 9.69
3/25/2021 11:00:00 PM 12.79 55.022 0.243 7.03 2.51 9.65
3/25/2021 11:15:00 PM 12.79 55.022 0.243 7.01 -0.09 9.58
3/25/2021 11:30:00 PM 12.8 55.04 0.242 7 1.84 9.54
3/25/2021 11:45:00 PM 12.8 55.04 0.241 6.98 -0.07 9.47
3/26/2021 12:00:00 AM 12.8 55.04 0.24 6.97 1.05 9.45
3/26/2021 12:15:00 AM 12.8 55.04 0.24 6.95 1.17 9.39
3/26/2021 12:30:00 AM 12.81 55.058 0.24 6.94 0.28 9.34
3/26/2021 12:45:00 AM 12.81 55.058 0.241 6.93 1.42 9.32
3/26/2021 1:00:00 AM 12.81 55.058 0.242 6.91 -0.85 9.28
3/26/2021 1:15:00 AM 12.8 55.04 0.244 6.9 0.63 9.24
3/26/2021 1:30:00 AM 12.8 55.04 0.245 6.88 0.29 9.2
3/26/2021 1:45:00 AM 12.79 55.022 0.246 6.86 0.66 9.16
3/26/2021 2:00:00 AM 12.79 55.022 0.246 6.85 -0.89 9.13
3/26/2021 2:15:00 AM 12.78 55.004 0.246 6.83 -0.7 9.11
3/26/2021 2:30:00 AM 12.78 55.004 0.245 6.82 -0.43 9.09
3/26/2021 2:45:00 AM 12.77 54.986 0.245 6.81 0.57 9.06
3/26/2021 3:00:00 AM 12.76 54.968 0.244 6.79 0.02 9.04
3/26/2021 3:15:00 AM 12.75 54.95 0.243 6.78 0.62 9.03
3/26/2021 3:30:00 AM 12.74 54.932 0.243 6.77 3.37 9.01
3/26/2021 3:45:00 AM 12.73 54.914 0.244 6.76 0.99 9
3/26/2021 4:00:00 AM 12.73 54.914 0.244 6.75 0.66 8.97
3/26/2021 4:15:00 AM 12.72 54.896 0.246 6.74 1.26 8.97
3/26/2021 4:30:00 AM 12.71 54.878 0.248 6.72 2.97 8.91
3/26/2021 4:45:00 AM 12.7 54.86 0.248 6.71 1.18 8.91
3/26/2021 5:00:00 AM 12.69 54.842 0.248 6.7 -1.23 8.9
3/26/2021 5:15:00 AM 12.68 54.824 0.248 6.69 1.83 8.89
3/26/2021 5:30:00 AM 12.68 54.824 0.247 6.7 4.85 8.89
3/26/2021 5:45:00 AM 12.67 54.806 0.247 6.69 -1.1 8.88
3/26/2021 6:00:00 AM 12.66 54.788 0.246 6.68 3.54 8.86
3/26/2021 6:15:00 AM 12.66 54.788 0.245 6.68 0.86 8.87
3/26/2021 6:30:00 AM 12.65 54.77 0.244 6.67 -1.32 8.86
3/26/2021 6:45:00 AM 12.65 54.77 0.245 6.66 3.4 8.86
3/26/2021 7:00:00 AM 12.64 54.752 0.246 6.66 -0.83 8.84
3/26/2021 7:15:00 AM 12.65 54.77 0.247 6.66 0.42 8.83
3/26/2021 7:30:00 AM 12.66 54.788 0.249 6.65 2.11 8.85
3/26/2021 7:45:00 AM 12.68 54.824 0.25 6.65 0.8 8.87
3/26/2021 8:00:00 AM 12.71 54.878 0.251 6.66 0.51 8.89
3/26/2021 8:15:00 AM 12.73 54.914 0.25 6.67 1.05 8.96
3/26/2021 8:30:00 AM 12.78 55.004 0.249 6.67 5.48 9.04
3/26/2021 8:45:00 AM 12.85 55.13 0.248 6.7 -0.47 9.15
3/26/2021 9:00:00 AM 12.91 55.238 0.247 6.71 -0.99 9.27
3/26/2021 9:15:00 AM 13 55.4 0.246 6.74 -0.38 9.39
3/26/2021 9:30:00 AM 13.1 55.58 0.246 6.76 -0.51 9.52
3/26/2021 9:45:00 AM 13.22 55.796 0.245 6.8 -0.69 9.66
3/26/2021 10:00:00 AM 13.33 55.994 0.246 6.83 0.65 9.77
3/26/2021 10:15:00 AM 13.43 56.174 0.247 6.87 -0.7 9.91
3/26/2021 10:30:00 AM 13.54 56.372 0.248 6.9 0.22 10.04
3/26/2021 10:45:00 AM 13.66 56.588 0.249 6.94 -0.79 10.15
3/26/2021 11:00:00 AM 13.73 56.714 0.249 6.97 -0.6 10.22
3/26/2021 11:15:00 AM 13.88 56.984 0.249 7 -0.56 10.33
3/26/2021 11:30:00 AM 14.02 57.236 0.249 7.03 1.46 10.43
3/26/2021 11:45:00 AM 14.14 57.452 0.248 7.07 -0.52 10.53
3/26/2021 12:00:00 PM 14.28 57.704 0.248 7.12 -0.38 10.61
3/26/2021 12:15:00 PM 14.43 57.974 0.247 7.17 -0.97 10.72
3/26/2021 12:30:00 PM 14.59 58.262 0.247 7.22 0.53 10.82
3/26/2021 12:45:00 PM 14.73 58.514 0.247 7.26 -0.95 10.92
3/26/2021 1:00:00 PM 14.87 58.766 0.247 7.31 -1.33 10.99
3/26/2021 1:15:00 PM 15 59 0.248 7.35 -1.04 11.06
3/26/2021 1:30:00 PM 15.13 59.234 0.249 7.39 -1.36 11.14
3/26/2021 1:45:00 PM 15.26 59.468 0.249 7.42 1.15 11.2
3/26/2021 2:00:00 PM 15.39 59.702 0.249 7.46 -0.63 11.27
3/26/2021 2:15:00 PM 15.5 59.9 0.249 7.5 0.63 11.29
3/26/2021 2:30:00 PM 15.62 60.116 0.249 7.55 -1.35 11.34
3/26/2021 2:45:00 PM 15.73 60.314 0.248 7.58 -0.1 11.41
3/26/2021 3:00:00 PM 15.81 60.458 0.248 7.61 0 11.43
3/26/2021 3:15:00 PM 15.89 60.602 0.248 7.64 -0.73 11.44
3/26/2021 3:30:00 PM 15.97 60.746 0.248 7.67 -0.06 11.45
3/26/2021 3:45:00 PM 16.03 60.854 0.248 7.69 -1.04 11.44
3/26/2021 4:00:00 PM 16.09 60.962 0.247 7.71 -0.7 11.43
3/26/2021 4:15:00 PM 16.14 61.052 0.247 7.74 0.57 11.44
3/26/2021 4:30:00 PM 16.17 61.106 0.248 7.75 -1.47 11.41
3/26/2021 4:45:00 PM 16.21 61.178 0.248 7.77 -1.22 11.36
3/26/2021 5:00:00 PM 16.21 61.178 0.249 7.78 -1.1 11.3
3/26/2021 5:15:00 PM 16.22 61.196 0.248 7.79 -0.24 11.25
3/26/2021 5:30:00 PM 16.23 61.214 0.248 7.8 -1.36 11.2
3/26/2021 5:45:00 PM 16.25 61.25 0.247 7.81 -0.29 11.14
3/26/2021 6:00:00 PM 16.25 61.25 0.247 7.82 -0.71 11.08
3/26/2021 6:15:00 PM 16.24 61.232 0.246 7.83 -0.66 10.99
3/26/2021 6:30:00 PM 16.22 61.196 0.246 7.83 -0.25 10.9
3/26/2021 6:45:00 PM 16.2 61.16 0.246 7.82 -0.94 10.76
3/26/2021 7:00:00 PM 16.16 61.088 0.246 7.81 3.35 10.62
3/26/2021 7:15:00 PM 16.12 61.016 0.247 7.79 -1.41 10.46
3/26/2021 7:30:00 PM 16.07 60.926 0.249 7.76 -0.55 10.29
3/26/2021 7:45:00 PM 16.03 60.854 0.251 7.74 -1.62 10.12
3/26/2021 8:00:00 PM 15.99 60.782 0.251 7.71 0.94 9.96
3/26/2021 8:15:00 PM 15.95 60.71 0.252 7.68 0.8 9.79
3/26/2021 8:30:00 PM 15.91 60.638 0.251 7.66 -0.75 9.67
3/26/2021 8:45:00 PM 15.87 60.566 0.251 7.63 -1.19 9.53
3/26/2021 9:00:00 PM 15.83 60.494 0.249 7.6 -0.52 9.41
3/26/2021 9:15:00 PM 15.79 60.422 0.248 7.58 -0.87 9.28
3/26/2021 9:30:00 PM 15.75 60.35 0.247 7.54 -0.99 9.19
3/26/2021 9:45:00 PM 15.7 60.26 0.247 7.51 1.71 9.07
3/26/2021 10:00:00 PM 15.65 60.17 0.248 7.47 0.25 8.99
3/26/2021 10:15:00 PM 15.6 60.08 0.25 7.44 0.39 8.89
3/26/2021 10:30:00 PM 15.55 59.99 0.253 7.4 -0.47 8.82
3/26/2021 10:45:00 PM 15.5 59.9 0.255 7.37 -0.53 8.73
3/26/2021 11:00:00 PM 15.45 59.81 0.256 7.33 -0.13 8.67
3/26/2021 11:15:00 PM 15.4 59.72 0.256 7.3 -0.49 8.63
3/26/2021 11:30:00 PM 15.34 59.612 0.255 7.27 -0.53 8.57
3/26/2021 11:45:00 PM 15.28 59.504 0.255 7.25 -0.56 8.53
3/27/2021 12:00:00 AM 15.21 59.378 0.254 7.22 11.74 8.5
3/27/2021 12:15:00 AM 15.14 59.252 0.253 7.2 2.05 8.48
3/27/2021 12:30:00 AM 15.06 59.108 0.252 7.18 -0.28 8.45
3/27/2021 12:45:00 AM 14.97 58.946 0.252 7.15 0.24 8.43
3/27/2021 1:00:00 AM 14.88 58.784 0.253 7.13 1.11 8.41
3/27/2021 1:15:00 AM 14.79 58.622 0.254 7.1 -0.23 8.4
3/27/2021 1:30:00 AM 14.69 58.442 0.256 7.06 0.75 8.39
3/27/2021 1:45:00 AM 14.59 58.262 0.257 7.04 -0.39 8.37
3/27/2021 2:00:00 AM 14.5 58.1 0.258 7 0.21 8.38
3/27/2021 2:15:00 AM 14.39 57.902 0.258 6.98 1.76 8.38
3/27/2021 2:30:00 AM 14.29 57.722 0.258 6.96 -0.66 8.38
3/27/2021 2:45:00 AM 14.19 57.542 0.257 6.93 -0.04 8.38
3/27/2021 3:00:00 AM 14.09 57.362 0.257 6.91 0.47 8.38
3/27/2021 3:15:00 AM 14 57.2 0.256 6.88 -0.15 8.41
3/27/2021 3:30:00 AM 13.9 57.02 0.255 6.86 0.04 8.4
3/27/2021 3:45:00 AM 13.81 56.858 0.254 6.84 -0.14 8.42
3/27/2021 4:00:00 AM 13.71 56.678 0.255 6.82 -0.01 8.42
3/27/2021 4:15:00 AM 13.61 56.498 0.256 6.79 0.53 8.43
3/27/2021 4:30:00 AM 13.52 56.336 0.257 6.78 1.27 8.44
3/27/2021 4:45:00 AM 13.42 56.156 0.258 6.76 1.06 8.44
3/27/2021 5:00:00 AM 13.34 56.012 0.259 6.73 0.74 8.45
3/27/2021 5:15:00 AM 13.24 55.832 0.259 6.71 -0.97 8.47
3/27/2021 5:30:00 AM 13.15 55.67 0.259 6.7 2.19 8.48
3/27/2021 5:45:00 AM 13.06 55.508 0.259 6.69 0.81 8.5
3/27/2021 6:00:00 AM 12.98 55.364 0.259 6.67 0.84 8.52
3/27/2021 6:15:00 AM 12.9 55.22 0.257 6.67 -0.23 8.54
3/27/2021 6:30:00 AM 12.82 55.076 0.256 6.65 -0.95 8.57
3/27/2021 6:45:00 AM 12.75 54.95 0.256 6.64 4.67 8.57
3/27/2021 7:00:00 AM 12.67 54.806 0.256 6.63 0.33 8.59
3/27/2021 7:15:00 AM 12.59 54.662 0.256 6.63 0.43 8.61
3/27/2021 7:30:00 AM 12.54 54.572 0.257 6.62 -0.81 8.64
3/27/2021 7:45:00 AM 12.48 54.464 0.258 6.6 1.41 8.69
3/27/2021 8:00:00 AM 12.44 54.392 0.259 6.6 0.55 8.72
3/27/2021 8:15:00 AM 12.4 54.32 0.259 6.6 3.63 8.8
3/27/2021 8:30:00 AM 12.39 54.302 0.259 6.6 0.21 8.89
3/27/2021 8:45:00 AM 12.4 54.32 0.258 6.62 -0.54 9.01
3/27/2021 9:00:00 AM 12.4 54.32 0.257 6.63 -0.43 9.16
3/27/2021 9:15:00 AM 12.41 54.338 0.256 6.65 -0.86 9.3
3/27/2021 9:30:00 AM 12.44 54.392 0.256 6.67 -0.72 9.45
3/27/2021 9:45:00 AM 12.49 54.482 0.255 6.7 -0.93 9.61
3/27/2021 10:00:00 AM 12.55 54.59 0.254 6.73 -1.15 9.8
3/27/2021 10:15:00 AM 12.65 54.77 0.255 6.76 0.84 9.94
3/27/2021 10:30:00 AM 12.78 55.004 0.255 6.79 -0.82 10.1
3/27/2021 10:45:00 AM 12.89 55.202 0.256 6.84 -0.9 10.27
3/27/2021 11:00:00 AM 13 55.4 0.257 6.89 -0.53 10.41
3/27/2021 11:15:00 AM 13.12 55.616 0.257 6.93 -1.01 10.56
3/27/2021 11:30:00 AM 13.24 55.832 0.257 6.97 -1.03 10.67
3/27/2021 11:45:00 AM 13.37 56.066 0.256 7.01 -1.95 10.8
3/27/2021 12:00:00 PM 13.49 56.282 0.255 7.06 -1.63 10.91
3/27/2021 12:15:00 PM 13.63 56.534 0.255 7.1 -1.48 11
3/27/2021 12:30:00 PM 13.74 56.732 0.254 7.16 -1 11.14
3/27/2021 12:45:00 PM 13.88 56.984 0.253 7.21 -1.04 11.22
3/27/2021 1:00:00 PM 14.04 57.272 0.253 7.25 -0.99 11.36
3/27/2021 1:15:00 PM 14.16 57.488 0.253 7.3 -1.77 11.43
3/27/2021 1:30:00 PM 14.29 57.722 0.254 7.34 0.53 11.49
3/27/2021 1:45:00 PM 14.4 57.92 0.254 7.4 -1.38 11.6
3/27/2021 2:00:00 PM 14.52 58.136 0.254 7.44 -0.02 11.68
3/27/2021 2:15:00 PM 14.63 58.334 0.255 7.49 -1.52 11.77
3/27/2021 2:30:00 PM 14.72 58.496 0.255 7.52 -1.67 11.83
3/27/2021 2:45:00 PM 14.8 58.64 0.254 7.57 -1.54 11.89
3/27/2021 3:00:00 PM 14.87 58.766 0.254 7.6 -0.39 11.94
3/27/2021 3:15:00 PM 14.94 58.892 0.253 7.63 1.25 11.95
3/27/2021 3:30:00 PM 15.01 59.018 0.253 7.67 -1.4 12.01
3/27/2021 3:45:00 PM 15.05 59.09 0.252 7.7 -1.01 12.03
3/27/2021 4:00:00 PM 15.08 59.144 0.252 7.72 -1.22 12.04
3/27/2021 4:15:00 PM 15.1 59.18 0.252 7.73 -1.49 11.98
3/27/2021 4:30:00 PM 15.11 59.198 0.252 7.75 -0.71 11.94
3/27/2021 4:45:00 PM 15.12 59.216 0.252 7.75 -0.15 11.88
3/27/2021 5:00:00 PM 15.12 59.216 0.253 7.75 -1.61 11.79
3/27/2021 5:15:00 PM 15.12 59.216 0.253 7.75 -0.95 11.7
3/27/2021 5:30:00 PM 15.11 59.198 0.253 7.76 -0.16 11.63
3/27/2021 5:45:00 PM 15.1 59.18 0.253 7.75 0.14 11.52
3/27/2021 6:00:00 PM 15.09 59.162 0.253 7.75 -0.79 11.4
3/27/2021 6:15:00 PM 15.08 59.144 0.252 7.74 -0.81 11.28
3/27/2021 6:30:00 PM 15.07 59.126 0.252 7.73 0.17 11.13
3/27/2021 6:45:00 PM 15.05 59.09 0.252 7.72 -0.91 10.98
3/27/2021 7:00:00 PM 15.03 59.054 0.252 7.71 -0.7 10.82
3/27/2021 7:15:00 PM 15.01 59.018 0.253 7.68 -1.18 10.66
3/27/2021 7:30:00 PM 14.98 58.964 0.254 7.66 -1.48 10.51
3/27/2021 7:45:00 PM 14.96 58.928 0.255 7.63 1.27 10.36
3/27/2021 8:00:00 PM 14.94 58.892 0.257 7.6 -1.19 10.17
3/27/2021 8:15:00 PM 14.92 58.856 0.258 7.57 0.86 10.05
3/27/2021 8:30:00 PM 14.91 58.838 0.258 7.55 -0.93 9.93
3/27/2021 8:45:00 PM 14.89 58.802 0.258 7.53 -0.22 9.81
3/27/2021 9:00:00 PM 14.87 58.766 0.258 7.52 -0.13 9.69
3/27/2021 9:15:00 PM 14.85 58.73 0.258 7.49 -0.79 9.56
3/27/2021 9:30:00 PM 14.84 58.712 0.257 7.46 -0.44 9.47
3/27/2021 9:45:00 PM 14.81 58.658 0.257 7.44 0.13 9.36
3/27/2021 10:00:00 PM 14.79 58.622 0.256 7.41 0.71 9.26
3/27/2021 10:15:00 PM 14.77 58.586 0.257 7.38 2.01 9.18
3/27/2021 10:30:00 PM 14.74 58.532 0.259 7.36 -0.12 9.1
3/27/2021 10:45:00 PM 14.7 58.46 0.261 7.32 2.86 9.02
3/27/2021 11:00:00 PM 14.67 58.406 0.263 7.29 1.63 8.95
3/27/2021 11:15:00 PM 14.63 58.334 0.263 7.26 3.82 8.9
3/27/2021 11:30:00 PM 14.59 58.262 0.263 7.23 1.15 8.86
3/27/2021 11:45:00 PM 14.54 58.172 0.263 7.21 1.14 8.81
3/28/2021 12:00:00 AM 14.49 58.082 0.262 7.19 0.92 8.77
3/28/2021 12:15:00 AM 14.45 58.01 0.261 7.17 3.18 8.73
3/28/2021 12:30:00 AM 14.39 57.902 0.259 7.16 0.41 8.7
3/28/2021 12:45:00 AM 14.34 57.812 0.258 7.13 0.93 8.68
3/28/2021 1:00:00 AM 14.28 57.704 0.258 7.11 0.34 8.64
3/28/2021 1:15:00 AM 14.22 57.596 0.258 7.09 1.48 8.62
3/28/2021 1:30:00 AM 14.16 57.488 0.259 7.06 6 8.61
3/28/2021 1:45:00 AM 14.09 57.362 0.261 7.04 2.84 8.58
3/28/2021 2:00:00 AM 14.03 57.254 0.262 7.01 1.66 8.56
3/28/2021 2:15:00 AM 13.97 57.146 0.263 6.99 2.04 8.55
3/28/2021 2:30:00 AM 13.91 57.038 0.264 6.97 0.55 8.54
3/28/2021 2:45:00 AM 13.86 56.948 0.263 6.94 0.09 8.51
3/28/2021 3:00:00 AM 13.81 56.858 0.262 6.92 0.84 8.52
3/28/2021 3:15:00 AM 13.76 56.768 0.261 6.9 3.63 8.52
3/28/2021 3:30:00 AM 13.71 56.678 0.261 6.88 0.9 8.5
3/28/2021 3:45:00 AM 13.66 56.588 0.26 6.87 7.57 8.51
3/28/2021 4:00:00 AM 13.62 56.516 0.259 6.85 1.36 8.52
3/28/2021 4:15:00 AM 13.57 56.426 0.259 6.84 3.51 8.51
3/28/2021 4:30:00 AM 13.53 56.354 0.26 6.82 2.02 8.5
3/28/2021 4:45:00 AM 13.49 56.282 0.261 6.8 1.33 8.51
3/28/2021 5:00:00 AM 13.45 56.21 0.262 6.79 1.85 8.49
3/28/2021 5:15:00 AM 13.41 56.138 0.263 6.77 2.63 8.48
3/28/2021 5:30:00 AM 13.37 56.066 0.263 6.76 3.71 8.49
3/28/2021 5:45:00 AM 13.34 56.012 0.262 6.74 3.92 8.5
3/28/2021 6:00:00 AM 13.3 55.94 0.261 6.73 5.07 8.51
3/28/2021 6:15:00 AM 13.26 55.868 0.261 6.73 2.43 8.49
3/28/2021 6:30:00 AM 13.24 55.832 0.26 6.72 4.24 8.5
3/28/2021 6:45:00 AM 13.21 55.778 0.259 6.71 10.99 8.5
3/28/2021 7:00:00 AM 13.18 55.724 0.259 6.7 4.09 8.51
3/28/2021 7:15:00 AM 13.15 55.67 0.259 6.7 4.16 8.51
3/28/2021 7:30:00 AM 13.13 55.634 0.259 6.69 3.9 8.53
3/28/2021 7:45:00 AM 13.11 55.598 0.261 6.68 2.49 8.53
3/28/2021 8:00:00 AM 13.09 55.562 0.261 6.67 1.66 8.55
3/28/2021 8:15:00 AM 13.07 55.526 0.262 6.67 4.75 8.57
3/28/2021 8:30:00 AM 13.05 55.49 0.263 6.67 7.34 8.57
3/28/2021 8:45:00 AM 13.03 55.454 0.263 6.68 8.87 8.6
3/28/2021 9:00:00 AM 13.02 55.436 0.261 6.68 9.07 8.66
3/28/2021 9:15:00 AM 13 55.4 0.261 6.68 12.88 8.67
3/28/2021 9:30:00 AM 12.99 55.382 0.26 6.68 1.08 8.7
3/28/2021 9:45:00 AM 12.98 55.364 0.259 6.68 6.18 8.76
3/28/2021 10:00:00 AM 12.97 55.346 0.258 6.69 4.16 8.81
3/28/2021 10:15:00 AM 12.95 55.31 0.257 6.68 1.4 8.83
3/28/2021 10:30:00 AM 12.94 55.292 0.257 6.68 4.61 8.83
3/28/2021 10:45:00 AM 12.95 55.31 0.258 6.69 9.78 8.9
3/28/2021 11:00:00 AM 12.95 55.31 0.259 6.69 8.96 8.96
3/28/2021 11:15:00 AM 12.97 55.346 0.26 6.7 1.26 9.02
3/28/2021 11:30:00 AM 12.99 55.382 0.26 6.72 3.91 9.17
3/28/2021 11:45:00 AM 13 55.4 0.259 6.74 7.31 9.27
3/28/2021 12:00:00 PM 13 55.4 0.259 6.74 6.36 9.29
3/28/2021 12:15:00 PM 13.01 55.418 0.259 6.76 7.99 9.28
3/28/2021 12:30:00 PM 13.02 55.436 0.258 6.75 8.02 9.32
3/28/2021 12:45:00 PM 13.03 55.454 0.258 6.77 9.02 9.38
3/28/2021 1:00:00 PM 13.05 55.49 0.257 6.79 6.25 9.43
3/28/2021 1:15:00 PM 13.07 55.526 0.258 6.79 4.73 9.53
3/28/2021 1:30:00 PM 13.11 55.598 0.258 6.82 9.08 9.65
3/28/2021 1:45:00 PM 13.18 55.724 0.259 6.85 6.04 9.79
3/28/2021 2:00:00 PM 13.27 55.886 0.26 6.89 5.05 10
3/28/2021 2:15:00 PM 13.33 55.994 0.26 6.93 5.56 10.16
3/28/2021 2:30:00 PM 13.35 56.03 0.26 6.96 2.87 10.25
3/28/2021 2:45:00 PM 13.4 56.12 0.26 6.99 4.3 10.29
3/28/2021 3:00:00 PM 13.43 56.174 0.259 7.01 5.63 10.33
3/28/2021 3:15:00 PM 13.49 56.282 0.259 7.04 4.12 10.39
3/28/2021 3:30:00 PM 13.56 56.408 0.258 7.08 4.98 10.5
3/28/2021 3:45:00 PM 13.63 56.534 0.258 7.12 7.01 10.64
3/28/2021 4:00:00 PM 13.7 56.66 0.257 7.15 3 10.75
3/28/2021 4:15:00 PM 13.76 56.768 0.257 7.19 5.35 10.86
3/28/2021 4:30:00 PM 13.79 56.822 0.258 7.21 6.33 10.9
3/28/2021 4:45:00 PM 13.8 56.84 0.258 7.23 21.83 10.81
3/28/2021 5:00:00 PM 13.79 56.822 0.258 7.22 4.86 10.68
3/28/2021 5:15:00 PM 13.8 56.84 0.257 7.22 0 10.58
3/28/2021 5:30:00 PM 13.78 56.804 0.257 7.2 0.28 10.5
3/28/2021 5:45:00 PM 13.76 56.768 0.257 7.19 0.92 10.42
3/28/2021 6:00:00 PM 13.73 56.714 0.257 7.16 1.37 10.31
3/28/2021 6:15:00 PM 13.72 56.696 0.256 7.15 1.24 10.23
3/28/2021 6:30:00 PM 13.71 56.678 0.256 7.13 0.59 10.14
3/28/2021 6:45:00 PM 13.7 56.66 0.256 7.13 -0.63 10.09
3/28/2021 7:00:00 PM 13.68 56.624 0.257 7.13 1.09 10.05
3/28/2021 7:15:00 PM 13.63 56.534 0.258 7.11 0.09 9.98
3/28/2021 7:30:00 PM 13.58 56.444 0.26 7.09 0.14 9.87
3/28/2021 7:45:00 PM 13.53 56.354 0.261 7.06 0.54 9.78
3/28/2021 8:00:00 PM 13.46 56.228 0.262 7.04 1.68 9.68
3/28/2021 8:15:00 PM 13.4 56.12 0.263 7.01 1.08 9.6
3/28/2021 8:30:00 PM 13.34 56.012 0.263 6.99 3.84 9.55
3/28/2021 8:45:00 PM 13.29 55.922 0.263 6.97 2.45 9.49
3/28/2021 9:00:00 PM 13.23 55.814 0.262 6.96 3.05 9.45
3/28/2021 9:15:00 PM 13.19 55.742 0.262 6.94 3.92 9.4
3/28/2021 9:30:00 PM 13.15 55.67 0.262 6.94 3.84 9.36
3/28/2021 9:45:00 PM 13.09 55.562 0.263 6.93 1.45 9.32
3/28/2021 10:00:00 PM 13.04 55.472 0.264 6.91 3.77 9.28
3/28/2021 10:15:00 PM 12.98 55.364 0.267 6.9 1.46 9.22
3/28/2021 10:30:00 PM 12.95 55.31 0.269 6.89 1.68 9.19
3/28/2021 10:45:00 PM 12.9 55.22 0.27 6.87 1.97 9.15
3/28/2021 11:00:00 PM 12.85 55.13 0.27 6.86 1.7 9.11
3/28/2021 11:15:00 PM 12.81 55.058 0.268 6.85 4.55 9.09
3/28/2021 11:30:00 PM 12.76 54.968 0.266 6.85 21.69 9.06
3/28/2021 11:45:00 PM 12.7 54.86 0.265 6.84 7.87 9.04
3/29/2021 12:00:00 AM 12.65 54.77 0.262 6.84 4.08 9.03
3/29/2021 12:15:00 AM 12.58 54.644 0.262 6.83 2.94 9.01
3/29/2021 12:30:00 AM 12.54 54.572 0.262 6.8 5.15 8.99
3/29/2021 12:45:00 AM 12.49 54.482 0.263 6.79 1.26 8.97
3/29/2021 1:00:00 AM 12.42 54.356 0.265 6.78 0.54 8.96
3/29/2021 1:15:00 AM 12.37 54.266 0.267 6.76 2.18 8.93
3/29/2021 1:30:00 AM 12.31 54.158 0.268 6.75 1.69 8.94
3/29/2021 1:45:00 AM 12.25 54.05 0.268 6.74 4.26 8.95
3/29/2021 2:00:00 AM 12.18 53.924 0.267 6.73 1.03 8.93
3/29/2021 2:15:00 AM 12.11 53.798 0.267 6.72 0.03 8.93
3/29/2021 2:30:00 AM 12.05 53.69 0.265 6.7 1.91 8.96
3/29/2021 2:45:00 AM 11.99 53.582 0.263 6.7 0.42 8.95
3/29/2021 3:00:00 AM 11.93 53.474 0.263 6.69 2.39 8.95
3/29/2021 3:15:00 AM 11.88 53.384 0.262 6.67 1.47 8.96
3/29/2021 3:30:00 AM 11.81 53.258 0.262 6.65 2.79 8.97
3/29/2021 3:45:00 AM 11.76 53.168 0.263 6.64 1.72 8.97
3/29/2021 4:00:00 AM 11.7 53.06 0.265 6.63 2.02 8.97
3/29/2021 4:15:00 AM 11.63 52.934 0.266 6.62 2.64 8.96
3/29/2021 4:30:00 AM 11.56 52.808 0.266 6.62 3.71 8.99
3/29/2021 4:45:00 AM 11.5 52.7 0.266 6.6 3.06 8.99
3/29/2021 5:00:00 AM 11.42 52.556 0.265 6.6 0.77 9.02
3/29/2021 5:15:00 AM 11.36 52.448 0.263 6.58 2.09 9.01
3/29/2021 5:30:00 AM 11.28 52.304 0.261 6.57 0.45 9.04
3/29/2021 5:45:00 AM 11.21 52.178 0.26 6.57 2.73 9.04
3/29/2021 6:00:00 AM 11.13 52.034 0.259 6.55 2.95 9.07
3/29/2021 6:15:00 AM 11.06 51.908 0.258 6.54 1.93 9.09
3/29/2021 6:30:00 AM 11 51.8 0.257 6.54 -0.24 9.13
3/29/2021 6:45:00 AM 10.93 51.674 0.258 6.52 2.57 9.14
3/29/2021 7:00:00 AM 10.87 51.566 0.259 6.51 3.46 9.15
3/29/2021 7:15:00 AM 10.8 51.44 0.26 6.51 2.62 9.17
3/29/2021 7:30:00 AM 10.73 51.314 0.26 6.51 0.71 9.2
3/29/2021 7:45:00 AM 10.67 51.206 0.26 6.5 1.62 9.25
3/29/2021 8:00:00 AM 10.62 51.116 0.259 6.5 3.3 9.3
3/29/2021 8:15:00 AM 10.57 51.026 0.257 6.5 -0.25 9.35
3/29/2021 8:30:00 AM 10.52 50.936 0.254 6.5 0.17 9.44
3/29/2021 8:45:00 AM 10.48 50.864 0.253 6.5 1.18 9.5
3/29/2021 9:00:00 AM 10.45 50.81 0.251 6.51 3.11 9.59
3/29/2021 9:15:00 AM 10.42 50.756 0.251 6.52 1.32 9.66
3/29/2021 9:30:00 AM 10.44 50.792 0.25 6.52 0.62 9.77
3/29/2021 9:45:00 AM 10.53 50.954 0.25 6.54 0.52 9.98
3/29/2021 10:00:00 AM 10.6 51.08 0.25 6.57 1.37 10.16
3/29/2021 10:15:00 AM 10.64 51.152 0.251 6.6 0.28 10.32
3/29/2021 10:30:00 AM 10.67 51.206 0.251 6.63 0.26 10.46
3/29/2021 10:45:00 AM 10.74 51.332 0.25 6.67 0.53 10.57
3/29/2021 11:00:00 AM 10.81 51.458 0.249 6.69 -0.31 10.72
3/29/2021 11:15:00 AM 10.84 51.512 0.248 6.72 3.2 10.84
3/29/2021 11:30:00 AM 10.81 51.458 0.247 6.76 -0.05 10.91
3/29/2021 11:45:00 AM 10.84 51.512 0.245 6.78 2.69 10.98
3/29/2021 12:00:00 PM 10.97 51.746 0.244 6.79 0.05 11.08
3/29/2021 12:15:00 PM 11.09 51.962 0.244 6.83 -0.57 11.2
3/29/2021 12:30:00 PM 11.21 52.178 0.243 6.87 0.49 11.34
3/29/2021 12:45:00 PM 11.31 52.358 0.243 6.92 1.09 11.42
3/29/2021 1:00:00 PM 11.44 52.592 0.243 6.95 0.47 11.54
3/29/2021 1:15:00 PM 11.54 52.772 0.243 7 0 11.61
3/29/2021 1:30:00 PM 11.65 52.97 0.242 7.03 0.76 11.69
3/29/2021 1:45:00 PM 11.76 53.168 0.242 7.07 -0.66 11.76
3/29/2021 2:00:00 PM 11.86 53.348 0.242 7.12 0.7 11.84
3/29/2021 2:15:00 PM 11.99 53.582 0.241 7.16 0.02 11.89
3/29/2021 2:30:00 PM 12.09 53.762 0.241 7.2 -0.08 11.96
3/29/2021 2:45:00 PM 12.18 53.924 0.24 7.24 -0.14 12.02
3/29/2021 3:00:00 PM 12.26 54.068 0.239 7.27 1.65 12.08
3/29/2021 3:15:00 PM 12.31 54.158 0.238 7.31 0.6 12.1
3/29/2021 3:30:00 PM 12.36 54.248 0.238 7.35 0.13 12.13
3/29/2021 3:45:00 PM 12.42 54.356 0.238 7.37 -0.23 12.14
3/29/2021 4:00:00 PM 12.47 54.446 0.239 7.39 2.2 12.06
3/29/2021 4:15:00 PM 12.51 54.518 0.239 7.42 1.27 12.04
3/29/2021 4:30:00 PM 12.54 54.572 0.239 7.45 0.7 12.16
3/29/2021 4:45:00 PM 12.56 54.608 0.239 7.46 1.86 12.16
3/29/2021 5:00:00 PM 12.58 54.644 0.239 7.48 4.38 12.14
3/29/2021 5:15:00 PM 12.59 54.662 0.239 7.49 0.69 12.09
3/29/2021 5:30:00 PM 12.59 54.662 0.238 7.5 1.06 12.05
3/29/2021 5:45:00 PM 12.57 54.626 0.238 7.5 -1 11.99
3/29/2021 6:00:00 PM 12.55 54.59 0.237 7.52 -0.03 11.91
3/29/2021 6:15:00 PM 12.53 54.554 0.236 7.51 0.93 11.84
3/29/2021 6:30:00 PM 12.5 54.5 0.236 7.51 -0.02 11.73
3/29/2021 6:45:00 PM 12.48 54.464 0.237 7.5 0.73 11.65
3/29/2021 7:00:00 PM 12.45 54.41 0.239 7.48 -0.16 11.51
3/29/2021 7:15:00 PM 12.44 54.392 0.241 7.46 -0.49 11.37
3/29/2021 7:30:00 PM 12.4 54.32 0.242 7.44 -0.42 11.26
3/29/2021 7:45:00 PM 12.37 54.266 0.243 7.42 -0.75 11.12
3/29/2021 8:00:00 PM 12.34 54.212 0.242 7.4 0.67 10.97
3/29/2021 8:15:00 PM 12.3 54.14 0.241 7.36 -0.5 10.83
3/29/2021 8:30:00 PM 12.27 54.086 0.24 7.35 0.91 10.72
3/29/2021 8:45:00 PM 12.22 53.996 0.239 7.33 -0.55 10.58
3/29/2021 9:00:00 PM 12.19 53.942 0.238 7.3 0.71 10.47
3/29/2021 9:15:00 PM 12.14 53.852 0.237 7.29 0.85 10.37
3/29/2021 9:30:00 PM 12.12 53.816 0.237 7.25 2.93 10.28
3/29/2021 9:45:00 PM 12.06 53.708 0.237 7.23 1.17 10.18
3/29/2021 10:00:00 PM 12.02 53.636 0.239 7.19 -0.72 10.08
3/29/2021 10:15:00 PM 11.98 53.564 0.241 7.16 0.94 9.99
3/29/2021 10:30:00 PM 11.95 53.51 0.243 7.12 2.6 9.91
3/29/2021 10:45:00 PM 11.91 53.438 0.243 7.08 2.79 9.84
3/29/2021 11:00:00 PM 11.85 53.33 0.244 7.06 -0.06 9.81
3/29/2021 11:15:00 PM 11.81 53.258 0.243 7.04 -0.69 9.76
3/29/2021 11:30:00 PM 11.76 53.168 0.242 7.02 0.12 9.7
3/29/2021 11:45:00 PM 11.7 53.06 0.24 7 0.61 9.68
3/30/2021 12:00:00 AM 11.64 52.952 0.24 6.97 1.64 9.65
3/30/2021 12:15:00 AM 11.58 52.844 0.239 6.94 7 9.62
3/30/2021 12:30:00 AM 11.51 52.718 0.239 6.92 -1.13 9.58
3/30/2021 12:45:00 AM 11.44 52.592 0.239 6.9 -0.09 9.56
3/30/2021 1:00:00 AM 11.37 52.466 0.24 6.87 -0.23 9.55
3/30/2021 1:15:00 AM 11.31 52.358 0.241 6.85 1.41 9.52
3/30/2021 1:30:00 AM 11.23 52.214 0.243 6.81 0.65 9.5
3/30/2021 1:45:00 AM 11.16 52.088 0.243 6.79 -1.06 9.5
3/30/2021 2:00:00 AM 11.07 51.926 0.243 6.77 -0.86 9.49
3/30/2021 2:15:00 AM 11 51.8 0.243 6.74 -0.25 9.49
3/30/2021 2:30:00 AM 10.92 51.656 0.242 6.72 0.43 9.48
3/30/2021 2:45:00 AM 10.84 51.512 0.241 6.69 -0.62 9.48
3/30/2021 3:00:00 AM 10.75 51.35 0.24 6.68 0.18 9.48
3/30/2021 3:15:00 AM 10.67 51.206 0.239 6.66 -1.25 9.48
3/30/2021 3:30:00 AM 10.58 51.044 0.239 6.64 -0.51 9.49
3/30/2021 3:45:00 AM 10.5 50.9 0.239 6.63 0.34 9.5
3/30/2021 4:00:00 AM 10.42 50.756 0.24 6.6 2.55 9.5
3/30/2021 4:15:00 AM 10.34 50.612 0.241 6.58 -0.38 9.51
3/30/2021 4:30:00 AM 10.27 50.486 0.243 6.55 1.85 9.52
3/30/2021 4:45:00 AM 10.19 50.342 0.244 6.54 1.04 9.53
3/30/2021 5:00:00 AM 10.12 50.216 0.244 6.53 0.51 9.53
3/30/2021 5:15:00 AM 10.05 50.09 0.244 6.52 -0.67 9.54
3/30/2021 5:30:00 AM 9.97 49.946 0.243 6.51 0.75 9.55
3/30/2021 5:45:00 AM 9.9 49.82 0.243 6.48 -0.32 9.56
3/30/2021 6:00:00 AM 9.83 49.694 0.242 6.48 -1.08 9.57
3/30/2021 6:15:00 AM 9.76 49.568 0.242 6.46 -0.94 9.6
3/30/2021 6:30:00 AM 9.68 49.424 0.242 6.45 -0.77 9.61
3/30/2021 6:45:00 AM 9.62 49.316 0.242 6.45 -0.47 9.62
3/30/2021 7:00:00 AM 9.57 49.226 0.242 6.43 -0.76 9.65
3/30/2021 7:15:00 AM 9.51 49.118 0.244 6.42 0.05 9.66
3/30/2021 7:30:00 AM 9.47 49.046 0.245 6.42 -1.32 9.68
3/30/2021 7:45:00 AM 9.42 48.956 0.247 6.42 -1.3 9.73
3/30/2021 8:00:00 AM 9.39 48.902 0.248 6.41 -0.53 9.76
3/30/2021 8:15:00 AM 9.37 48.866 0.248 6.41 -0.51 9.83
3/30/2021 8:30:00 AM 9.36 48.848 0.247 6.42 -1.35 9.9
3/30/2021 8:45:00 AM 9.37 48.866 0.246 6.42 -0.58 10.03
3/30/2021 9:00:00 AM 9.42 48.956 0.246 6.43 -0.07 10.12
3/30/2021 9:15:00 AM 9.49 49.082 0.245 6.44 -0.06 10.26
3/30/2021 9:30:00 AM 9.6 49.28 0.244 6.46 0.77 10.41
3/30/2021 9:45:00 AM 9.66 49.388 0.244 6.49 -0.52 10.55
3/30/2021 10:00:00 AM 9.75 49.55 0.244 6.52 -0.42 10.69
3/30/2021 10:15:00 AM 9.85 49.73 0.245 6.56 -0.57 10.82
3/30/2021 10:30:00 AM 9.95 49.91 0.246 6.59 -0.21 10.98
3/30/2021 10:45:00 AM 10.07 50.126 0.247 6.63 -0.95 11.08
3/30/2021 11:00:00 AM 10.21 50.378 0.247 6.66 -1.05 11.21
3/30/2021 11:15:00 AM 10.34 50.612 0.247 6.7 -0.77 11.34
3/30/2021 11:30:00 AM 10.47 50.846 0.247 6.74 -0.01 11.45
3/30/2021 11:45:00 AM 10.63 51.134 0.247 6.79 -1.08 11.55
3/30/2021 12:00:00 PM 10.78 51.404 0.246 6.82 1.7 11.63
3/30/2021 12:15:00 PM 10.93 51.674 0.245 6.87 -0.98 11.73
3/30/2021 12:30:00 PM 11.07 51.926 0.245 6.92 0.67 11.81
3/30/2021 12:45:00 PM 11.23 52.214 0.245 6.98 -1.59 11.88
3/30/2021 1:00:00 PM 11.39 52.502 0.244 7.04 -0.85 11.97
3/30/2021 1:15:00 PM 11.55 52.79 0.245 7.09 -1 12.04
3/30/2021 1:30:00 PM 11.7 53.06 0.245 7.13 -0.66 12.1
3/30/2021 1:45:00 PM 11.85 53.33 0.246 7.17 -1.26 12.17
3/30/2021 2:00:00 PM 12 53.6 0.246 7.21 1.43 12.21
3/30/2021 2:15:00 PM 12.14 53.852 0.246 7.25 -1.02 12.24
3/30/2021 2:30:00 PM 12.28 54.104 0.246 7.29 -0.34 12.29
3/30/2021 2:45:00 PM 12.4 54.32 0.246 7.34 -1.9 12.32
3/30/2021 3:00:00 PM 12.53 54.554 0.246 7.37 -1.46 12.36
3/30/2021 3:15:00 PM 12.64 54.752 0.246 7.41 -0.04 12.39
3/30/2021 3:30:00 PM 12.75 54.95 0.245 7.43 -1.08 12.42
3/30/2021 3:45:00 PM 12.85 55.13 0.245 7.46 -0.89 12.39
3/30/2021 4:00:00 PM 12.95 55.31 0.245 7.49 -1.14 12.42
3/30/2021 4:15:00 PM 13.01 55.418 0.246 7.51 -1.35 12.41
3/30/2021 4:30:00 PM 13.09 55.562 0.247 7.54 -1.43 12.37
3/30/2021 4:45:00 PM 13.17 55.706 0.248 7.56 -1.63 12.38
3/30/2021 5:00:00 PM 13.23 55.814 0.248 7.58 -0.85 12.33
3/30/2021 5:15:00 PM 13.27 55.886 0.249 7.59 -1.22 12.29
3/30/2021 5:30:00 PM 13.31 55.958 0.249 7.6 -0.73 12.24
3/30/2021 5:45:00 PM 13.33 55.994 0.248 7.62 -1.88 12.18
3/30/2021 6:00:00 PM 13.33 55.994 0.248 7.63 -1.16 12.09
3/30/2021 6:15:00 PM 13.33 55.994 0.247 7.63 -0.43 11.97
3/30/2021 6:30:00 PM 13.33 55.994 0.247 7.63 -1.52 11.85
3/30/2021 6:45:00 PM 13.33 55.994 0.247 7.64 -1.15 11.72
3/30/2021 7:00:00 PM 13.3 55.94 0.248 7.62 0.02 11.59
3/30/2021 7:15:00 PM 13.29 55.922 0.249 7.61 -1.82 11.45
3/30/2021 7:30:00 PM 13.26 55.868 0.251 7.58 -0.84 11.28
3/30/2021 7:45:00 PM 13.24 55.832 0.253 7.56 -1.26 11.1
3/30/2021 8:00:00 PM 13.22 55.796 0.255 7.53 -0.73 10.94
3/30/2021 8:15:00 PM 13.2 55.76 0.256 7.51 -1.08 10.78
3/30/2021 8:30:00 PM 13.18 55.724 0.255 7.48 -1.33 10.65
3/30/2021 8:45:00 PM 13.16 55.688 0.255 7.46 -1.1 10.51
3/30/2021 9:00:00 PM 13.14 55.652 0.254 7.44 -0.67 10.36
3/30/2021 9:15:00 PM 13.12 55.616 0.253 7.41 -0.54 10.24
3/30/2021 9:30:00 PM 13.09 55.562 0.253 7.39 -0.37 10.12
3/30/2021 9:45:00 PM 13.06 55.508 0.252 7.37 -1.48 10.01
3/30/2021 10:00:00 PM 13.04 55.472 0.252 7.34 -0.79 9.9
3/30/2021 10:15:00 PM 13.03 55.454 0.253 7.3 -0.47 9.79
3/30/2021 10:30:00 PM 13 55.4 0.255 7.27 -1 9.7
3/30/2021 10:45:00 PM 12.99 55.382 0.257 7.23 -0.65 9.6
3/30/2021 11:00:00 PM 12.96 55.328 0.259 7.2 -1.25 9.52
3/30/2021 11:15:00 PM 12.94 55.292 0.26 7.17 -0.07 9.46
3/30/2021 11:30:00 PM 12.92 55.256 0.26 7.15 -0.62 9.39
3/30/2021 11:45:00 PM 12.89 55.202 0.259 7.13 -0.19 9.35
3/31/2021 12:00:00 AM 12.86 55.148 0.258 7.1 2.21 9.3
3/31/2021 12:15:00 AM 12.83 55.094 0.257 7.09 -1.32 9.26
3/31/2021 12:30:00 AM 12.8 55.04 0.256 7.07 -0.83 9.22
3/31/2021 12:45:00 AM 12.76 54.968 0.255 7.04 6.87 9.19
3/31/2021 1:00:00 AM 12.71 54.878 0.255 7.03 -0.11 9.17
3/31/2021 1:15:00 AM 12.66 54.788 0.256 7.01 -0.62 9.13
3/31/2021 1:30:00 AM 12.62 54.716 0.257 6.98 2.38 9.09
3/31/2021 1:45:00 AM 12.56 54.608 0.259 6.96 -0.61 9.07
3/31/2021 2:00:00 AM 12.51 54.518 0.26 6.94 -0.62 9.05
3/31/2021 2:15:00 AM 12.45 54.41 0.26 6.91 0.77 9.04
3/31/2021 2:30:00 AM 12.39 54.302 0.261 6.89 -1.15 9.02
3/31/2021 2:45:00 AM 12.32 54.176 0.26 6.86 -1.21 9.01
3/31/2021 3:00:00 AM 12.26 54.068 0.259 6.84 -1.03 8.98
3/31/2021 3:15:00 AM 12.2 53.96 0.258 6.82 -0.41 9
3/31/2021 3:30:00 AM 12.13 53.834 0.257 6.8 -0.03 9
3/31/2021 3:45:00 AM 12.07 53.726 0.257 6.78 0.38 8.97
3/31/2021 4:00:00 AM 12 53.6 0.256 6.76 7.34 9
3/31/2021 4:15:00 AM 11.94 53.492 0.257 6.73 0.2 8.98
3/31/2021 4:30:00 AM 11.89 53.402 0.257 6.71 -1.6 8.99
3/31/2021 4:45:00 AM 11.82 53.276 0.259 6.7 -0.86 8.97
3/31/2021 5:00:00 AM 11.75 53.15 0.26 6.68 6.17 8.98
3/31/2021 5:15:00 AM 11.7 53.06 0.26 6.67 -1.85 8.97
3/31/2021 5:30:00 AM 11.63 52.934 0.26 6.65 -0.32 8.99
3/31/2021 5:45:00 AM 11.57 52.826 0.259 6.64 -1.21 8.99
3/31/2021 6:00:00 AM 11.51 52.718 0.259 6.63 -1.15 9
3/31/2021 6:15:00 AM 11.45 52.61 0.258 6.59 -0.51 8.99
3/31/2021 6:30:00 AM 11.39 52.502 0.257 6.58 -0.21 9.01
3/31/2021 6:45:00 AM 11.33 52.394 0.256 6.56 15.66 9.04
3/31/2021 7:00:00 AM 11.28 52.304 0.256 6.54 1.51 9.03
3/31/2021 7:15:00 AM 11.24 52.232 0.256 6.53 -0.61 9.05
3/31/2021 7:30:00 AM 11.2 52.16 0.257 6.52 0 9.08
3/31/2021 7:45:00 AM 11.18 52.124 0.259 6.52 -0.82 9.12
3/31/2021 8:00:00 AM 11.16 52.088 0.26 6.52 -0.85 9.17
3/31/2021 8:15:00 AM 11.16 52.088 0.261 6.53 -0.82 9.26
3/31/2021 8:30:00 AM 11.16 52.088 0.261 6.55 -1.13 9.35
3/31/2021 8:45:00 AM 11.17 52.106 0.261 6.54 -0.9 9.42
3/31/2021 9:00:00 AM 11.18 52.124 0.26 6.55 -1.09 9.5
3/31/2021 9:15:00 AM 11.2 52.16 0.258 6.55 -0.21 9.59
3/31/2021 9:30:00 AM 11.23 52.214 0.257 6.55 -0.47 9.64
3/31/2021 9:45:00 AM 11.27 52.286 0.256 6.54 -1.56 9.73
3/31/2021 10:00:00 AM 11.34 52.412 0.256 6.55 -1.87 9.86
3/31/2021 10:15:00 AM 11.41 52.538 0.256 6.57 -0.88 10.03
3/31/2021 10:30:00 AM 11.46 52.628 0.256 6.6 0.1 10.16
3/31/2021 10:45:00 AM 11.52 52.736 0.257 6.64 -0.4 10.28
3/31/2021 11:00:00 AM 11.59 52.862 0.258 6.67 -0.5 10.37
3/31/2021 11:15:00 AM 11.7 53.06 0.258 6.71 -0.26 10.49
3/31/2021 11:30:00 AM 11.78 53.204 0.258 6.76 -1.22 10.64
3/31/2021 11:45:00 AM 11.84 53.312 0.258 6.8 -1.38 10.79
3/31/2021 12:00:00 PM 11.9 53.42 0.257 6.85 -1.7 10.86
3/31/2021 12:15:00 PM 11.96 53.528 0.257 6.89 -1.02 10.95
3/31/2021 12:30:00 PM 12.02 53.636 0.256 6.91 -0.86 10.99
3/31/2021 12:45:00 PM 12.08 53.744 0.255 6.96 -0.53 11.06
3/31/2021 1:00:00 PM 12.12 53.816 0.254 6.99 -1.82 11.09
3/31/2021 1:15:00 PM 12.16 53.888 0.254 7 -1 11.12
3/31/2021 1:30:00 PM 12.21 53.978 0.254 7.04 -1.38 11.12
3/31/2021 1:45:00 PM 12.25 54.05 0.254 7.06 0.18 11.17
3/31/2021 2:00:00 PM 12.28 54.104 0.255 7.07 -1.55 11.19
3/31/2021 2:15:00 PM 12.31 54.158 0.255 7.09 -0.64 11.16
3/31/2021 2:30:00 PM 12.33 54.194 0.255 7.08 -1.15 11.17
3/31/2021 2:45:00 PM 12.35 54.23 0.255 7.1 -1.49 11.12
3/31/2021 3:00:00 PM 12.36 54.248 0.255 7.09 -1.64 11.07
3/31/2021 3:15:00 PM 12.38 54.284 0.254 7.1 -0.88 10.99
3/31/2021 3:30:00 PM 12.38 54.284 0.255 7.1 -0.9 10.94
3/31/2021 3:45:00 PM 12.38 54.284 0.254 7.08 -1.1 10.86
3/31/2021 4:00:00 PM 12.39 54.302 0.254 7.09 1.23 10.79
3/31/2021 4:15:00 PM 12.4 54.32 0.254 7.09 -0.78 10.75
3/31/2021 4:30:00 PM 12.43 54.374 0.255 7.07 -0.41 10.77
3/31/2021 4:45:00 PM 12.45 54.41 0.255 7.08 -0.46 10.8
3/31/2021 5:00:00 PM 12.46 54.428 0.256 7.09 -1.52 10.78
3/31/2021 5:15:00 PM 12.48 54.464 0.257 7.09 -0.78 10.74
3/31/2021 5:30:00 PM 12.49 54.482 0.257 7.09 0.07 10.67
3/31/2021 5:45:00 PM 12.5 54.5 0.256 7.09 -1.12 10.6
3/31/2021 6:00:00 PM 12.51 54.518 0.256 7.07 -0.16 10.51
3/31/2021 6:15:00 PM 12.52 54.536 0.255 7.05 -1.26 10.43
3/31/2021 6:30:00 PM 12.52 54.536 0.255 7.04 -1.49 10.34
3/31/2021 6:45:00 PM 12.54 54.572 0.254 7.02 -1.54 10.26
3/31/2021 7:00:00 PM 12.54 54.572 0.254 7 -0.16 10.12
3/31/2021 7:15:00 PM 12.55 54.59 0.255 6.97 -0.17 10.08
3/31/2021 7:30:00 PM 12.56 54.608 0.257 6.96 0.39 10.02
3/31/2021 7:45:00 PM 12.57 54.626 0.26 6.94 -0.92 9.92
3/31/2021 8:00:00 PM 12.57 54.626 0.261 6.92 4.49 9.83
3/31/2021 8:15:00 PM 12.57 54.626 0.262 6.93 -0.42 9.73
3/31/2021 8:30:00 PM 12.57 54.626 0.262 6.91 -0.54 9.67
3/31/2021 8:45:00 PM 12.56 54.608 0.261 6.9 -1.72 9.59
3/31/2021 9:00:00 PM 12.55 54.59 0.259 6.88 0.41 9.54
3/31/2021 9:15:00 PM 12.54 54.572 0.258 6.86 -0.92 9.48
3/31/2021 9:30:00 PM 12.52 54.536 0.257 6.85 -0.29 9.41
3/31/2021 9:45:00 PM 12.5 54.5 0.256 6.83 -0.07 9.36
3/31/2021 10:00:00 PM 12.48 54.464 0.256 6.82 -0.97 9.31
3/31/2021 10:15:00 PM 12.47 54.446 0.257 6.8 -0.26 9.28
3/31/2021 10:30:00 PM 12.46 54.428 0.259 6.77 -0.95 9.25
3/31/2021 10:45:00 PM 12.44 54.392 0.261 6.76 0.34 9.19
3/31/2021 11:00:00 PM 12.43 54.374 0.262 6.74 -1.65 9.16
3/31/2021 11:15:00 PM 12.4 54.32 0.263 6.74 -0.56 9.13
3/31/2021 11:30:00 PM 12.38 54.284 0.263 6.72 0.24 9.11
3/31/2021 11:45:00 PM 12.35 54.23 0.263 6.71 -1.06 9.1
4/1/2021 12:00:00 AM 12.31 54.158 0.262 6.71 -0.46 9.08
4/1/2021 12:15:00 AM 12.27 54.086 0.261 6.7 0.21 9.05
4/1/2021 12:30:00 AM 12.23 54.014 0.261 6.68 -0.67 9.07
4/1/2021 12:45:00 AM 12.18 53.924 0.261 6.67 1.01 9.03
4/1/2021 1:00:00 AM 12.12 53.816 0.262 6.66 -0.09 9.04
4/1/2021 1:15:00 AM 12.07 53.726 0.263 6.66 -0.84 9.03
4/1/2021 1:30:00 AM 12.03 53.654 0.265 6.64 1.42 9
4/1/2021 1:45:00 AM 11.97 53.546 0.266 6.63 2.43 9.01
4/1/2021 2:00:00 AM 11.92 53.456 0.267 6.62 1.35 8.99
4/1/2021 2:15:00 AM 11.87 53.366 0.267 6.61 0.81 9
4/1/2021 2:30:00 AM 11.81 53.258 0.267 6.59 -0.53 8.91
4/1/2021 2:45:00 AM 11.77 53.186 0.267 6.59 0.97 9.05
4/1/2021 3:00:00 AM 11.72 53.096 0.266 6.59 0.96 9.07
4/1/2021 3:15:00 AM 11.67 53.006 0.265 6.58 0.12 9.07
4/1/2021 3:30:00 AM 11.62 52.916 0.264 6.57 1.05 9.08
4/1/2021 3:45:00 AM 11.58 52.844 0.263 6.56 -0.94 9.08
4/1/2021 4:00:00 AM 11.54 52.772 0.263 6.56 -1.07 9.09
4/1/2021 4:15:00 AM 11.49 52.682 0.263 6.55 3.92 9.08
4/1/2021 4:30:00 AM 11.44 52.592 0.264 6.54 0.44 9.11
4/1/2021 4:45:00 AM 11.39 52.502 0.264 6.53 -0.06 9.11
4/1/2021 5:00:00 AM 11.35 52.43 0.264 6.53 5.22 9.13
4/1/2021 5:15:00 AM 11.3 52.34 0.263 6.53 1.45 9.14
4/1/2021 5:30:00 AM 11.25 52.25 0.262 6.51 1.66 9.14
4/1/2021 5:45:00 AM 11.2 52.16 0.262 6.52 1.11 9.17
4/1/2021 6:00:00 AM 11.15 52.07 0.26 6.51 1.22 9.15
4/1/2021 6:15:00 AM 11.09 51.962 0.26 6.51 1.06 9.16
4/1/2021 6:30:00 AM 11.05 51.89 0.258 6.51 0.1 9.19
4/1/2021 6:45:00 AM 11.01 51.818 0.258 6.5 -0.79 9.18
4/1/2021 7:00:00 AM 10.96 51.728 0.259 6.5 0.21 9.21
4/1/2021 7:15:00 AM 10.92 51.656 0.26 6.48 1.02 9.22
4/1/2021 7:30:00 AM 10.87 51.566 0.261 6.48 0.15 9.22
4/1/2021 7:45:00 AM 10.83 51.494 0.261 6.48 0.76 9.25
4/1/2021 8:00:00 AM 10.78 51.404 0.26 6.48 -0.71 9.27
4/1/2021 8:15:00 AM 10.73 51.314 0.259 6.48 0.31 9.32
4/1/2021 8:30:00 AM 10.67 51.206 0.258 6.48 -0.64 9.39
4/1/2021 8:45:00 AM 10.64 51.152 0.257 6.48 0.27 9.46
4/1/2021 9:00:00 AM 10.6 51.08 0.257 6.48 1.27 9.55
4/1/2021 9:15:00 AM 10.59 51.062 0.256 6.49 1.49 9.64
4/1/2021 9:30:00 AM 10.63 51.134 0.255 6.49 1.88 9.78
4/1/2021 9:45:00 AM 10.62 51.116 0.255 6.51 0.74 9.94
4/1/2021 10:00:00 AM 10.64 51.152 0.255 6.52 3.68 10.09
4/1/2021 10:15:00 AM 10.72 51.296 0.255 6.55 1.24 10.23
4/1/2021 10:30:00 AM 10.71 51.278 0.255 6.58 -0.09 10.37
4/1/2021 10:45:00 AM 10.7 51.26 0.254 6.61 8 10.51
4/1/2021 11:00:00 AM 10.73 51.314 0.253 6.63 2.91 10.61
4/1/2021 11:15:00 AM 10.8 51.44 0.252 6.65 1.1 10.72
4/1/2021 11:30:00 AM 10.9 51.62 0.251 6.7 2.84 10.85
4/1/2021 11:45:00 AM 10.98 51.764 0.251 6.74 -1.07 11.02
4/1/2021 12:00:00 PM 11.03 51.854 0.25 6.77 0.5 11.11
4/1/2021 12:15:00 PM 11.05 51.89 0.249 6.82 6.84 11.19
4/1/2021 12:30:00 PM 11.03 51.854 0.25 6.85 0.41 11.21
4/1/2021 12:45:00 PM 11 51.8 0.251 6.86 0.72 11.25
4/1/2021 1:00:00 PM 10.95 51.71 0.251 6.88 1.19 11.27
4/1/2021 1:15:00 PM 10.89 51.602 0.252 6.88 1.48 11.28
4/1/2021 1:30:00 PM 10.83 51.494 0.252 6.89 0.09 11.27
4/1/2021 1:45:00 PM 10.82 51.476 0.252 6.9 -0.18 11.28
4/1/2021 2:00:00 PM 10.8 51.44 0.252 6.9 0.36 11.35
4/1/2021 2:15:00 PM 10.75 51.35 0.252 6.9 0.07 11.39
4/1/2021 2:30:00 PM 10.71 51.278 0.252 6.91 0.69 11.4
4/1/2021 2:45:00 PM 10.7 51.26 0.252 6.92 0.18 11.39
4/1/2021 3:00:00 PM 10.69 51.242 0.252 6.93 0.2 11.44
4/1/2021 3:15:00 PM 10.68 51.224 0.251 6.92 2.45 11.47
4/1/2021 3:30:00 PM 10.67 51.206 0.251 6.94 2.8 11.49
4/1/2021 3:45:00 PM 10.66 51.188 0.252 6.95 0.86 11.5
4/1/2021 4:00:00 PM 10.62 51.116 0.251 6.96 0.15 11.49
4/1/2021 4:15:00 PM 10.61 51.098 0.251 6.98 -0.31 11.43
4/1/2021 4:30:00 PM 10.62 51.116 0.25 6.97 0.18 11.44
4/1/2021 4:45:00 PM 10.61 51.098 0.25 6.98 -0.04 11.44
4/1/2021 5:00:00 PM 10.6 51.08 0.249 6.99 0.27 11.42
4/1/2021 5:15:00 PM 10.59 51.062 0.249 7.01 1.05 11.45
4/1/2021 5:30:00 PM 10.58 51.044 0.248 7.01 2.59 11.46
4/1/2021 5:45:00 PM 10.55 50.99 0.248 7.03 -0.62 11.47
4/1/2021 6:00:00 PM 10.54 50.972 0.247 7.03 1.48 11.47
4/1/2021 6:15:00 PM 10.51 50.918 0.246 7.05 -0.05 11.48
4/1/2021 6:30:00 PM 10.5 50.9 0.247 7.04 1.12 11.45
4/1/2021 6:45:00 PM 10.48 50.864 0.249 7.04 0.48 11.4
4/1/2021 7:00:00 PM 10.46 50.828 0.251 7.03 1.12 11.38
4/1/2021 7:15:00 PM 10.42 50.756 0.251 7.02 0.45 11.29
4/1/2021 7:30:00 PM 10.36 50.648 0.251 7.02 2.66 11.21
4/1/2021 7:45:00 PM 10.28 50.504 0.249 7 0.96 11.12
4/1/2021 8:00:00 PM 10.2 50.36 0.248 6.99 0.54 11.02
4/1/2021 8:15:00 PM 10.12 50.216 0.244 6.96 11.55 10.93
4/1/2021 8:30:00 PM 10.04 50.072 0.243 6.93 -0.11 10.87
4/1/2021 8:45:00 PM 9.96 49.928 0.242 6.91 1.32 10.81
4/1/2021 9:00:00 PM 9.88 49.784 0.241 6.88 0.11 10.74
4/1/2021 9:15:00 PM 9.82 49.676 0.24 6.86 8.03 10.72
4/1/2021 9:30:00 PM 9.76 49.568 0.24 6.84 2.34 10.67
4/1/2021 9:45:00 PM 9.7 49.46 0.242 6.81 1.19 10.62
4/1/2021 10:00:00 PM 9.63 49.334 0.243 6.78 0.51 10.55
4/1/2021 10:15:00 PM 9.56 49.208 0.242 6.76 1.14 10.54
4/1/2021 10:30:00 PM 9.5 49.1 0.241 6.72 2.71 10.49
4/1/2021 10:45:00 PM 9.44 48.992 0.24 6.71 0.59 10.48
4/1/2021 11:00:00 PM 9.38 48.884 0.239 6.69 0.61 10.44
4/1/2021 11:15:00 PM 9.3 48.74 0.237 6.68 0.83 10.43
4/1/2021 11:30:00 PM 9.23 48.614 0.235 6.66 1.92 10.39
4/1/2021 11:45:00 PM 9.15 48.47 0.234 6.65 1.85 10.39
4/2/2021 12:00:00 AM 9.08 48.344 0.233 6.63 0.12 10.38
4/2/2021 12:15:00 AM 9.01 48.218 0.234 6.61 2.32 10.36
4/2/2021 12:30:00 AM 8.95 48.11 0.234 6.58 1.72 10.34
4/2/2021 12:45:00 AM 8.89 48.002 0.235 6.57 -0.26 10.32
4/2/2021 1:00:00 AM 8.82 47.876 0.236 6.55 2.69 10.32
4/2/2021 1:15:00 AM 8.75 47.75 0.236 6.53 5.42 10.31
4/2/2021 1:30:00 AM 8.67 47.606 0.235 6.51 16.71 10.33
4/2/2021 1:45:00 AM 8.59 47.462 0.234 6.5 1.7 10.32
4/2/2021 2:00:00 AM 8.51 47.318 0.234 6.48 -0.03 10.31
4/2/2021 2:15:00 AM 8.44 47.192 0.232 6.47 0.29 10.32
4/2/2021 2:30:00 AM 8.34 47.012 0.231 6.45 1.83 10.33
4/2/2021 2:45:00 AM 8.26 46.868 0.23 6.44 8.46 10.36
4/2/2021 3:00:00 AM 8.18 46.724 0.23 6.43 2.6 10.35
4/2/2021 3:15:00 AM 8.1 46.58 0.229 6.4 1.27 10.36
4/2/2021 3:30:00 AM 8.02 46.436 0.23 6.38 2.17 10.36
4/2/2021 3:45:00 AM 7.94 46.292 0.231 6.36 5.23 10.36
4/2/2021 4:00:00 AM 7.87 46.166 0.232 6.34 2.49 10.38
4/2/2021 4:15:00 AM 7.79 46.022 0.232 6.35 0.87 10.38
4/2/2021 4:30:00 AM 7.71 45.878 0.231 6.34 0.22 10.41
4/2/2021 4:45:00 AM 7.64 45.752 0.231 6.33 0.62 10.42
4/2/2021 5:00:00 AM 7.56 45.608 0.23 6.32 -0.23 10.44
4/2/2021 5:15:00 AM 7.49 45.482 0.228 6.32 0.58 10.46
4/2/2021 5:30:00 AM 7.42 45.356 0.228 6.3 -0.37 10.48
4/2/2021 5:45:00 AM 7.37 45.266 0.227 6.3 1.86 10.49
4/2/2021 6:00:00 AM 7.32 45.176 0.228 6.29 -0.39 10.49
4/2/2021 6:15:00 AM 7.25 45.05 0.227 6.29 1.51 10.53
4/2/2021 6:30:00 AM 7.19 44.942 0.227 6.27 0.65 10.51
4/2/2021 6:45:00 AM 7.13 44.834 0.228 6.27 3.61 10.54
4/2/2021 7:00:00 AM 7.07 44.726 0.229 6.25 1.73 10.55
4/2/2021 7:15:00 AM 7.02 44.636 0.231 6.25 1.93 10.58
4/2/2021 7:30:00 AM 6.97 44.546 0.231 6.26 1.54 10.63
4/2/2021 7:45:00 AM 6.92 44.456 0.23 6.25 -0.28 10.66
4/2/2021 8:00:00 AM 6.87 44.366 0.23 6.25 0.01 10.7
4/2/2021 8:15:00 AM 6.83 44.294 0.229 6.25 -0.04 10.76
4/2/2021 8:30:00 AM 6.79 44.222 0.228 6.25 -0.18 10.84
4/2/2021 8:45:00 AM 6.76 44.168 0.227 6.25 -0.41 10.93
4/2/2021 9:00:00 AM 6.77 44.186 0.226 6.26 -0.4 11.03
4/2/2021 9:15:00 AM 6.81 44.258 0.226 6.26 0.46 11.16
4/2/2021 9:30:00 AM 6.84 44.312 0.226 6.27 0.44 11.28
4/2/2021 9:45:00 AM 6.88 44.384 0.227 6.3 0.4 11.41
4/2/2021 10:00:00 AM 6.94 44.492 0.228 6.32 -0.36 11.51
4/2/2021 10:15:00 AM 7 44.6 0.228 6.34 -0.3 11.64
4/2/2021 10:30:00 AM 7.05 44.69 0.229 6.36 -1.15 11.75
4/2/2021 10:45:00 AM 7.11 44.798 0.229 6.4 -0.7 11.85
4/2/2021 11:00:00 AM 7.19 44.942 0.228 6.42 0.17 11.97
4/2/2021 11:15:00 AM 7.27 45.086 0.228 6.44 0.3 12.03
4/2/2021 11:30:00 AM 7.33 45.194 0.227 6.47 -0.36 12.16
4/2/2021 11:45:00 AM 7.43 45.374 0.226 6.49 -0.33 12.24
4/2/2021 12:00:00 PM 7.53 45.554 0.226 6.53 -0.58 12.31
4/2/2021 12:15:00 PM 7.63 45.734 0.225 6.57 -0.25 12.41
4/2/2021 12:30:00 PM 7.74 45.932 0.225 6.6 -0.44 12.48
4/2/2021 12:45:00 PM 7.87 46.166 0.225 6.63 0.12 12.54
4/2/2021 1:00:00 PM 7.98 46.364 0.226 6.67 -0.12 12.62
4/2/2021 1:15:00 PM 8.08 46.544 0.226 6.7 -0.46 12.67
4/2/2021 1:30:00 PM 8.19 46.742 0.227 6.73 -0.51 12.72
4/2/2021 1:45:00 PM 8.28 46.904 0.227 6.76 -0.77 12.79
4/2/2021 2:00:00 PM 8.39 47.102 0.226 6.79 -0.58 12.8
4/2/2021 2:15:00 PM 8.5 47.3 0.226 6.83 -0.92 12.87
4/2/2021 2:30:00 PM 8.62 47.516 0.225 6.87 -0.5 12.92
4/2/2021 2:45:00 PM 8.73 47.714 0.225 6.91 -0.56 12.96
4/2/2021 3:00:00 PM 8.8 47.84 0.225 6.95 -0.86 12.96
4/2/2021 3:15:00 PM 8.89 48.002 0.225 6.98 -0.67 13
4/2/2021 3:30:00 PM 8.97 48.146 0.225 7 -1.06 13
4/2/2021 3:45:00 PM 9.06 48.308 0.225 7.03 -0.57 13.02
4/2/2021 4:00:00 PM 9.14 48.452 0.226 7.06 -0.5 13.04
4/2/2021 4:15:00 PM 9.21 48.578 0.226 7.09 -0.1 13.06
4/2/2021 4:30:00 PM 9.27 48.686 0.227 7.12 -1.43 13.03
4/2/2021 4:45:00 PM 9.33 48.794 0.227 7.13 -1.13 13.01
4/2/2021 5:00:00 PM 9.37 48.866 0.227 7.17 -0.93 13.01
4/2/2021 5:15:00 PM 9.39 48.902 0.227 7.18 -0.98 12.96
4/2/2021 5:30:00 PM 9.39 48.902 0.227 7.19 -0.05 12.9
4/2/2021 5:45:00 PM 9.38 48.884 0.227 7.21 -1.17 12.84
4/2/2021 6:00:00 PM 9.36 48.848 0.226 7.22 -1.37 12.78
4/2/2021 6:15:00 PM 9.35 48.83 0.226 7.22 0.09 12.72
4/2/2021 6:30:00 PM 9.33 48.794 0.226 7.22 -1.3 12.63
4/2/2021 6:45:00 PM 9.3 48.74 0.227 7.22 -1.35 12.56
4/2/2021 7:00:00 PM 9.28 48.704 0.229 7.19 -1.15 12.43
4/2/2021 7:15:00 PM 9.24 48.632 0.23 7.17 -1.44 12.31
4/2/2021 7:30:00 PM 9.21 48.578 0.232 7.15 -0.36 12.19
4/2/2021 7:45:00 PM 9.17 48.506 0.233 7.14 1.18 12.07
4/2/2021 8:00:00 PM 9.14 48.452 0.233 7.11 2.61 11.94
4/2/2021 8:15:00 PM 9.11 48.398 0.233 7.1 -1.3 11.82
4/2/2021 8:30:00 PM 9.07 48.326 0.233 7.06 -0.72 11.71
4/2/2021 8:45:00 PM 9.03 48.254 0.232 7.03 0.14 11.58
4/2/2021 9:00:00 PM 9 48.2 0.231 7.01 0.04 11.49
4/2/2021 9:15:00 PM 8.95 48.11 0.23 7 -1.26 11.4
4/2/2021 9:30:00 PM 8.9 48.02 0.23 6.97 -0.37 11.32
4/2/2021 9:45:00 PM 8.85 47.93 0.232 6.93 -1.43 11.21
4/2/2021 10:00:00 PM 8.81 47.858 0.233 6.9 -0.56 11.11
4/2/2021 10:15:00 PM 8.77 47.786 0.235 6.88 -0.93 11.05
4/2/2021 10:30:00 PM 8.72 47.696 0.237 6.84 -1.04 10.97
4/2/2021 10:45:00 PM 8.69 47.642 0.238 6.81 1.82 10.9
4/2/2021 11:00:00 PM 8.64 47.552 0.237 6.79 -0.98 10.87
4/2/2021 11:15:00 PM 8.6 47.48 0.237 6.77 -0.77 10.81
4/2/2021 11:30:00 PM 8.57 47.426 0.237 6.75 0.06 10.77
4/2/2021 11:45:00 PM 8.52 47.336 0.236 6.74 0.41 10.75
4/3/2021 12:00:00 AM 8.48 47.264 0.235 6.71 -0.65 10.72
4/3/2021 12:15:00 AM 8.42 47.156 0.234 6.7 -1.26 10.69
4/3/2021 12:30:00 AM 8.38 47.084 0.235 6.68 -0.58 10.65
4/3/2021 12:45:00 AM 8.33 46.994 0.235 6.66 -0.84 10.64
4/3/2021 1:00:00 AM 8.27 46.886 0.236 6.64 -0.98 10.63
4/3/2021 1:15:00 AM 8.23 46.814 0.238 6.62 -1.68 10.58
4/3/2021 1:30:00 AM 8.17 46.706 0.239 6.6 -0.82 10.56
4/3/2021 1:45:00 AM 8.1 46.58 0.24 6.58 -1.55 10.57
4/3/2021 2:00:00 AM 8.03 46.454 0.24 6.56 0.02 10.55
4/3/2021 2:15:00 AM 7.96 46.328 0.24 6.54 -1.13 10.54
4/3/2021 2:30:00 AM 7.89 46.202 0.239 6.52 -0.91 10.53
4/3/2021 2:45:00 AM 7.82 46.076 0.238 6.51 2.38 10.53
4/3/2021 3:00:00 AM 7.73 45.914 0.237 6.49 -1.09 10.55
4/3/2021 3:15:00 AM 7.67 45.806 0.237 6.48 -0.92 10.54
4/3/2021 3:30:00 AM 7.58 45.644 0.237 6.45 -1.33 10.54
4/3/2021 3:45:00 AM 7.52 45.536 0.237 6.43 2.48 10.54
4/3/2021 4:00:00 AM 7.44 45.392 0.237 6.41 3.19 10.56
4/3/2021 4:15:00 AM 7.37 45.266 0.239 6.4 -0.95 10.56
4/3/2021 4:30:00 AM 7.3 45.14 0.24 6.38 0.38 10.56
4/3/2021 4:45:00 AM 7.24 45.032 0.241 6.36 -0.32 10.56
4/3/2021 5:00:00 AM 7.18 44.924 0.241 6.35 -1.33 10.57
4/3/2021 5:15:00 AM 7.12 44.816 0.241 6.33 -0.63 10.56
4/3/2021 5:30:00 AM 7.06 44.708 0.24 6.32 -1.41 10.58
4/3/2021 5:45:00 AM 7 44.6 0.239 6.31 -1.24 10.59
4/3/2021 6:00:00 AM 6.95 44.51 0.238 6.3 -1.02 10.59
4/3/2021 6:15:00 AM 6.89 44.402 0.238 6.26 -0.67 10.61
4/3/2021 6:30:00 AM 6.86 44.348 0.237 6.25 0.07 10.64
4/3/2021 6:45:00 AM 6.81 44.258 0.237 6.24 -1.51 10.63
4/3/2021 7:00:00 AM 6.76 44.168 0.238 6.23 -0.84 10.63
4/3/2021 7:15:00 AM 6.72 44.096 0.239 6.24 -0.57 10.65
4/3/2021 7:30:00 AM 6.7 44.06 0.24 6.23 -0.43 10.68
4/3/2021 7:45:00 AM 6.68 44.024 0.242 6.22 -0.66 10.73
4/3/2021 8:00:00 AM 6.66 43.988 0.242 6.22 -1.41 10.77
4/3/2021 8:15:00 AM 6.65 43.97 0.242 6.22 -1.1 10.84
4/3/2021 8:30:00 AM 6.65 43.97 0.242 6.23 -1.18 10.94
4/3/2021 8:45:00 AM 6.67 44.006 0.241 6.24 -1.89 11.02
4/3/2021 9:00:00 AM 6.72 44.096 0.241 6.25 -1.22 11.15
4/3/2021 9:15:00 AM 6.8 44.24 0.24 6.26 -1.14 11.29
4/3/2021 9:30:00 AM 6.87 44.366 0.239 6.28 -1.19 11.41
4/3/2021 9:45:00 AM 6.97 44.546 0.239 6.31 0.01 11.51
4/3/2021 10:00:00 AM 7.05 44.69 0.24 6.34 -0.96 11.63
4/3/2021 10:15:00 AM 7.14 44.852 0.24 6.38 -0.53 11.76
4/3/2021 10:30:00 AM 7.24 45.032 0.241 6.4 -0.05 11.86
4/3/2021 10:45:00 AM 7.35 45.23 0.242 6.43 -1.59 11.98
4/3/2021 11:00:00 AM 7.47 45.446 0.242 6.46 -0.68 12.07
4/3/2021 11:15:00 AM 7.6 45.68 0.242 6.49 -1.1 12.18
4/3/2021 11:30:00 AM 7.72 45.896 0.242 6.52 -1.05 12.25
4/3/2021 11:45:00 AM 7.86 46.148 0.241 6.56 -0.74 12.37
4/3/2021 12:00:00 PM 8 46.4 0.241 6.58 -0.76 12.42
4/3/2021 12:15:00 PM 8.12 46.616 0.24 6.63 4.36 12.48
4/3/2021 12:30:00 PM 8.28 46.904 0.24 6.66 -0.5 12.57
4/3/2021 12:45:00 PM 8.43 47.174 0.24 6.69 -0.45 12.63
4/3/2021 1:00:00 PM 8.57 47.426 0.24 6.74 -1.11 12.7
4/3/2021 1:15:00 PM 8.69 47.642 0.241 6.79 -0.88 12.75
4/3/2021 1:30:00 PM 8.83 47.894 0.241 6.84 -0.81 12.82
4/3/2021 1:45:00 PM 8.96 48.128 0.242 6.87 -0.9 12.87
4/3/2021 2:00:00 PM 9.05 48.29 0.242 6.91 -1.61 12.92
4/3/2021 2:15:00 PM 9.16 48.488 0.241 6.95 -0.89 12.94
4/3/2021 2:30:00 PM 9.3 48.74 0.241 6.98 -1.03 12.96
4/3/2021 2:45:00 PM 9.43 48.974 0.241 7.01 -1.32 13.03
4/3/2021 3:00:00 PM 9.55 49.19 0.241 7.06 -0.38 13.06
4/3/2021 3:15:00 PM 9.68 49.424 0.24 7.11 -1.05 13.13
4/3/2021 3:30:00 PM 9.77 49.586 0.24 7.15 -1.02 13.17
4/3/2021 3:45:00 PM 9.89 49.802 0.24 7.19 -1.05 13.18
4/3/2021 4:00:00 PM 9.99 49.982 0.24 7.22 -0.35 13.18
4/3/2021 4:15:00 PM 10.06 50.108 0.24 7.24 -1.55 13.17
4/3/2021 4:30:00 PM 10.13 50.234 0.241 7.27 -1.28 13.16
4/3/2021 4:45:00 PM 10.18 50.324 0.241 7.29 -1.6 13.11
4/3/2021 5:00:00 PM 10.25 50.45 0.241 7.31 2.31 13.06
4/3/2021 5:15:00 PM 10.27 50.486 0.241 7.33 -0.33 12.99
4/3/2021 5:30:00 PM 10.28 50.504 0.241 7.34 -0.55 12.93
4/3/2021 5:45:00 PM 10.29 50.522 0.241 7.35 -1.43 12.86
4/3/2021 6:00:00 PM 10.3 50.54 0.241 7.36 -1.24 12.82
4/3/2021 6:15:00 PM 10.31 50.558 0.241 7.37 -1.52 12.75
4/3/2021 6:30:00 PM 10.3 50.54 0.241 7.36 -0.21 12.64
4/3/2021 6:45:00 PM 10.31 50.558 0.24 7.35 -1.2 12.54
4/3/2021 7:00:00 PM 10.31 50.558 0.24 7.35 -0.18 12.43
4/3/2021 7:15:00 PM 10.31 50.558 0.241 7.34 -1.32 12.28
4/3/2021 7:30:00 PM 10.31 50.558 0.242 7.32 -0.42 12.15
4/3/2021 7:45:00 PM 10.3 50.54 0.244 7.3 -0.47 12.01
4/3/2021 8:00:00 PM 10.28 50.504 0.245 7.29 -0.7 11.84
4/3/2021 8:15:00 PM 10.26 50.468 0.245 7.26 -0.66 11.7
4/3/2021 8:30:00 PM 10.23 50.414 0.245 7.24 -1.37 11.56
4/3/2021 8:45:00 PM 10.21 50.378 0.245 7.21 -0.64 11.42
4/3/2021 9:00:00 PM 10.18 50.324 0.244 7.19 -0.92 11.3
4/3/2021 9:15:00 PM 10.16 50.288 0.243 7.16 0.84 11.18
4/3/2021 9:30:00 PM 10.14 50.252 0.243 7.15 -0.87 11.06
4/3/2021 9:45:00 PM 10.12 50.216 0.242 7.12 -0.73 10.96
4/3/2021 10:00:00 PM 10.11 50.198 0.242 7.08 -1.19 10.85
4/3/2021 10:15:00 PM 10.08 50.144 0.244 7.05 0.19 10.71
4/3/2021 10:30:00 PM 10.07 50.126 0.245 7.01 -0.56 10.64
4/3/2021 10:45:00 PM 10.06 50.108 0.246 6.98 2.4 10.56
4/3/2021 11:00:00 PM 10.05 50.09 0.247 6.95 1.43 10.49
4/3/2021 11:15:00 PM 10.05 50.09 0.248 6.93 -1.73 10.42
4/3/2021 11:30:00 PM 10.03 50.054 0.248 6.9 0.07 10.35
4/3/2021 11:45:00 PM 10.02 50.036 0.248 6.88 -0.15 10.31
4/4/2021 12:00:00 AM 10.01 50.018 0.248 6.88 -0.92 10.14
4/4/2021 12:15:00 AM 9.99 49.982 0.247 6.86 -0.23 10.21
4/4/2021 12:30:00 AM 9.97 49.946 0.245 6.81 -0.6 10.17
4/4/2021 12:45:00 AM 9.94 49.892 0.245 6.79 0.02 10.13
4/4/2021 1:00:00 AM 9.92 49.856 0.245 6.79 -0.15 10.12
4/4/2021 1:15:00 AM 9.89 49.802 0.246 6.78 -0.95 10.07
4/4/2021 1:30:00 AM 9.86 49.748 0.247 6.74 -1.51 10.03
4/4/2021 1:45:00 AM 9.83 49.694 0.248 6.72 2.38 10.01
4/4/2021 2:00:00 AM 9.8 49.64 0.25 6.69 -1.27 9.96
4/4/2021 2:15:00 AM 9.76 49.568 0.25 6.67 -0.59 9.94
4/4/2021 2:30:00 AM 9.72 49.496 0.25 6.66 -0.76 9.93
4/4/2021 2:45:00 AM 9.67 49.406 0.25 6.64 -1.19 9.91
4/4/2021 3:00:00 AM 9.61 49.298 0.249 6.61 -0.03 9.91
4/4/2021 3:15:00 AM 9.56 49.208 0.249 6.6 -1.28 9.89
4/4/2021 3:30:00 AM 9.51 49.118 0.248 6.58 -1.55 9.88
4/4/2021 3:45:00 AM 9.45 49.01 0.248 6.56 -0.46 9.88
4/4/2021 4:00:00 AM 9.41 48.938 0.247 6.53 -0.98 9.88
4/4/2021 4:15:00 AM 9.36 48.848 0.248 6.52 -0.04 9.86
4/4/2021 4:30:00 AM 9.32 48.776 0.248 6.51 -0.76 9.86
4/4/2021 4:45:00 AM 9.28 48.704 0.25 6.49 0.78 9.86
4/4/2021 5:00:00 AM 9.23 48.614 0.25 6.47 -1.04 9.85
4/4/2021 5:15:00 AM 9.19 48.542 0.251 6.46 -1.21 9.84
4/4/2021 5:30:00 AM 9.15 48.47 0.25 6.45 -0.36 9.84
4/4/2021 5:45:00 AM 9.11 48.398 0.25 6.43 0.22 9.84
4/4/2021 6:00:00 AM 9.07 48.326 0.248 6.42 1.19 9.84
4/4/2021 6:15:00 AM 9.02 48.236 0.248 6.41 -0.75 9.84
4/4/2021 6:30:00 AM 8.98 48.164 0.248 6.39 -0.15 9.84
4/4/2021 6:45:00 AM 8.93 48.074 0.247 6.37 -0.38 9.85
4/4/2021 7:00:00 AM 8.88 47.984 0.247 6.28 -0.08 9.86
4/4/2021 7:15:00 AM 8.86 47.948 0.248 6.3 0 9.85
4/4/2021 7:30:00 AM 8.85 47.93 0.248 6.32 1.1 9.88
4/4/2021 7:45:00 AM 8.84 47.912 0.249 6.33 17.79 9.9
4/4/2021 8:00:00 AM 8.84 47.912 0.25 6.32 -0.93 9.94
4/4/2021 8:15:00 AM 8.84 47.912 0.25 6.34 -1 9.99
4/4/2021 8:30:00 AM 8.86 47.948 0.25 6.34 -0.91 10.07
4/4/2021 8:45:00 AM 8.88 47.984 0.249 6.34 -0.95 10.19
4/4/2021 9:00:00 AM 8.93 48.074 0.248 6.35 -0.39 10.32
4/4/2021 9:15:00 AM 9.01 48.218 0.247 6.37 -1.18 10.46
4/4/2021 9:30:00 AM 9.1 48.38 0.246 6.39 -1.17 10.57
4/4/2021 9:45:00 AM 9.18 48.524 0.245 6.42 -0.49 10.74
4/4/2021 10:00:00 AM 9.28 48.704 0.245 6.45 -1.01 10.88
4/4/2021 10:15:00 AM 9.38 48.884 0.245 6.49 -1.09 11.04
4/4/2021 10:30:00 AM 9.49 49.082 0.245 6.53 -1.41 11.17
4/4/2021 10:45:00 AM 9.62 49.316 0.246 6.57 -0.83 11.31
4/4/2021 11:00:00 AM 9.77 49.586 0.246 6.61 2.1 11.44
4/4/2021 11:15:00 AM 9.91 49.838 0.246 6.66 -1.76 11.55
4/4/2021 11:30:00 AM 10.07 50.126 0.246 6.7 -1.41 11.7
4/4/2021 11:45:00 AM 10.22 50.396 0.246 6.73 -1.25 11.78
4/4/2021 12:00:00 PM 10.37 50.666 0.245 6.8 -0.96 11.91
4/4/2021 12:15:00 PM 10.51 50.918 0.244 6.85 -1.64 12
4/4/2021 12:30:00 PM 10.67 51.206 0.243 6.89 -1.3 12.11
4/4/2021 12:45:00 PM 10.84 51.512 0.242 6.95 -0.81 12.2
4/4/2021 1:00:00 PM 11.01 51.818 0.242 6.99 0.19 12.26
4/4/2021 1:15:00 PM 11.17 52.106 0.242 7.04 -0.73 12.37
4/4/2021 1:30:00 PM 11.32 52.376 0.242 7.09 -1.25 12.41
4/4/2021 1:45:00 PM 11.48 52.664 0.242 7.15 -1.16 12.49
4/4/2021 2:00:00 PM 11.64 52.952 0.243 7.19 -1.33 12.53
4/4/2021 2:15:00 PM 11.79 53.222 0.243 7.25 -0.85 12.59
4/4/2021 2:30:00 PM 11.94 53.492 0.242 7.28 -1.55 12.66
4/4/2021 2:45:00 PM 12.08 53.744 0.242 7.33 -1.51 12.67
4/4/2021 3:00:00 PM 12.2 53.96 0.242 7.36 -1.56 12.73
4/4/2021 3:15:00 PM 12.3 54.14 0.241 7.41 -1.82 12.72
4/4/2021 3:30:00 PM 12.41 54.338 0.241 7.45 -1.65 12.73
4/4/2021 3:45:00 PM 12.52 54.536 0.241 7.47 -1.82 12.75
4/4/2021 4:00:00 PM 12.61 54.698 0.241 7.49 -1.15 12.76
4/4/2021 4:15:00 PM 12.69 54.842 0.241 7.52 -1.39 12.76
4/4/2021 4:30:00 PM 12.75 54.95 0.241 7.55 -1.06 12.69
4/4/2021 4:45:00 PM 12.81 55.058 0.241 7.55 -1.72 12.68
4/4/2021 5:00:00 PM 12.86 55.148 0.241 7.57 -1.09 12.62
4/4/2021 5:15:00 PM 12.89 55.202 0.242 7.56 -1.24 12.56
4/4/2021 5:30:00 PM 12.93 55.274 0.242 7.59 -1.24 12.49
4/4/2021 5:45:00 PM 12.95 55.31 0.242 7.58 -0.62 12.4
4/4/2021 6:00:00 PM 12.96 55.328 0.242 7.6 -1.15 12.29
4/4/2021 6:15:00 PM 12.98 55.364 0.241 7.6 -0.83 12.21
4/4/2021 6:30:00 PM 12.97 55.346 0.241 7.59 -1.43 12.04
4/4/2021 6:45:00 PM 12.96 55.328 0.241 7.59 0.01 11.9
4/4/2021 7:00:00 PM 12.95 55.31 0.24 7.58 0.38 11.8
4/4/2021 7:15:00 PM 12.95 55.31 0.241 7.57 -0.79 11.63
4/4/2021 7:30:00 PM 12.95 55.31 0.241 7.55 -1.08 11.47
4/4/2021 7:45:00 PM 12.94 55.292 0.243 7.54 -0.54 11.29
4/4/2021 8:00:00 PM 12.93 55.274 0.243 7.52 -1.21 11.1
4/4/2021 8:15:00 PM 12.94 55.292 0.243 7.51 -1.6 10.96
4/4/2021 8:30:00 PM 12.9 55.22 0.244 7.45 -1.1 10.78
4/4/2021 8:45:00 PM 12.89 55.202 0.243 7.43 -0.19 10.64
4/4/2021 9:00:00 PM 12.87 55.166 0.243 7.4 -0.37 10.47
4/4/2021 9:15:00 PM 12.85 55.13 0.243 7.37 -0.63 10.32
4/4/2021 9:30:00 PM 12.83 55.094 0.242 7.33 0.16 10.19
4/4/2021 9:45:00 PM 12.82 55.076 0.243 7.32 -0.14 10.05
4/4/2021 10:00:00 PM 12.78 55.004 0.243 7.29 -1.36 9.92
4/4/2021 10:15:00 PM 12.77 54.986 0.244 7.26 -0.24 9.81
4/4/2021 10:30:00 PM 12.76 54.968 0.245 7.21 -0.46 9.7
4/4/2021 10:45:00 PM 12.72 54.896 0.246 7.17 -1.62 9.62
4/4/2021 11:00:00 PM 12.7 54.86 0.248 7.15 -0.28 9.53
4/4/2021 11:15:00 PM 12.68 54.824 0.249 7.11 -0.95 9.44
4/4/2021 11:30:00 PM 12.66 54.788 0.249 7.1 0.02 9.39
4/4/2021 11:45:00 PM 12.62 54.716 0.248 7.07 -0.76 9.33
4/5/2021 12:00:00 AM 12.59 54.662 0.248 7.05 -0.7 9.29
4/5/2021 12:15:00 AM 12.55 54.59 0.247 7.02 1.66 9.23
4/5/2021 12:30:00 AM 12.5 54.5 0.246 6.99 1.2 9.2
4/5/2021 12:45:00 AM 12.45 54.41 0.245 6.98 -1.56 9.15
4/5/2021 1:00:00 AM 12.38 54.284 0.245 6.95 -0.59 9.12
4/5/2021 1:15:00 AM 12.32 54.176 0.245 6.93 -0.74 9.08
4/5/2021 1:30:00 AM 12.25 54.05 0.246 6.91 -0.73 9.07
4/5/2021 1:45:00 AM 12.16 53.888 0.248 6.88 1.68 9.04
4/5/2021 2:00:00 AM 12.08 53.744 0.249 6.85 -0.5 9.03
4/5/2021 2:15:00 AM 12 53.6 0.249 6.82 -0.47 9.02
4/5/2021 2:30:00 AM 11.92 53.456 0.249 6.79 0.54 9.03
4/5/2021 2:45:00 AM 11.84 53.312 0.249 6.76 1.15 9
4/5/2021 3:00:00 AM 11.75 53.15 0.247 6.75 -1.18 9.03
4/5/2021 3:15:00 AM 11.66 52.988 0.247 6.72 -0.38 9.02
4/5/2021 3:30:00 AM 11.58 52.844 0.247 6.71 0.64 9.04
4/5/2021 3:45:00 AM 11.49 52.682 0.246 6.68 -0.9 9.02
4/5/2021 4:00:00 AM 11.41 52.538 0.245 6.65 -0.67 9.04
4/5/2021 4:15:00 AM 11.32 52.376 0.246 6.64 -0.45 9.03
4/5/2021 4:30:00 AM 11.24 52.232 0.247 6.61 -0.82 9.02
4/5/2021 4:45:00 AM 11.16 52.088 0.248 6.59 0.35 9.03
4/5/2021 5:00:00 AM 11.06 51.908 0.249 6.56 -0.51 9.04
4/5/2021 5:15:00 AM 10.99 51.782 0.249 6.55 -0.13 9.04
4/5/2021 5:30:00 AM 10.92 51.656 0.249 6.53 -1.06 9.06
4/5/2021 5:45:00 AM 10.84 51.512 0.248 6.51 -0.97 9.09
4/5/2021 6:00:00 AM 10.76 51.368 0.247 6.5 5.72 9.1
4/5/2021 6:15:00 AM 10.69 51.242 0.246 6.48 0.37 9.1
4/5/2021 6:30:00 AM 10.62 51.116 0.246 6.47 -0.66 9.11
4/5/2021 6:45:00 AM 10.56 51.008 0.245 6.45 0.21 9.12
4/5/2021 7:00:00 AM 10.49 50.882 0.245 6.43 -0.69 9.16
4/5/2021 7:15:00 AM 10.45 50.81 0.245 6.42 -1.5 9.18
4/5/2021 7:30:00 AM 10.4 50.72 0.246 6.41 -1.56 9.21
4/5/2021 7:45:00 AM 10.36 50.648 0.248 6.4 -0.58 9.25
4/5/2021 8:00:00 AM 10.34 50.612 0.248 6.4 -0.14 9.32
4/5/2021 8:15:00 AM 10.34 50.612 0.248 6.41 -0.41 9.42
4/5/2021 8:30:00 AM 10.34 50.612 0.248 6.42 -0.97 9.51
4/5/2021 8:45:00 AM 10.36 50.648 0.247 6.41 -0.46 9.64
4/5/2021 9:00:00 AM 10.42 50.756 0.246 6.43 -0.86 9.77
4/5/2021 9:15:00 AM 10.51 50.918 0.245 6.45 -0.72 9.96
4/5/2021 9:30:00 AM 10.6 51.08 0.244 6.48 -1.05 10.1
4/5/2021 9:45:00 AM 10.68 51.224 0.244 6.53 30.79 10.28
4/5/2021 10:00:00 AM 10.76 51.368 0.243 6.55 -0.29 10.44
4/5/2021 10:15:00 AM 10.85 51.53 0.243 6.6 -0.99 10.61
4/5/2021 10:30:00 AM 10.95 51.71 0.243 6.65 0.97 10.79
4/5/2021 10:45:00 AM 11.06 51.908 0.244 6.68 1.66 10.95
4/5/2021 11:00:00 AM 11.2 52.16 0.244 6.74 0.77 11.15
4/5/2021 11:15:00 AM 11.32 52.376 0.244 6.8 1.74 11.29
4/5/2021 11:30:00 AM 11.45 52.61 0.245 6.85 -0.97 11.43
4/5/2021 11:45:00 AM 11.59 52.862 0.244 6.9 -1.05 11.56
4/5/2021 12:00:00 PM 11.72 53.096 0.244 6.96 0 11.68
4/5/2021 12:15:00 PM 11.86 53.348 0.243 7 -0.02 11.79
4/5/2021 12:30:00 PM 12 53.6 0.242 7.07 0.2 11.92
4/5/2021 12:45:00 PM 12.16 53.888 0.242 7.12 -0.62 12
4/5/2021 1:00:00 PM 12.3 54.14 0.242 7.17 -0.18 12.08
4/5/2021 1:15:00 PM 12.43 54.374 0.241 7.24 0.16 12.22
4/5/2021 1:30:00 PM 12.57 54.626 0.242 7.28 -0.62 12.27
4/5/2021 1:45:00 PM 12.71 54.878 0.242 7.33 -0.64 12.37
4/5/2021 2:00:00 PM 12.85 55.13 0.242 7.37 -0.36 12.46
4/5/2021 2:15:00 PM 12.97 55.346 0.242 7.43 0.05 12.55
4/5/2021 2:30:00 PM 13.09 55.562 0.243 7.47 -0.35 12.6
4/5/2021 2:45:00 PM 13.21 55.778 0.242 7.52 -0.51 12.64
4/5/2021 3:00:00 PM 13.32 55.976 0.242 7.57 -0.54 12.69
4/5/2021 3:15:00 PM 13.42 56.156 0.242 7.62 -0.91 12.73
4/5/2021 3:30:00 PM 13.52 56.336 0.241 7.65 -0.8 12.82
4/5/2021 3:45:00 PM 13.6 56.48 0.241 7.67 1.14 12.8
4/5/2021 4:00:00 PM 13.67 56.606 0.24 7.69 -0.88 12.85
4/5/2021 4:15:00 PM 13.74 56.732 0.24 7.72 0.01 12.81
4/5/2021 4:30:00 PM 13.81 56.858 0.24 7.73 3.24 12.77
4/5/2021 4:45:00 PM 13.86 56.948 0.24 7.75 0.05 12.72
4/5/2021 5:00:00 PM 13.9 57.02 0.241 7.78 -0.33 12.66
4/5/2021 5:15:00 PM 13.96 57.128 0.24 7.81 -0.04 12.64
4/5/2021 5:30:00 PM 14 57.2 0.24 7.82 0.22 12.58
4/5/2021 5:45:00 PM 14.01 57.218 0.24 7.82 -0.34 12.47
4/5/2021 6:00:00 PM 14.03 57.254 0.24 7.84 -0.45 12.38
4/5/2021 6:15:00 PM 14.06 57.308 0.239 7.83 -0.11 12.27
4/5/2021 6:30:00 PM 14.07 57.326 0.239 7.85 1.56 12.18
4/5/2021 6:45:00 PM 14.06 57.308 0.238 7.83 4.44 12.03
4/5/2021 7:00:00 PM 14.04 57.272 0.238 7.82 -0.52 11.85
4/5/2021 7:15:00 PM 14.03 57.254 0.24 7.81 -0.83 11.63
4/5/2021 7:30:00 PM 14.02 57.236 0.242 7.78 3.55 11.42
4/5/2021 7:45:00 PM 14.01 57.218 0.245 7.74 -1.06 11.22
4/5/2021 8:00:00 PM 14 57.2 0.247 7.71 0.88 11.02
4/5/2021 8:15:00 PM 14 57.2 0.248 7.69 -0.41 10.81
4/5/2021 8:30:00 PM 13.99 57.182 0.248 7.67 -0.36 10.64
4/5/2021 8:45:00 PM 13.98 57.164 0.248 7.64 -0.4 10.44
4/5/2021 9:00:00 PM 13.97 57.146 0.248 7.61 -1.27 10.29
4/5/2021 9:15:00 PM 13.96 57.128 0.247 7.58 0.92 10.1
4/5/2021 9:30:00 PM 13.95 57.11 0.246 7.56 -0.82 9.94
4/5/2021 9:45:00 PM 13.93 57.074 0.245 7.52 1.14 9.78
4/5/2021 10:00:00 PM 13.92 57.056 0.244 7.48 -0.23 9.65
4/5/2021 10:15:00 PM 13.9 57.02 0.245 7.43 -1.09 9.51
4/5/2021 10:30:00 PM 13.89 57.002 0.247 7.39 -0.21 9.41
4/5/2021 10:45:00 PM 13.88 56.984 0.249 7.35 6.87 9.3
4/5/2021 11:00:00 PM 13.87 56.966 0.25 7.3 7.01 9.18
4/5/2021 11:15:00 PM 13.86 56.948 0.252 7.28 1.18 9.11
4/5/2021 11:30:00 PM 13.84 56.912 0.252 7.25 -0.49 9.04
4/5/2021 11:45:00 PM 13.83 56.894 0.251 7.23 -0.43 9
4/6/2021 12:00:00 AM 13.8 56.84 0.251 7.2 -0.48 8.93
4/6/2021 12:15:00 AM 13.78 56.804 0.251 7.17 0.22 8.88
4/6/2021 12:30:00 AM 13.74 56.732 0.25 7.16 0.19 8.84
4/6/2021 12:45:00 AM 13.71 56.678 0.249 7.14 -0.88 8.79
4/6/2021 1:00:00 AM 13.67 56.606 0.249 7.11 0.8 8.74
4/6/2021 1:15:00 AM 13.63 56.534 0.25 7.07 1.2 8.71
4/6/2021 1:30:00 AM 13.59 56.462 0.251 7.05 -0.12 8.67
4/6/2021 1:45:00 AM 13.54 56.372 0.252 7.01 0.89 8.65
4/6/2021 2:00:00 AM 13.5 56.3 0.253 6.98 1.57 8.62
4/6/2021 2:15:00 AM 13.46 56.228 0.254 6.94 -1.09 8.59
4/6/2021 2:30:00 AM 13.41 56.138 0.252 6.93 0.11 8.59
4/6/2021 2:45:00 AM 13.35 56.03 0.252 6.9 1.23 8.54
4/6/2021 3:00:00 AM 13.3 55.94 0.251 6.87 3.69 8.56
4/6/2021 3:15:00 AM 13.25 55.85 0.251 6.85 1.35 8.54
4/6/2021 3:30:00 AM 13.18 55.724 0.25 6.83 0.29 8.55
4/6/2021 3:45:00 AM 13.13 55.634 0.249 6.81 -1.06 8.54
4/6/2021 4:00:00 AM 13.06 55.508 0.248 6.78 5.07 8.53
4/6/2021 4:15:00 AM 12.99 55.382 0.249 6.76 2.37 8.52
4/6/2021 4:30:00 AM 12.92 55.256 0.25 6.73 1.23 8.53
4/6/2021 4:45:00 AM 12.85 55.13 0.251 6.71 0.74 8.52
4/6/2021 5:00:00 AM 12.77 54.986 0.252 6.69 0.3 8.51
4/6/2021 5:15:00 AM 12.7 54.86 0.252 6.66 0.27 8.53
4/6/2021 5:30:00 AM 12.63 54.734 0.252 6.63 0.04 8.51
4/6/2021 5:45:00 AM 12.56 54.608 0.251 6.61 -0.62 8.54
4/6/2021 6:00:00 AM 12.48 54.464 0.25 6.59 -0.16 8.54
4/6/2021 6:15:00 AM 12.42 54.356 0.25 6.59 0.69 8.55
4/6/2021 6:30:00 AM 12.35 54.23 0.25 6.58 0.17 8.54
4/6/2021 6:45:00 AM 12.29 54.122 0.249 6.57 2 8.57
4/6/2021 7:00:00 AM 12.22 53.996 0.249 6.56 0.07 8.58
4/6/2021 7:15:00 AM 12.18 53.924 0.249 6.56 -0.18 8.61
4/6/2021 7:30:00 AM 12.13 53.834 0.25 6.54 0.16 8.65
4/6/2021 7:45:00 AM 12.1 53.78 0.25 6.54 0.79 8.7
4/6/2021 8:00:00 AM 12.07 53.726 0.251 6.54 0.42 8.79
4/6/2021 8:15:00 AM 12.07 53.726 0.252 6.53 3.44 8.88
4/6/2021 8:30:00 AM 12.08 53.744 0.251 6.55 0.56 9
4/6/2021 8:45:00 AM 12.1 53.78 0.252 6.55 0.62 9.13
4/6/2021 9:00:00 AM 12.17 53.906 0.25 6.58 0.27 9.32
4/6/2021 9:15:00 AM 12.28 54.104 0.25 6.61 0.92 9.5
4/6/2021 9:30:00 AM 12.34 54.212 0.249 6.64 -0.18 9.71
4/6/2021 9:45:00 AM 12.43 54.374 0.247 6.68 0.85 9.95
4/6/2021 10:00:00 AM 12.52 54.536 0.246 6.73 0.74 10.19
4/6/2021 10:15:00 AM 12.62 54.716 0.247 6.79 1.34 10.37
4/6/2021 10:30:00 AM 12.72 54.896 0.247 6.84 0.72 10.57
4/6/2021 10:45:00 AM 12.84 55.112 0.248 6.9 0.74 10.76
4/6/2021 11:00:00 AM 12.97 55.346 0.248 6.96 0.7 10.95
4/6/2021 11:15:00 AM 13.08 55.544 0.249 7.01 0.74 11.12
4/6/2021 11:30:00 AM 13.23 55.814 0.249 7.06 0.2 11.28
4/6/2021 11:45:00 AM 13.35 56.03 0.248 7.11 -0.12 11.42
4/6/2021 12:00:00 PM 13.48 56.264 0.248 7.17 0.2 11.55
4/6/2021 12:15:00 PM 13.6 56.48 0.248 7.21 0.28 11.65
4/6/2021 12:30:00 PM 13.73 56.714 0.247 7.28 3.3 11.82
4/6/2021 12:45:00 PM 13.87 56.966 0.247 7.33 3.13 11.9
4/6/2021 1:00:00 PM 14.02 57.236 0.246 7.39 -0.72 12.04
4/6/2021 1:15:00 PM 14.14 57.452 0.247 7.44 1.9 12.16
4/6/2021 1:30:00 PM 14.28 57.704 0.246 7.49 -0.6 12.26
4/6/2021 1:45:00 PM 14.41 57.938 0.245 7.55 0.35 12.37
4/6/2021 2:00:00 PM 14.55 58.19 0.245 7.59 0.4 12.45
4/6/2021 2:15:00 PM 14.68 58.424 0.245 7.64 4.24 12.51
4/6/2021 2:30:00 PM 14.8 58.64 0.246 7.67 0.87 12.56
4/6/2021 2:45:00 PM 14.94 58.892 0.246 7.71 0.86 12.6
4/6/2021 3:00:00 PM 15.05 59.09 0.245 7.75 1.23 12.63
4/6/2021 3:15:00 PM 15.14 59.252 0.244 7.82 0.62 12.7
4/6/2021 3:30:00 PM 15.23 59.414 0.244 7.84 0.85 12.7
4/6/2021 3:45:00 PM 15.31 59.558 0.244 7.85 0.92 12.72
4/6/2021 4:00:00 PM 15.4 59.72 0.243 7.88 0.27 12.73
4/6/2021 4:15:00 PM 15.47 59.846 0.243 7.9 3.23 12.61
4/6/2021 4:30:00 PM 15.52 59.936 0.244 7.9 0.71 12.6
4/6/2021 4:45:00 PM 15.59 60.062 0.245 7.93 -0.33 12.64
4/6/2021 5:00:00 PM 15.66 60.188 0.246 7.93 1.11 12.59
4/6/2021 5:15:00 PM 15.71 60.278 0.246 7.96 0.01 12.5
4/6/2021 5:30:00 PM 15.74 60.332 0.246 7.97 -0.49 12.4
4/6/2021 5:45:00 PM 15.76 60.368 0.246 7.98 -0.06 12.29
4/6/2021 6:00:00 PM 15.78 60.404 0.245 7.99 2.79 12.16
4/6/2021 6:15:00 PM 15.79 60.422 0.245 7.98 0.1 12.02
4/6/2021 6:30:00 PM 15.78 60.404 0.245 7.98 1.55 11.87
4/6/2021 6:45:00 PM 15.77 60.386 0.245 7.98 2.04 11.71
4/6/2021 7:00:00 PM 15.76 60.368 0.245 7.96 1.43 11.51
4/6/2021 7:15:00 PM 15.73 60.314 0.245 7.94 -0.48 11.32
4/6/2021 7:30:00 PM 15.7 60.26 0.246 7.93 2 11.1
4/6/2021 7:45:00 PM 15.66 60.188 0.248 7.89 -0.24 10.88
4/6/2021 8:00:00 PM 15.62 60.116 0.249 7.86 0.54 10.64
4/6/2021 8:15:00 PM 15.58 60.044 0.252 7.81 3.24 10.42
4/6/2021 8:30:00 PM 15.53 59.954 0.252 7.79 3.79 10.22
4/6/2021 8:45:00 PM 15.49 59.882 0.251 7.76 0.65 10.04
4/6/2021 9:00:00 PM 15.45 59.81 0.25 7.74 1.37 9.88
4/6/2021 9:15:00 PM 15.4 59.72 0.25 7.7 5.61 9.69
4/6/2021 9:30:00 PM 15.37 59.666 0.25 7.66 7.62 9.52
4/6/2021 9:45:00 PM 15.33 59.594 0.249 7.63 0.76 9.36
4/6/2021 10:00:00 PM 15.29 59.522 0.248 7.59 3.66 9.24
4/6/2021 10:15:00 PM 15.24 59.432 0.248 7.55 4.06 9.13
4/6/2021 10:30:00 PM 15.21 59.378 0.25 7.49 3.44 8.99
4/6/2021 10:45:00 PM 15.18 59.324 0.251 7.45 3.46 8.9
4/6/2021 11:00:00 PM 15.14 59.252 0.253 7.4 3.05 8.82
4/6/2021 11:15:00 PM 15.1 59.18 0.253 7.36 8.03 8.74
4/6/2021 11:30:00 PM 15.08 59.144 0.254 7.31 1.36 8.67
4/6/2021 11:45:00 PM 15.04 59.072 0.253 7.3 11.08 8.6
4/7/2021 12:00:00 AM 15 59 0.252 7.26 0.14 8.54
4/7/2021 12:15:00 AM 14.95 58.91 0.251 7.22 8.98 8.47
4/7/2021 12:30:00 AM 14.92 58.856 0.251 7.2 3.15 8.43
4/7/2021 12:45:00 AM 14.87 58.766 0.25 7.19 4.03 8.37
4/7/2021 1:00:00 AM 14.83 58.694 0.25 7.15 -0.57 8.34
4/7/2021 1:15:00 AM 14.79 58.622 0.251 7.12 1.49 8.28
4/7/2021 1:30:00 AM 14.74 58.532 0.251 7.09 3.52 8.25
4/7/2021 1:45:00 AM 14.68 58.424 0.252 7.05 1.05 8.22
4/7/2021 2:00:00 AM 14.63 58.334 0.253 7.02 4.52 8.19
4/7/2021 2:15:00 AM 14.57 58.226 0.254 6.99 5.66 8.17
4/7/2021 2:30:00 AM 14.5 58.1 0.254 6.97 4.17 8.16
4/7/2021 2:45:00 AM 14.44 57.992 0.254 6.94 3.87 8.15
4/7/2021 3:00:00 AM 14.36 57.848 0.253 6.91 4.72 8.14
4/7/2021 3:15:00 AM 14.28 57.704 0.252 6.88 2.28 8.11
4/7/2021 3:30:00 AM 14.22 57.596 0.252 6.86 0.76 8.12
4/7/2021 3:45:00 AM 14.15 57.47 0.252 6.83 4.95 8.11
4/7/2021 4:00:00 AM 14.09 57.362 0.251 6.81 0.57 8.12
4/7/2021 4:15:00 AM 14.03 57.254 0.251 6.79 2.75 8.11
4/7/2021 4:30:00 AM 13.96 57.128 0.251 6.77 5.29 8.13
4/7/2021 4:45:00 AM 13.9 57.02 0.252 6.75 -0.46 8.12
4/7/2021 5:00:00 AM 13.82 56.876 0.253 6.72 5.86 8.1
4/7/2021 5:15:00 AM 13.75 56.75 0.254 6.69 1.64 8.12
4/7/2021 5:30:00 AM 13.68 56.624 0.254 6.68 4.99 8.13
4/7/2021 5:45:00 AM 13.61 56.498 0.254 6.66 2.35 8.16
4/7/2021 6:00:00 AM 13.54 56.372 0.254 6.64 4.88 8.15
4/7/2021 6:15:00 AM 13.49 56.282 0.254 6.63 0.97 8.15
4/7/2021 6:30:00 AM 13.43 56.174 0.253 6.61 1.25 8.17
4/7/2021 6:45:00 AM 13.38 56.084 0.253 6.59 2.18 8.17
4/7/2021 7:00:00 AM 13.33 55.994 0.254 6.58 17.36 8.2
4/7/2021 7:15:00 AM 13.29 55.922 0.254 6.57 2.94 8.22
4/7/2021 7:30:00 AM 13.26 55.868 0.254 6.57 0.67 8.24
4/7/2021 7:45:00 AM 13.24 55.832 0.255 6.56 0.89 8.28
4/7/2021 8:00:00 AM 13.22 55.796 0.255 6.56 1.94 8.32
4/7/2021 8:15:00 AM 13.22 55.796 0.256 6.57 2.46 8.46
4/7/2021 8:30:00 AM 13.21 55.778 0.257 6.56 5.79 8.52
4/7/2021 8:45:00 AM 13.22 55.796 0.257 6.58 5.95 8.57
4/7/2021 9:00:00 AM 13.24 55.832 0.255 6.59 6.61 8.67
4/7/2021 9:15:00 AM 13.27 55.886 0.254 6.6 3.1 8.95
4/7/2021 9:30:00 AM 13.37 56.066 0.252 6.65 3.33 9.22
4/7/2021 9:45:00 AM 13.44 56.192 0.251 6.68 5.14 9.48
4/7/2021 10:00:00 AM 13.51 56.318 0.25 6.73 4.93 9.69
4/7/2021 10:15:00 AM 13.61 56.498 0.249 6.8 2.93 9.95
4/7/2021 10:30:00 AM 13.71 56.678 0.249 6.84 2.99 10.19
4/7/2021 10:45:00 AM 13.79 56.822 0.249 6.91 3.84 10.41
4/7/2021 11:00:00 AM 13.85 56.93 0.249 6.96 2.11 10.6
4/7/2021 11:15:00 AM 14 57.2 0.25 7.01 4.4 10.77
4/7/2021 11:30:00 AM 14.14 57.452 0.25 7.09 5.53 10.99
4/7/2021 11:45:00 AM 14.14 57.452 0.249 7.13 6.49 11.16
4/7/2021 12:00:00 PM 14.17 57.506 0.247 7.19 2.84 11.21
4/7/2021 12:15:00 PM 14.16 57.488 0.247 7.23 4.42 11.24
4/7/2021 12:30:00 PM 14.25 57.65 0.247 7.25 1.42 11.32
4/7/2021 12:45:00 PM 14.36 57.848 0.246 7.3 0.74 11.43
4/7/2021 1:00:00 PM 14.45 58.01 0.246 7.34 3.05 11.59
4/7/2021 1:15:00 PM 14.59 58.262 0.245 7.42 2.33 11.75
4/7/2021 1:30:00 PM 14.72 58.496 0.245 7.47 5.09 11.84
4/7/2021 1:45:00 PM 14.87 58.766 0.245 7.51 2.65 12.05
4/7/2021 2:00:00 PM 15 59 0.245 7.54 6.83 12.17
4/7/2021 2:15:00 PM 15.12 59.216 0.246 7.59 6.28 12.24
4/7/2021 2:30:00 PM 15.25 59.45 0.245 7.65 5.4 12.34
4/7/2021 2:45:00 PM 15.38 59.684 0.244 7.7 3.38 12.46
4/7/2021 3:00:00 PM 15.51 59.918 0.244 7.76 4.25 12.54
4/7/2021 3:15:00 PM 15.61 60.098 0.243 7.81 4.8 12.56
4/7/2021 3:30:00 PM 15.72 60.296 0.243 7.86 6.06 12.62
4/7/2021 3:45:00 PM 15.82 60.476 0.242 7.9 5.83 12.68
4/7/2021 4:00:00 PM 15.9 60.62 0.243 7.91 5.25 12.65
4/7/2021 4:15:00 PM 15.99 60.782 0.243 7.97 7.07 12.65
4/7/2021 4:30:00 PM 16.05 60.89 0.244 7.97 7.76 12.6
4/7/2021 4:45:00 PM 16.12 61.016 0.245 7.99 6.78 12.56
4/7/2021 5:00:00 PM 16.17 61.106 0.244 7.97 6.47 12.47
4/7/2021 5:15:00 PM 16.21 61.178 0.244 8.01 4.91 12.39
4/7/2021 5:30:00 PM 16.24 61.232 0.244 8.05 6.03 12.38
4/7/2021 5:45:00 PM 16.26 61.268 0.244 8.06 5.89 12.25
4/7/2021 6:00:00 PM 16.26 61.268 0.244 8.05 5.06 12.13
4/7/2021 6:15:00 PM 16.27 61.286 0.243 8.07 7.74 11.99
4/7/2021 6:30:00 PM 16.26 61.268 0.243 8.04 7.96 11.83
4/7/2021 6:45:00 PM 16.24 61.232 0.243 8.01 5.38 11.64
4/7/2021 7:00:00 PM 16.22 61.196 0.243 8 6.22 11.42
4/7/2021 7:15:00 PM 16.2 61.16 0.244 7.98 10.11 11.1
4/7/2021 7:30:00 PM 16.18 61.124 0.246 7.93 7.81 10.92
4/7/2021 7:45:00 PM 16.14 61.052 0.248 7.89 6.26 10.68
4/7/2021 8:00:00 PM 16.11 60.998 0.251 7.88 17.13 10.45
4/7/2021 8:15:00 PM 16.09 60.962 0.252 7.87 1263 10.25
4/7/2021 8:30:00 PM 16.06 60.908 0.254 7.86 1480 10.05
4/7/2021 8:45:00 PM 16.03 60.854 0.253 7.82 2065 9.84
4/7/2021 9:00:00 PM 16 60.8 0.253 7.79 3550 9.64
4/7/2021 9:15:00 PM 15.98 60.764 0.251 7.76 4672 9.48
4/7/2021 9:30:00 PM 15.95 60.71 0.249 7.71 4672 9.3
4/7/2021 9:45:00 PM 15.92 60.656 0.249 7.66 4673 9.14
4/7/2021 10:00:00 PM 15.89 60.602 0.248 7.62 4673 8.98
4/7/2021 10:15:00 PM 15.86 60.548 0.249 7.57 4673 8.84
4/7/2021 10:30:00 PM 15.83 60.494 0.25 7.52 4673 8.7
4/7/2021 10:45:00 PM 15.8 60.44 0.252 7.47 4569 8.62
4/7/2021 11:00:00 PM 15.76 60.368 0.254 7.41 4673 8.52
4/7/2021 11:15:00 PM 15.73 60.314 0.255 7.37 4673 8.43
4/7/2021 11:30:00 PM 15.69 60.242 0.256 7.32 4673 8.33
4/7/2021 11:45:00 PM 15.65 60.17 0.255 7.29 4673 8.29
4/8/2021 12:00:00 AM 15.61 60.098 0.254 7.26 4673 8.21
4/8/2021 12:15:00 AM 15.57 60.026 0.245 7.24 4673 8.16
4/8/2021 12:30:00 AM 15.52 59.936 0.224 7.21 4673 8.11
4/8/2021 12:45:00 AM 15.47 59.846 0.248 7.18 4673 8.07
4/8/2021 1:00:00 AM 15.42 59.756 0.234 7.15 4673 8.04
4/8/2021 1:15:00 AM 15.37 59.666 0.249 7.13 4673 7.99
4/8/2021 1:30:00 AM 15.3 59.54 0.25 7.09 4673 7.98
4/8/2021 1:45:00 AM 15.24 59.432 0.248 7.05 4673 7.95
4/8/2021 2:00:00 AM 15.17 59.306 0.247 7.02 4669 7.93
4/8/2021 2:15:00 AM 15.11 59.198 0.251 7 4536 7.92
4/8/2021 2:30:00 AM 15.05 59.09 0.254 6.97 4585 7.9
4/8/2021 2:45:00 AM 14.99 58.982 0.255 6.95 4549 7.89
4/8/2021 3:00:00 AM 14.93 58.874 0.248 6.95 4534 7.89
4/8/2021 3:15:00 AM 14.87 58.766 0.222 6.9 4529 7.87
4/8/2021 3:30:00 AM 14.81 58.658 0.244 6.88 4545 7.86
4/8/2021 3:45:00 AM 14.74 58.532 0.244 6.85 4544 7.85
4/8/2021 4:00:00 AM 14.67 58.406 0.249 6.83 4579 7.86
4/8/2021 4:15:00 AM 14.6 58.28 0.244 6.81 4502 7.84
4/8/2021 4:30:00 AM 14.54 58.172 0.25 6.8 4470 7.88
4/8/2021 4:45:00 AM 14.48 58.064 0.246 6.77 4491 7.86
4/8/2021 5:00:00 AM 14.41 57.938 0.243 6.75 3910 7.87
4/8/2021 5:15:00 AM 14.34 57.812 0.237 6.74 4457 7.88
4/8/2021 5:30:00 AM 14.26 57.668 0.253 6.72 4512 7.88
4/8/2021 5:45:00 AM 14.2 57.56 0.241 6.71 4500 7.88
4/8/2021 6:00:00 AM 14.13 57.434 0.247 6.68 4408 7.9
4/8/2021 6:15:00 AM 14.07 57.326 0.244 6.67 4380 7.92
4/8/2021 6:30:00 AM 14.01 57.218 0.242 6.66 4332 7.95
4/8/2021 6:45:00 AM 13.94 57.092 0.249 6.66 4347 7.95
4/8/2021 7:00:00 AM 13.87 56.966 0.238 6.64 4301 7.97
4/8/2021 7:15:00 AM 13.82 56.876 0.248 6.64 4302 8
4/8/2021 7:30:00 AM 13.77 56.786 0.236 6.63 4286 8.02
4/8/2021 7:45:00 AM 13.73 56.714 0.244 6.63 4280 8.09
4/8/2021 8:00:00 AM 13.69 56.642 0.252 6.62 4284 8.17
4/8/2021 8:15:00 AM 13.68 56.624 0.253 6.63 4276 8.28
4/8/2021 8:30:00 AM 13.66 56.588 0.244 6.64 4239 8.41
4/8/2021 8:45:00 AM 13.67 56.606 0.252 6.66 4256 8.55
4/8/2021 9:00:00 AM 13.72 56.696 0.245 6.68 4223 8.77
4/8/2021 9:15:00 AM 13.78 56.804 0.25 6.72 4183 8.96
4/8/2021 9:30:00 AM 13.85 56.93 0.245 6.76 4252 9.18
4/8/2021 9:45:00 AM 13.89 57.002 0.246 6.81 4216 9.42
4/8/2021 10:00:00 AM 13.98 57.164 0.242 6.86 4228 9.67
4/8/2021 10:15:00 AM 14.06 57.308 0.234 6.93 4673 9.92
4/8/2021 10:30:00 AM 14.16 57.488 0.24 6.99 4673 10.16
4/8/2021 10:45:00 AM 14.25 57.65 0.232 7.05 4673 10.38
4/8/2021 11:00:00 AM 14.34 57.812 0.249 7.11 4673 10.59
4/8/2021 11:15:00 AM 14.45 58.01 0.235 7.19 4673 10.79
4/8/2021 11:30:00 AM 14.58 58.244 0.247 7.24 4673 10.99
4/8/2021 11:45:00 AM 14.73 58.514 0.235 7.33 4673 11.21
4/8/2021 12:00:00 PM 14.88 58.784 0.233 7.4 4673 11.39
4/8/2021 12:15:00 PM 15.02 59.036 0.235 7.47 4673 11.56
4/8/2021 12:30:00 PM 15.17 59.306 0.226 7.55 4673 11.72
4/8/2021 12:45:00 PM 15.32 59.576 0.245 7.61 4673 11.85
4/8/2021 1:00:00 PM 15.47 59.846 0.242 7.68 4673 12
4/8/2021 1:15:00 PM 15.6 60.08 0.244 7.74 4673 12.12
4/8/2021 1:30:00 PM 15.74 60.332 0.232 7.78 4673 12.24
4/8/2021 1:45:00 PM 15.88 60.584 0.224 7.84 4673 12.33
4/8/2021 2:00:00 PM 16.02 60.836 0.233 7.88 4673 12.44
4/8/2021 2:15:00 PM 16.16 61.088 0.236 7.93 4673 12.51
4/8/2021 2:30:00 PM 16.29 61.322 0.246 7.97 4672 12.6
4/8/2021 2:45:00 PM 16.42 61.556 0.245 8.01 4672 12.67
4/8/2021 3:00:00 PM 16.54 61.772 0.237 8.04 4672 12.65
4/8/2021 3:15:00 PM 16.6 61.88 0.239 8.08 4672 12.68
4/8/2021 3:30:00 PM 16.69 62.042 0.242 8.1 4672 12.64
4/8/2021 3:45:00 PM 16.78 62.204 0.244 8.12 4672 12.66
4/8/2021 4:00:00 PM 16.84 62.312 0.239 8.14 4672 12.61
4/8/2021 4:15:00 PM 16.89 62.402 0.239 8.17 4672 12.6
4/8/2021 4:30:00 PM 16.93 62.474 0.243 8.19 4672 12.56
4/8/2021 4:45:00 PM 16.99 62.582 0.245 8.2 4672 12.49
4/8/2021 5:00:00 PM 17.05 62.69 0.242 8.21 4672 12.48
4/8/2021 5:15:00 PM 17.09 62.762 0.238 8.22 4672 12.39
4/8/2021 5:30:00 PM 17.12 62.816 0.236 8.23 4672 12.29
4/8/2021 5:45:00 PM 17.12 62.816 0.246 8.23 4672 12.17
4/8/2021 6:00:00 PM 17.13 62.834 0.243 8.22 4672 12
4/8/2021 6:15:00 PM 17.12 62.816 0.246 8.23 4672 11.89
4/8/2021 6:30:00 PM 17.1 62.78 0.231 8.22 4672 11.71
4/8/2021 6:45:00 PM 17.07 62.726 0.246 8.2 4672 11.55
4/8/2021 7:00:00 PM 17.02 62.636 0.246 8.18 4672 11.34
4/8/2021 7:15:00 PM 16.99 62.582 0.234 8.15 4672 11.11
4/8/2021 7:30:00 PM 16.94 62.492 0.244 8.12 4672 10.87
4/8/2021 7:45:00 PM 16.89 62.402 0.237 8.08 4591 10.63
4/8/2021 8:00:00 PM 16.85 62.33 0.251 8.04 3757 10.38
4/8/2021 8:15:00 PM 16.79 62.222 0.236 8 3611 10.16
4/8/2021 8:30:00 PM 16.75 62.15 0.252 7.96 3641 9.94
4/8/2021 8:45:00 PM 16.7 62.06 0.256 7.93 3756 9.72
4/8/2021 9:00:00 PM 16.66 61.988 0.253 7.89 3320 9.52
4/8/2021 9:15:00 PM 16.63 61.934 0.252 7.86 3081 9.33
4/8/2021 9:30:00 PM 16.6 61.88 0.252 7.81 3570 9.16
4/8/2021 9:45:00 PM 16.57 61.826 0.251 7.77 3873 9
4/8/2021 10:00:00 PM 16.54 61.772 0.249 7.72 4121 8.85
4/8/2021 10:15:00 PM 16.49 61.682 0.251 7.67 3469 8.7
4/8/2021 10:30:00 PM 16.46 61.628 0.242 7.62 3187 8.56
4/8/2021 10:45:00 PM 16.42 61.556 0.232 7.56 3631 8.41
4/8/2021 11:00:00 PM 16.39 61.502 0.254 7.51 3793 8.32
4/8/2021 11:15:00 PM 16.35 61.43 0.258 7.47 3134 8.22
4/8/2021 11:30:00 PM 16.3 61.34 0.258 7.43 3192 8.06
4/8/2021 11:45:00 PM 16.25 61.25 0.258 7.39 3182 7.99
4/9/2021 12:00:00 AM 16.2 61.16 0.255 7.34 3010 8
4/9/2021 12:15:00 AM 16.15 61.07 0.244 7.32 3085 7.95
4/9/2021 12:30:00 AM 16.1 60.98 0.25 7.31 3233 7.94
4/9/2021 12:45:00 AM 16.04 60.872 0.254 7.28 3037 7.92
4/9/2021 1:00:00 AM 15.99 60.782 0.251 7.25 2514 7.84
4/9/2021 1:15:00 AM 15.93 60.674 0.253 7.22 2149 7.83
4/9/2021 1:30:00 AM 15.88 60.584 0.238 7.19 2133 7.81
4/9/2021 1:45:00 AM 15.82 60.476 0.254 7.15 2081 7.78
4/9/2021 2:00:00 AM 15.76 60.368 0.232 7.13 1968 7.77
4/9/2021 2:15:00 AM 15.71 60.278 0.238 7.1 1899 7.74
4/9/2021 2:30:00 AM 15.66 60.188 0.252 7.08 1656 7.72
4/9/2021 2:45:00 AM 15.61 60.098 0.258 7.06 1500 7.7
4/9/2021 3:00:00 AM 15.56 60.008 0.256 7.04 1492 7.69
4/9/2021 3:15:00 AM 15.5 59.9 0.248 7.03 1475 7.7
4/9/2021 3:30:00 AM 15.44 59.792 0.252 7 1434 7.7
4/9/2021 3:45:00 AM 15.38 59.684 0.228 6.99 1395 7.71
4/9/2021 4:00:00 AM 15.33 59.594 0.253 6.96 1402 7.69
4/9/2021 4:15:00 AM 15.27 59.486 0.252 6.94 1414 7.69
4/9/2021 4:30:00 AM 15.21 59.378 0.252 6.91 1403 7.71
4/9/2021 4:45:00 AM 15.15 59.27 0.253 6.88 1512 7.59
4/9/2021 5:00:00 AM 15.09 59.162 0.255 6.86 2072 7.63
4/9/2021 5:15:00 AM 15.03 59.054 0.244 6.83 1671 7.67
4/9/2021 5:30:00 AM 14.97 58.946 0.258 6.82 1693 7.68
4/9/2021 5:45:00 AM 14.92 58.856 0.238 6.8 1642 7.7
4/9/2021 6:00:00 AM 14.86 58.748 0.255 6.79 1505 7.72
4/9/2021 6:15:00 AM 14.8 58.64 0.256 6.77 1711 7.69
4/9/2021 6:30:00 AM 14.75 58.55 0.226 6.75 1747 7.68
4/9/2021 6:45:00 AM 14.7 58.46 0.253 6.74 2411 7.72
4/9/2021 7:00:00 AM 14.66 58.388 0.239 6.74 1868 7.71
4/9/2021 7:15:00 AM 14.62 58.316 0.253 6.73 1959 7.76
4/9/2021 7:30:00 AM 14.58 58.244 0.247 6.73 2014 7.8
4/9/2021 7:45:00 AM 14.55 58.19 0.254 6.72 1760 7.79
4/9/2021 8:00:00 AM 14.51 58.118 0.25 6.72 1738 7.86
4/9/2021 8:15:00 AM 14.47 58.046 0.239 6.71 1700 7.86
4/9/2021 8:30:00 AM 14.44 57.992 0.225 6.71 1678 7.94
4/9/2021 8:45:00 AM 14.4 57.92 0.258 6.71 1676 7.76
4/9/2021 9:00:00 AM 14.37 57.866 0.25 6.7 1668 7.97
4/9/2021 9:15:00 AM 14.35 57.83 0.256 6.7 1965 8.05
4/9/2021 9:30:00 AM 14.34 57.812 0.253 6.7 1963 8.11
4/9/2021 9:45:00 AM 14.32 57.776 0.251 6.7 1853 8.2
4/9/2021 10:00:00 AM 14.31 57.758 0.232 6.71 1975 8.3
4/9/2021 10:15:00 AM 14.31 57.758 0.23 6.73 1831 8.38
4/9/2021 10:30:00 AM 14.32 57.776 0.244 6.74 1789 8.54
4/9/2021 10:45:00 AM 14.32 57.776 0.251 6.76 1796 8.58
4/9/2021 11:00:00 AM 14.32 57.776 0.244 6.77 1713 8.77
4/9/2021 11:15:00 AM 14.32 57.776 0.232 6.79 1655 8.88
4/9/2021 11:30:00 AM 14.33 57.794 0.231 6.82 1561 9.07
4/9/2021 11:45:00 AM 14.34 57.812 0.235 6.84 1880 9.19
4/9/2021 12:00:00 PM 14.36 57.848 0.248 6.88 1981 9.35
4/9/2021 12:15:00 PM 14.37 57.866 0.248 6.92 1885 9.5
4/9/2021 12:30:00 PM 14.39 57.902 0.235 6.96 1914 9.67
4/9/2021 12:45:00 PM 14.39 57.902 0.239 6.98 1900 9.78
4/9/2021 1:00:00 PM 14.39 57.902 0.242 7 1943 9.88
4/9/2021 1:15:00 PM 14.39 57.902 0.25 7.02 1877 9.93
4/9/2021 1:30:00 PM 14.4 57.92 0.227 7.06 1907 10.03
4/9/2021 1:45:00 PM 14.42 57.956 0.234 7.04 1806 10.07
4/9/2021 2:00:00 PM 14.43 57.974 0.237 7.08 1674 10.17
4/9/2021 2:15:00 PM 14.44 57.992 0.239 7.13 1997 10.26
4/9/2021 2:30:00 PM 14.44 57.992 0.235 7.16 2022 10.32
4/9/2021 2:45:00 PM 14.45 58.01 0.23 7.19 2144 10.43
4/9/2021 3:00:00 PM 14.45 58.01 0.225 7.22 2128 10.46
4/9/2021 3:15:00 PM 14.45 58.01 0.242 7.22 2118 10.51
4/9/2021 3:30:00 PM 14.46 58.028 0.226 7.26 2090 10.57
4/9/2021 3:45:00 PM 14.47 58.046 0.239 7.29 2173 10.64
4/9/2021 4:00:00 PM 14.46 58.028 0.23 7.3 2134 10.66
4/9/2021 4:15:00 PM 14.45 58.01 0.235 7.29 2079 10.63
4/9/2021 4:30:00 PM 14.43 57.974 0.242 7.31 1950 10.61
4/9/2021 4:45:00 PM 14.41 57.938 0.245 7.3 1946 10.53
4/9/2021 5:00:00 PM 14.4 57.92 0.216 7.29 1885 10.49
4/9/2021 5:15:00 PM 14.38 57.884 0.229 7.28 2036 10.43
4/9/2021 5:30:00 PM 14.36 57.848 0.233 7.26 2020 10.33
4/9/2021 5:45:00 PM 14.34 57.812 0.245 7.24 2072 10.21
4/9/2021 6:00:00 PM 14.31 57.758 0.242 7.23 2087 10.15
4/9/2021 6:15:00 PM 14.28 57.704 0.239 7.21 2094 10.05
4/9/2021 6:30:00 PM 14.25 57.65 0.237 7.16 2074 9.92
4/9/2021 6:45:00 PM 14.23 57.614 0.245 7.14 1946 9.81
4/9/2021 7:00:00 PM 14.21 57.578 0.245 7.11 1962 9.73
4/9/2021 7:15:00 PM 14.18 57.524 0.229 7.07 1980 9.64
4/9/2021 7:30:00 PM 14.16 57.488 0.244 7.04 1956 9.53
4/9/2021 7:45:00 PM 14.14 57.452 0.242 7.02 1935 9.44
4/9/2021 8:00:00 PM 14.12 57.416 0.24 6.99 1933 9.33
4/9/2021 8:15:00 PM 14.1 57.38 0.238 6.97 1921 9.26
4/9/2021 8:30:00 PM 14.08 57.344 0.253 6.94 1924 9.11
4/9/2021 8:45:00 PM 14.05 57.29 0.232 6.93 1911 9.07
4/9/2021 9:00:00 PM 14.03 57.254 0.254 6.92 1895 8.98
4/9/2021 9:15:00 PM 14.01 57.218 0.231 6.9 1911 8.94
4/9/2021 9:30:00 PM 13.99 57.182 0.244 6.88 1806 8.88
4/9/2021 9:45:00 PM 13.97 57.146 0.25 6.87 1772 8.83
4/9/2021 10:00:00 PM 13.95 57.11 0.234 6.86 1684 8.8
4/9/2021 10:15:00 PM 13.93 57.074 0.228 6.85 1722 8.74
4/9/2021 10:30:00 PM 13.91 57.038 0.232 6.83 1702 8.69
4/9/2021 10:45:00 PM 13.89 57.002 0.246 6.82 1677 8.67
4/9/2021 11:00:00 PM 13.88 56.984 0.236 6.79 1658 8.63
4/9/2021 11:15:00 PM 13.86 56.948 0.227 6.79 1624 8.6
4/9/2021 11:30:00 PM 13.84 56.912 0.243 6.78 1610 8.56
4/9/2021 11:45:00 PM 13.83 56.894 0.24 6.77 1600 8.57
4/10/2021 12:00:00 AM 13.81 56.858 0.242 6.76 1559 8.54
4/10/2021 12:15:00 AM 13.79 56.822 0.239 6.77 1554 8.55
4/10/2021 12:30:00 AM 13.77 56.786 0.238 6.76 1545 8.51
4/10/2021 12:45:00 AM 13.75 56.75 0.235 6.76 1543 8.55
4/10/2021 1:00:00 AM 13.73 56.714 0.243 6.74 1548 8.5
4/10/2021 1:15:00 AM 13.71 56.678 0.238 6.74 1542 8.46
4/10/2021 1:30:00 AM 13.69 56.642 0.23 6.73 1558 8.46
4/10/2021 1:45:00 AM 13.67 56.606 0.25 6.71 1553 8.45
4/10/2021 2:00:00 AM 13.65 56.57 0.242 6.71 1518 8.5
4/10/2021 2:15:00 AM 13.63 56.534 0.249 6.7 1565 8.49
4/10/2021 2:30:00 AM 13.61 56.498 0.247 6.7 1538 8.5
4/10/2021 2:45:00 AM 13.58 56.444 0.246 6.69 1418 8.48
4/10/2021 3:00:00 AM 13.55 56.39 0.239 6.68 1372 8.48
4/10/2021 3:15:00 AM 13.52 56.336 0.246 6.67 1258 8.42
4/10/2021 3:30:00 AM 13.5 56.3 0.249 6.67 1258 8.44
4/10/2021 3:45:00 AM 13.46 56.228 0.243 6.66 1248 8.44
4/10/2021 4:00:00 AM 13.43 56.174 0.233 6.64 1247 8.4
4/10/2021 4:15:00 AM 13.4 56.12 0.241 6.65 1244 8.42
4/10/2021 4:30:00 AM 13.38 56.084 0.234 6.64 1242 8.43
4/10/2021 4:45:00 AM 13.35 56.03 0.244 6.63 1243 8.41
4/10/2021 5:00:00 AM 13.32 55.976 0.24 6.62 1238 8.42
4/10/2021 5:15:00 AM 13.29 55.922 0.231 6.61 1236 8.38
4/10/2021 5:30:00 AM 13.27 55.886 0.251 6.61 1252 8.4
4/10/2021 5:45:00 AM 13.24 55.832 0.236 6.6 1249 8.39
4/10/2021 6:00:00 AM 13.21 55.778 0.238 6.59 1242 8.5
4/10/2021 6:15:00 AM 13.19 55.742 0.235 6.6 1240 8.46
4/10/2021 6:30:00 AM 13.16 55.688 0.23 6.59 1232 8.38
4/10/2021 6:45:00 AM 13.14 55.652 0.232 6.59 1226 8.41
4/10/2021 7:00:00 AM 13.11 55.598 0.232 6.59 1277 8.54
4/10/2021 7:15:00 AM 13.1 55.58 0.237 6.59 1233 8.54
4/10/2021 7:30:00 AM 13.08 55.544 0.243 6.58 1237 8.54
4/10/2021 7:45:00 AM 13.06 55.508 0.245 6.58 1233 8.57
4/10/2021 8:00:00 AM 13.05 55.49 0.239 6.57 1219 8.62
4/10/2021 8:15:00 AM 13.04 55.472 0.241 6.57 1176 8.65
4/10/2021 8:30:00 AM 13.04 55.472 0.247 6.59 1164 8.69
4/10/2021 8:45:00 AM 13.03 55.454 0.24 6.6 1133 8.77
4/10/2021 9:00:00 AM 13.03 55.454 0.249 6.6 1159 8.83
4/10/2021 9:15:00 AM 13.03 55.454 0.238 6.61 1140 8.91
4/10/2021 9:30:00 AM 13.04 55.472 0.23 6.62 1170 9.01
4/10/2021 9:45:00 AM 13.06 55.508 0.238 6.64 1162 9.13
4/10/2021 10:00:00 AM 13.08 55.544 0.244 6.67 1155 9.29
4/10/2021 10:15:00 AM 13.1 55.58 0.243 6.69 1148 9.42
4/10/2021 10:30:00 AM 13.12 55.616 0.243 6.72 1135 9.52
4/10/2021 10:45:00 AM 13.15 55.67 0.241 6.75 1129 9.69
4/10/2021 11:00:00 AM 13.18 55.724 0.238 6.77 1119 9.78
4/10/2021 11:15:00 AM 13.22 55.796 0.246 6.81 1110 9.96
4/10/2021 11:30:00 AM 13.27 55.886 0.235 6.85 1096 10.14
4/10/2021 11:45:00 AM 13.33 55.994 0.242 6.9 1088 10.29
4/10/2021 12:00:00 PM 13.36 56.048 0.242 6.93 1071 10.45
4/10/2021 12:15:00 PM 13.39 56.102 0.228 6.97 1054 10.54
4/10/2021 12:30:00 PM 13.44 56.192 0.233 7.01 1001 10.64
4/10/2021 12:45:00 PM 13.48 56.264 0.236 7.05 957.6 10.76
4/10/2021 1:00:00 PM 13.51 56.318 0.238 7.09 976.4 10.83
4/10/2021 1:15:00 PM 13.52 56.336 0.24 7.13 2078 10.85
4/10/2021 1:30:00 PM 13.53 56.354 0.241 7.14 2904 10.85
4/10/2021 1:45:00 PM 13.53 56.354 0.236 7.15 3609 10.79
4/10/2021 2:00:00 PM 13.54 56.372 0.238 7.14 4069 10.71
4/10/2021 2:15:00 PM 13.54 56.372 0.235 7.13 4469 10.63
4/10/2021 2:30:00 PM 13.55 56.39 0.229 7.14 4673 10.58
4/10/2021 2:45:00 PM 13.58 56.444 0.235 7.15 4673 10.56
4/10/2021 3:00:00 PM 13.68 56.624 0.239 7.19 4673 10.68
4/10/2021 3:15:00 PM 13.72 56.696 0.234 7.23 4673 10.81
4/10/2021 3:30:00 PM 13.74 56.732 0.239 7.25 4673 10.82
4/10/2021 3:45:00 PM 13.76 56.768 0.239 7.27 -0.61 10.87
4/10/2021 4:00:00 PM 13.8 56.84 0.234 7.29 9.51 10.93
4/10/2021 4:15:00 PM 13.87 56.966 0.237 7.32 2.13 11.03
4/10/2021 4:30:00 PM 13.92 57.056 0.231 7.35 6.66 11.1
4/10/2021 4:45:00 PM 13.96 57.128 0.236 7.38 -0.44 10.88
4/10/2021 5:00:00 PM 14.01 57.218 0.237 7.41 1.46 11.21
4/10/2021 5:15:00 PM 14.07 57.326 0.228 7.43 1.47 11.29
4/10/2021 5:30:00 PM 14.11 57.398 0.239 7.46 0.21 11.34
4/10/2021 5:45:00 PM 14.14 57.452 0.238 7.47 0.88 11.36
4/10/2021 6:00:00 PM 14.16 57.488 0.236 7.49 -0.1 11.35
4/10/2021 6:15:00 PM 14.16 57.488 0.228 7.5 1.03 11.27
4/10/2021 6:30:00 PM 14.16 57.488 0.232 7.5 0.56 11.17
4/10/2021 6:45:00 PM 14.16 57.488 0.237 7.5 0.14 11.08
4/10/2021 7:00:00 PM 14.15 57.47 0.237 7.48 -1.55 10.99
4/10/2021 7:15:00 PM 14.14 57.452 0.233 7.45 19.37 10.84
4/10/2021 7:30:00 PM 14.13 57.434 0.231 7.43 -1.77 10.57
4/10/2021 7:45:00 PM 14.12 57.416 0.235 7.39 0.65 10.52
4/10/2021 8:00:00 PM 14.11 57.398 0.238 7.36 -0.69 10.37
4/10/2021 8:15:00 PM 14.08 57.344 0.234 7.33 -1.63 10.23
4/10/2021 8:30:00 PM 14.05 57.29 0.241 7.28 -0.8 10.08
4/10/2021 8:45:00 PM 14.02 57.236 0.243 7.24 -1.15 9.93
4/10/2021 9:00:00 PM 13.98 57.164 0.242 7.2 -0.65 9.8
4/10/2021 9:15:00 PM 13.94 57.092 0.242 7.17 -0.62 9.68
4/10/2021 9:30:00 PM 13.91 57.038 0.236 7.12 0.4 9.57
4/10/2021 9:45:00 PM 13.87 56.966 0.246 7.09 -1.06 9.43
4/10/2021 10:00:00 PM 13.84 56.912 0.237 7.04 0.17 9.34
4/10/2021 10:15:00 PM 13.82 56.876 0.242 7.01 0.97 9.25
4/10/2021 10:30:00 PM 13.79 56.822 0.236 6.97 0.45 9.15
4/10/2021 10:45:00 PM 13.77 56.786 0.24 6.93 -0.61 9.06
4/10/2021 11:00:00 PM 13.76 56.768 0.233 6.91 -1.02 8.98
4/10/2021 11:15:00 PM 13.74 56.732 0.247 6.88 -0.8 8.92
4/10/2021 11:30:00 PM 13.73 56.714 0.244 6.85 -0.23 8.88
4/10/2021 11:45:00 PM 13.72 56.696 0.244 6.83 0.04 8.83
4/11/2021 12:00:00 AM 13.72 56.696 0.25 6.81 0.86 8.78
4/11/2021 12:15:00 AM 13.71 56.678 0.242 6.81 -0.66 8.74
4/11/2021 12:30:00 AM 13.71 56.678 0.246 6.79 0.62 8.67
4/11/2021 12:45:00 AM 13.71 56.678 0.245 6.78 -1.01 8.67
4/11/2021 1:00:00 AM 13.71 56.678 0.239 6.76 0.93 8.62
4/11/2021 1:15:00 AM 13.7 56.66 0.238 6.75 -0.45 8.58
4/11/2021 1:30:00 AM 13.7 56.66 0.245 6.74 -0.63 8.56
4/11/2021 1:45:00 AM 13.7 56.66 0.247 6.73 2.37 8.53
4/11/2021 2:00:00 AM 13.7 56.66 0.243 6.73 -1.56 8.52
4/11/2021 2:15:00 AM 13.69 56.642 0.242 6.72 1.06 8.49
4/11/2021 2:30:00 AM 13.68 56.624 0.242 6.71 -1.21 8.47
4/11/2021 2:45:00 AM 13.67 56.606 0.245 6.7 -0.08 8.44
4/11/2021 3:00:00 AM 13.66 56.588 0.237 6.68 0.58 8.44
4/11/2021 3:15:00 AM 13.64 56.552 0.249 6.68 -0.84 8.4
4/11/2021 3:30:00 AM 13.63 56.534 0.248 6.67 -0.39 8.37
4/11/2021 3:45:00 AM 13.61 56.498 0.246 6.66 -0.41 8.38
4/11/2021 4:00:00 AM 13.59 56.462 0.249 6.65 -0.47 8.36
4/11/2021 4:15:00 AM 13.57 56.426 0.24 6.64 -0.48 8.36
4/11/2021 4:30:00 AM 13.56 56.408 0.247 6.63 0.95 8.34
4/11/2021 4:45:00 AM 13.55 56.39 0.246 6.63 -1.2 8.33
4/11/2021 5:00:00 AM 13.53 56.354 0.245 6.62 0.66 8.32
4/11/2021 5:15:00 AM 13.52 56.336 0.247 6.61 -0.14 8.31
4/11/2021 5:30:00 AM 13.5 56.3 0.247 6.6 1.02 8.32
4/11/2021 5:45:00 AM 13.49 56.282 0.246 6.6 0.82 8.31
4/11/2021 6:00:00 AM 13.47 56.246 0.245 6.6 0.11 8.3
4/11/2021 6:15:00 AM 13.46 56.228 0.246 6.59 -0.37 8.3
4/11/2021 6:30:00 AM 13.45 56.21 0.235 6.59 13.93 8.31
4/11/2021 6:45:00 AM 13.44 56.192 0.238 6.59 0.7 8.28
4/11/2021 7:00:00 AM 13.43 56.174 0.242 6.58 1.94 8.33
4/11/2021 7:15:00 AM 13.42 56.156 0.244 6.59 2.23 8.34
4/11/2021 7:30:00 AM 13.41 56.138 0.245 6.58 -1.18 8.33
4/11/2021 7:45:00 AM 13.41 56.138 0.245 6.58 0.71 8.34
4/11/2021 8:00:00 AM 13.41 56.138 0.243 6.57 1.17 8.35
4/11/2021 8:15:00 AM 13.42 56.156 0.246 6.58 0.02 8.38
4/11/2021 8:30:00 AM 13.42 56.156 0.247 6.59 0.88 8.43
4/11/2021 8:45:00 AM 13.43 56.174 0.246 6.58 1.08 8.48
4/11/2021 9:00:00 AM 13.44 56.192 0.241 6.59 1.32 8.52
4/11/2021 9:15:00 AM 13.46 56.228 0.246 6.61 1.82 8.6
4/11/2021 9:30:00 AM 13.47 56.246 0.241 6.62 1.09 8.68
4/11/2021 9:45:00 AM 13.48 56.264 0.242 6.63 3.36 8.73
4/11/2021 10:00:00 AM 13.5 56.3 0.235 6.64 1.61 8.77
4/11/2021 10:15:00 AM 13.54 56.372 0.244 6.65 0.71 8.84
4/11/2021 10:30:00 AM 13.56 56.408 0.245 6.65 2.1 8.93
4/11/2021 10:45:00 AM 13.58 56.444 0.246 6.66 2.4 8.95
4/11/2021 11:00:00 AM 13.61 56.498 0.246 6.67 3.5 9
4/11/2021 11:15:00 AM 13.65 56.57 0.239 6.69 3.93 9.08
4/11/2021 11:30:00 AM 13.69 56.642 0.244 6.71 3.75 9.15
4/11/2021 11:45:00 AM 13.72 56.696 0.239 6.72 4.21 9.21
4/11/2021 12:00:00 PM 13.77 56.786 0.24 6.74 2.76 9.25
4/11/2021 12:15:00 PM 13.86 56.948 0.24 6.77 0.68 9.34
4/11/2021 12:30:00 PM 13.92 57.056 0.239 6.79 4.59 9.43
4/11/2021 12:45:00 PM 13.96 57.128 0.241 6.81 1.76 9.45
4/11/2021 1:00:00 PM 14 57.2 0.239 6.82 3.38 9.48
4/11/2021 1:15:00 PM 14.08 57.344 0.233 6.84 4.73 9.51
4/11/2021 1:30:00 PM 14.11 57.398 0.242 6.85 7.43 9.49
4/11/2021 1:45:00 PM 14.13 57.434 0.243 6.85 3.6 9.48
4/11/2021 2:00:00 PM 14.21 57.578 0.236 6.88 2.53 9.51
4/11/2021 2:15:00 PM 14.3 57.74 0.244 6.87 4.78 9.54
4/11/2021 2:30:00 PM 14.42 57.956 0.239 6.88 4.84 9.63
4/11/2021 2:45:00 PM 14.54 58.172 0.248 6.91 9.59 9.69
4/11/2021 3:00:00 PM 14.72 58.496 0.242 6.96 8.39 9.84
4/11/2021 3:15:00 PM 14.83 58.694 0.245 7.01 7.3 9.89
4/11/2021 3:30:00 PM 14.9 58.82 0.24 7.04 6.83 9.89
4/11/2021 3:45:00 PM 14.98 58.964 0.248 7.06 6.64 9.98
4/11/2021 4:00:00 PM 15.08 59.144 0.248 7.09 6.3 9.98
4/11/2021 4:15:00 PM 15.2 59.36 0.238 7.1 3.41 10.01
4/11/2021 4:30:00 PM 15.31 59.558 0.248 7.14 12 10.02
4/11/2021 4:45:00 PM 15.4 59.72 0.238 7.15 14.31 10.01
4/11/2021 5:00:00 PM 15.49 59.882 0.238 7.16 7.6 9.96
4/11/2021 5:15:00 PM 15.55 59.99 0.24 7.18 4.43 9.92
4/11/2021 5:30:00 PM 15.59 60.062 0.238 7.18 4.93 9.84
4/11/2021 5:45:00 PM 15.63 60.134 0.235 7.18 6.37 9.79
4/11/2021 6:00:00 PM 15.66 60.188 0.239 7.15 7.91 9.71
4/11/2021 6:15:00 PM 15.67 60.206 0.236 7.14 5.72 9.57
4/11/2021 6:30:00 PM 15.68 60.224 0.24 7.13 7.65 9.48
4/11/2021 6:45:00 PM 15.7 60.26 0.231 7.11 10.38 9.38
4/11/2021 7:00:00 PM 15.73 60.314 0.228 7.09 8.41 9.29
4/11/2021 7:15:00 PM 15.76 60.368 0.227 7.08 8.66 9.18
4/11/2021 7:30:00 PM 15.78 60.404 0.226 7.06 11.75 9.06
4/11/2021 7:45:00 PM 15.8 60.44 0.218 7.04 4.8 8.98
4/11/2021 8:00:00 PM 15.8 60.44 0.225 7.02 7.24 8.84
4/11/2021 8:15:00 PM 15.81 60.458 0.223 6.99 19.99 8.78
4/11/2021 8:30:00 PM 15.81 60.458 0.223 6.96 8.78 8.65
4/11/2021 8:45:00 PM 15.8 60.44 0.215 6.94 11.02 8.54
4/11/2021 9:00:00 PM 15.78 60.404 0.222 6.92 7.69 8.51
4/11/2021 9:15:00 PM 15.75 60.35 0.22 6.9 8.61 8.44
4/11/2021 9:30:00 PM 15.72 60.296 0.21 6.87 16.34 8.37
4/11/2021 9:45:00 PM 15.68 60.224 0.215 6.84 56.66 8.34
4/11/2021 10:00:00 PM 15.64 60.152 0.211 6.83 19.75 8.32
4/11/2021 10:15:00 PM 15.53 59.954 0.203 6.82 8.72 8.32
4/11/2021 10:30:00 PM 15.45 59.81 0.207 6.79 17.89 8.26
4/11/2021 10:45:00 PM 15.4 59.72 0.202 6.77 13.13 8.25
4/11/2021 11:00:00 PM 15.36 59.648 0.195 6.74 20.03 8.2
4/11/2021 11:15:00 PM 15.31 59.558 0.2 6.72 17.38 8.17
4/11/2021 11:30:00 PM 15.25 59.45 0.198 6.69 18.96 8.16
4/11/2021 11:45:00 PM 15.16 59.288 0.195 6.66 23.37 8.16
4/12/2021 12:00:00 AM 15.02 59.036 0.193 6.65 122.1 8.15
4/12/2021 12:15:00 AM 14.9 58.82 0.192 6.62 69.98 8.15
4/12/2021 12:30:00 AM 14.82 58.676 0.189 6.6 84.65 8.15
4/12/2021 12:45:00 AM 14.76 58.568 0.18 6.58 192.6 8.13
4/12/2021 1:00:00 AM 14.69 58.442 0.179 6.57 82.1 8.16
4/12/2021 1:15:00 AM 14.65 58.37 0.177 6.56 140 8.16
4/12/2021 1:30:00 AM 14.64 58.352 0.176 6.54 115.8 8.16
4/12/2021 1:45:00 AM 14.63 58.334 0.171 6.52 60.7 8.08
4/12/2021 2:00:00 AM 14.6 58.28 0.172 6.51 122.7 8.11
4/12/2021 2:15:00 AM 14.54 58.172 0.177 6.5 184 8.08
4/12/2021 2:30:00 AM 14.47 58.046 0.177 6.49 130.5 8.06
4/12/2021 2:45:00 AM 14.34 57.812 0.173 6.49 175.1 8.08
4/12/2021 3:00:00 AM 14.22 57.596 0.168 6.48 276.1 8.1
4/12/2021 3:15:00 AM 14.12 57.416 0.171 6.47 354.8 8.12
4/12/2021 3:30:00 AM 14.07 57.326 0.169 6.45 228.3 8.14
4/12/2021 3:45:00 AM 14.01 57.218 0.169 6.43 205.6 8.26
4/12/2021 4:00:00 AM 13.98 57.164 0.166 6.42 192.9 8.25
4/12/2021 4:15:00 AM 13.94 57.092 0.162 6.41 159.4 8.18
4/12/2021 4:30:00 AM 13.91 57.038 0.169 6.41 146 8.15
4/12/2021 4:45:00 AM 13.87 56.966 0.17 6.39 207.9 8.14
4/12/2021 5:00:00 AM 13.83 56.894 0.169 6.4 184.1 8.2
4/12/2021 5:15:00 AM 13.79 56.822 0.165 6.38 229.2 8.17
4/12/2021 5:30:00 AM 13.75 56.75 0.163 6.39 202.6 8.19
4/12/2021 5:45:00 AM 13.71 56.678 0.162 6.38 154.1 8.16
4/12/2021 6:00:00 AM 13.69 56.642 0.164 6.38 142.7 8.23
4/12/2021 6:15:00 AM 13.66 56.588 0.165 6.37 120.1 8.22
4/12/2021 6:30:00 AM 13.64 56.552 0.166 6.37 106.7 8.28
4/12/2021 6:45:00 AM 13.62 56.516 0.163 6.35 89.72 8.28
4/12/2021 7:00:00 AM 13.6 56.48 0.16 6.34 74.14 8.31
4/12/2021 7:15:00 AM 13.59 56.462 0.165 6.35 101.6 8.27
4/12/2021 7:30:00 AM 13.57 56.426 0.168 6.34 72.9 8.3
4/12/2021 7:45:00 AM 13.57 56.426 0.169 6.35 60.92 8.31
4/12/2021 8:00:00 AM 13.56 56.408 0.169 6.35 42.8 8.31
4/12/2021 8:15:00 AM 13.54 56.372 0.17 6.35 71.29 8.32
4/12/2021 8:30:00 AM 13.53 56.354 0.173 6.35 43.37 8.34
4/12/2021 8:45:00 AM 13.52 56.336 0.173 6.36 41.58 8.37
4/12/2021 9:00:00 AM 13.5 56.3 0.173 6.37 45.29 8.4
4/12/2021 9:15:00 AM 13.49 56.282 0.17 6.36 44.5 8.38
4/12/2021 9:30:00 AM 13.47 56.246 0.171 6.38 47.98 8.39
4/12/2021 9:45:00 AM 13.46 56.228 0.17 6.39 25.59 8.45
4/12/2021 10:00:00 AM 13.45 56.21 0.173 6.38 53.53 8.45
4/12/2021 10:15:00 AM 13.44 56.192 0.173 6.39 25.9 8.5
4/12/2021 10:30:00 AM 13.4 56.12 0.172 6.4 27.51 8.5
4/12/2021 10:45:00 AM 13.39 56.102 0.169 6.4 18.89 8.48
4/12/2021 11:00:00 AM 13.37 56.066 0.171 6.38 34.18 8.48
4/12/2021 11:15:00 AM 13.36 56.048 0.171 6.41 32.83 8.51
4/12/2021 11:30:00 AM 13.35 56.03 0.171 6.39 46.61 8.61
4/12/2021 11:45:00 AM 13.35 56.03 0.17 6.39 37.49 8.65
4/12/2021 12:00:00 PM 13.34 56.012 0.167 6.39 33.03 8.68
4/12/2021 12:15:00 PM 13.31 55.958 0.167 6.4 48.89 8.69
4/12/2021 12:30:00 PM 13.27 55.886 0.166 6.39 30.38 8.72
4/12/2021 12:45:00 PM 13.24 55.832 0.166 6.4 31.31 8.75
4/12/2021 1:00:00 PM 13.22 55.796 0.164 6.38 35.36 8.75
4/12/2021 1:15:00 PM 13.21 55.778 0.163 6.37 30.82 8.79
4/12/2021 1:30:00 PM 13.19 55.742 0.161 6.39 25.79 8.8
4/12/2021 1:45:00 PM 13.15 55.67 0.161 6.38 31.23 8.8
4/12/2021 2:00:00 PM 13.15 55.67 0.159 6.37 19.7 8.82
4/12/2021 2:15:00 PM 13.14 55.652 0.16 6.36 57.23 8.82
4/12/2021 2:30:00 PM 13.13 55.634 0.159 6.35 30.39 8.83
4/12/2021 2:45:00 PM 13.1 55.58 0.157 6.35 26.56 8.85
4/12/2021 3:00:00 PM 13.07 55.526 0.155 6.35 24.86 8.88
4/12/2021 3:15:00 PM 13.04 55.472 0.154 6.35 38.85 8.84
4/12/2021 3:30:00 PM 13.02 55.436 0.152 6.34 18.66 8.88
4/12/2021 3:45:00 PM 13 55.4 0.152 6.32 76.42 8.88
4/12/2021 4:00:00 PM 12.99 55.382 0.152 6.32 30.06 8.87
4/12/2021 4:15:00 PM 12.97 55.346 0.151 6.32 42.07 8.89
4/12/2021 4:30:00 PM 12.95 55.31 0.15 6.32 26.08 8.88
4/12/2021 4:45:00 PM 12.93 55.274 0.151 6.32 36.98 8.89
4/12/2021 5:00:00 PM 12.91 55.238 0.155 6.32 30.2 8.89
4/12/2021 5:15:00 PM 12.89 55.202 0.153 6.33 20.46 8.91
4/12/2021 5:30:00 PM 12.85 55.13 0.153 6.31 27.35 8.92
4/12/2021 5:45:00 PM 12.82 55.076 0.151 6.32 20.05 8.91
4/12/2021 6:00:00 PM 12.79 55.022 0.151 6.31 21.72 8.91
4/12/2021 6:15:00 PM 12.76 54.968 0.151 6.3 29.06 8.92
4/12/2021 6:30:00 PM 12.73 54.914 0.149 6.31 25.66 8.93
4/12/2021 6:45:00 PM 12.7 54.86 0.15 6.29 21.07 8.94
4/12/2021 7:00:00 PM 12.67 54.806 0.151 6.28 36.16 8.93
4/12/2021 7:15:00 PM 12.65 54.77 0.149 6.29 24.8 8.92
4/12/2021 7:30:00 PM 12.62 54.716 0.148 6.29 22.31 8.92
4/12/2021 7:45:00 PM 12.6 54.68 0.15 6.29 26 8.94
4/12/2021 8:00:00 PM 12.57 54.626 0.151 6.28 17.33 8.91
4/12/2021 8:15:00 PM 12.55 54.59 0.153 6.27 17.81 8.91
4/12/2021 8:30:00 PM 12.52 54.536 0.155 6.26 20.06 8.91
4/12/2021 8:45:00 PM 12.49 54.482 0.155 6.28 17.28 8.91
4/12/2021 9:00:00 PM 12.46 54.428 0.155 6.26 23.44 8.91
4/12/2021 9:15:00 PM 12.44 54.392 0.155 6.28 18.08 8.9
4/12/2021 9:30:00 PM 12.41 54.338 0.154 6.28 17.68 8.91
4/12/2021 9:45:00 PM 12.38 54.284 0.153 6.27 14.41 8.9
4/12/2021 10:00:00 PM 12.36 54.248 0.153 6.26 30.36 8.91
4/12/2021 10:15:00 PM 12.33 54.194 0.153 6.26 20.73 8.89
4/12/2021 10:30:00 PM 12.31 54.158 0.154 6.27 17.64 8.9
4/12/2021 10:45:00 PM 12.28 54.104 0.155 6.25 18.31 8.89
4/12/2021 11:00:00 PM 12.26 54.068 0.156 6.25 26.54 8.91
4/12/2021 11:15:00 PM 12.24 54.032 0.157 6.26 16.65 8.92
4/12/2021 11:30:00 PM 12.22 53.996 0.158 6.26 16.92 8.91
4/12/2021 11:45:00 PM 12.19 53.942 0.159 6.25 57.06 8.9
4/13/2021 12:00:00 AM 12.17 53.906 0.16 6.26 17.29 8.89
4/13/2021 12:15:00 AM 12.14 53.852 0.159 6.26 17.92 8.9
4/13/2021 12:30:00 AM 12.11 53.798 0.159 6.27 17.92 8.92
4/13/2021 12:45:00 AM 12.09 53.762 0.159 6.26 16.33 8.92
4/13/2021 1:00:00 AM 12.07 53.726 0.16 6.27 25.43 8.9
4/13/2021 1:15:00 AM 12.04 53.672 0.159 6.26 23.39 8.92
4/13/2021 1:30:00 AM 12.02 53.636 0.16 6.27 17.98 8.93
4/13/2021 1:45:00 AM 12 53.6 0.16 6.27 18.6 8.95
4/13/2021 2:00:00 AM 11.99 53.582 0.16 6.27 13.83 8.9
4/13/2021 2:15:00 AM 11.98 53.564 0.161 6.25 18.53 8.93
4/13/2021 2:30:00 AM 11.96 53.528 0.163 6.26 15.43 8.94
4/13/2021 2:45:00 AM 11.94 53.492 0.163 6.26 15.34 8.91
4/13/2021 3:00:00 AM 11.92 53.456 0.163 6.25 26.99 8.97
4/13/2021 3:15:00 AM 11.9 53.42 0.163 6.26 16.44 8.97
4/13/2021 3:30:00 AM 11.89 53.402 0.162 6.27 14.58 8.97
4/13/2021 3:45:00 AM 11.87 53.366 0.162 6.25 15.51 9
4/13/2021 4:00:00 AM 11.85 53.33 0.163 6.26 17.97 8.98
4/13/2021 4:15:00 AM 11.84 53.312 0.163 6.26 14.54 9
4/13/2021 4:30:00 AM 11.82 53.276 0.162 6.25 23.91 8.97
4/13/2021 4:45:00 AM 11.8 53.24 0.163 6.25 19.39 8.98
4/13/2021 5:00:00 AM 11.79 53.222 0.163 6.26 12.99 8.99
4/13/2021 5:15:00 AM 11.78 53.204 0.165 6.25 13.08 9.02
4/13/2021 5:30:00 AM 11.77 53.186 0.166 6.25 29.09 8.99
4/13/2021 5:45:00 AM 11.75 53.15 0.166 6.26 12.02 9.01
4/13/2021 6:00:00 AM 11.73 53.114 0.167 6.25 16.31 9.01
4/13/2021 6:15:00 AM 11.7 53.06 0.167 6.24 28.11 9.01
4/13/2021 6:30:00 AM 11.68 53.024 0.166 6.25 14.41 9.04
4/13/2021 6:45:00 AM 11.67 53.006 0.166 6.24 19.5 9.04
4/13/2021 7:00:00 AM 11.64 52.952 0.166 6.24 16.52 9.05
4/13/2021 7:15:00 AM 11.63 52.934 0.165 6.25 14.58 9.06
4/13/2021 7:30:00 AM 11.61 52.898 0.165 6.24 17.86 9.06
4/13/2021 7:45:00 AM 11.6 52.88 0.166 6.25 14.97 9.07
4/13/2021 8:00:00 AM 11.59 52.862 0.165 6.25 12.29 9.06
4/13/2021 8:15:00 AM 11.58 52.844 0.165 6.26 16.91 9.09
4/13/2021 8:30:00 AM 11.58 52.844 0.166 6.25 12.36 9.1
4/13/2021 8:45:00 AM 11.57 52.826 0.167 6.25 12.47 9.12
4/13/2021 9:00:00 AM 11.57 52.826 0.168 6.26 20.11 9.13
4/13/2021 9:15:00 AM 11.57 52.826 0.167 6.26 20.2 9.17
4/13/2021 9:30:00 AM 11.59 52.862 0.167 6.26 11.97 9.19
4/13/2021 9:45:00 AM 11.61 52.898 0.167 6.26 12.36 9.23
4/13/2021 10:00:00 AM 11.62 52.916 0.167 6.27 8.63 9.26
4/13/2021 10:15:00 AM 11.64 52.952 0.167 6.28 9.3 9.29
4/13/2021 10:30:00 AM 11.69 53.042 0.166 6.29 10.52 9.3
4/13/2021 10:45:00 AM 11.75 53.15 0.167 6.3 9.02 9.38
4/13/2021 11:00:00 AM 11.86 53.348 0.167 6.3 25.07 9.39
4/13/2021 11:15:00 AM 11.94 53.492 0.167 6.32 6.78 9.47
4/13/2021 11:30:00 AM 11.96 53.528 0.168 6.35 7.27 9.51
4/13/2021 11:45:00 AM 12.08 53.744 0.169 6.37 6.38 9.52
4/13/2021 12:00:00 PM 12.2 53.96 0.169 6.36 5.16 9.54
4/13/2021 12:15:00 PM 12.25 54.05 0.169 6.38 10.07 9.61
4/13/2021 12:30:00 PM 12.3 54.14 0.169 6.4 10.35 9.66
4/13/2021 12:45:00 PM 12.41 54.338 0.17 6.41 7.27 9.68
4/13/2021 1:00:00 PM 12.5 54.5 0.169 6.44 7 9.72
4/13/2021 1:15:00 PM 12.6 54.68 0.17 6.45 8.92 9.76
4/13/2021 1:30:00 PM 12.72 54.896 0.17 6.47 7.08 9.79
4/13/2021 1:45:00 PM 12.79 55.022 0.17 6.5 4.22 9.8
4/13/2021 2:00:00 PM 12.81 55.058 0.17 6.51 9.8 9.81
4/13/2021 2:15:00 PM 12.89 55.202 0.171 6.52 6.77 9.82
4/13/2021 2:30:00 PM 13.01 55.418 0.172 6.53 7.4 9.83
4/13/2021 2:45:00 PM 13.12 55.616 0.172 6.54 6.7 9.85
4/13/2021 3:00:00 PM 13.17 55.706 0.173 6.56 6.68 9.87
4/13/2021 3:15:00 PM 13.19 55.742 0.173 6.57 4.67 9.88
4/13/2021 3:30:00 PM 13.16 55.688 0.173 6.58 8.56 9.88
4/13/2021 3:45:00 PM 13.15 55.67 0.174 6.6 4.18 9.86
4/13/2021 4:00:00 PM 13.17 55.706 0.173 6.59 8.39 9.85
4/13/2021 4:15:00 PM 13.2 55.76 0.173 6.59 5.34 9.86
4/13/2021 4:30:00 PM 13.26 55.868 0.172 6.61 5.39 9.85
4/13/2021 4:45:00 PM 13.36 56.048 0.172 6.61 6.29 9.85
4/13/2021 5:00:00 PM 13.46 56.228 0.175 6.6 6.74 9.86
4/13/2021 5:15:00 PM 13.54 56.372 0.176 6.63 4.29 9.86
4/13/2021 5:30:00 PM 13.6 56.48 0.174 6.63 6.48 9.85
4/13/2021 5:45:00 PM 13.63 56.534 0.176 6.63 4.22 9.79
4/13/2021 6:00:00 PM 13.65 56.57 0.176 6.62 3.42 9.75
4/13/2021 6:15:00 PM 13.66 56.588 0.176 6.64 4.93 9.75
4/13/2021 6:30:00 PM 13.67 56.606 0.176 6.65 5.27 9.7
4/13/2021 6:45:00 PM 13.67 56.606 0.176 6.65 6.08 9.65
4/13/2021 7:00:00 PM 13.66 56.588 0.175 6.65 6.83 9.57
4/13/2021 7:15:00 PM 13.65 56.57 0.176 6.64 9.67 9.57
4/13/2021 7:30:00 PM 13.63 56.534 0.177 6.63 4.46 9.5
4/13/2021 7:45:00 PM 13.62 56.516 0.176 6.62 5 9.35
4/13/2021 8:00:00 PM 13.6 56.48 0.177 6.62 5.41 9.3
4/13/2021 8:15:00 PM 13.59 56.462 0.175 6.6 7.23 9.25
4/13/2021 8:30:00 PM 13.58 56.444 0.175 6.6 5.99 9.2
4/13/2021 8:45:00 PM 13.57 56.426 0.177 6.59 7.58 9.14
4/13/2021 9:00:00 PM 13.55 56.39 0.178 6.58 5.08 9.05
4/13/2021 9:15:00 PM 13.53 56.354 0.179 6.56 6.43 9.04
4/13/2021 9:30:00 PM 13.5 56.3 0.178 6.55 5.24 8.9
4/13/2021 9:45:00 PM 13.47 56.246 0.179 6.54 7.08 8.9
4/13/2021 10:00:00 PM 13.45 56.21 0.178 6.53 3.6 8.9
4/13/2021 10:15:00 PM 13.43 56.174 0.178 6.52 5.8 8.88
4/13/2021 10:30:00 PM 13.4 56.12 0.177 6.52 5.7 8.82
4/13/2021 10:45:00 PM 13.39 56.102 0.177 6.52 3.83 8.76
4/13/2021 11:00:00 PM 13.36 56.048 0.176 6.51 3.78 8.39
4/13/2021 11:15:00 PM 13.34 56.012 0.176 6.51 6.68 8.89
4/13/2021 11:30:00 PM 13.33 55.994 0.178 6.5 3.42 8.94
4/13/2021 11:45:00 PM 13.3 55.94 0.179 6.48 2.49 8.91
4/14/2021 12:00:00 AM 13.29 55.922 0.18 6.49 5.47 8.88
4/14/2021 12:15:00 AM 13.26 55.868 0.181 6.48 6.23 8.83
4/14/2021 12:30:00 AM 13.22 55.796 0.181 6.47 8 8.91
4/14/2021 12:45:00 AM 13.19 55.742 0.18 6.46 3.89 8.97
4/14/2021 1:00:00 AM 13.16 55.688 0.178 6.45 3.17 8.99
4/14/2021 1:15:00 AM 13.13 55.634 0.179 6.45 5.51 8.9
4/14/2021 1:30:00 AM 13.09 55.562 0.178 6.44 11.57 8.96
4/14/2021 1:45:00 AM 13.06 55.508 0.178 6.45 6.25 8.98
4/14/2021 2:00:00 AM 13.02 55.436 0.177 6.44 9.95 8.91
4/14/2021 2:15:00 AM 12.98 55.364 0.177 6.43 6.62 8.95
4/14/2021 2:30:00 AM 12.95 55.31 0.177 6.44 11.47 8.88
4/14/2021 2:45:00 AM 12.91 55.238 0.179 6.43 6.85 8.86
4/14/2021 3:00:00 AM 12.88 55.184 0.181 6.42 3.46 8.9
4/14/2021 3:15:00 AM 12.84 55.112 0.183 6.42 5.26 8.89
4/14/2021 3:30:00 AM 12.8 55.04 0.18 6.41 9.55 8.87
4/14/2021 3:45:00 AM 12.76 54.968 0.18 6.4 6.67 8.92
4/14/2021 4:00:00 AM 12.73 54.914 0.18 6.4 4.99 8.85
4/14/2021 4:15:00 AM 12.71 54.878 0.179 6.39 4.75 8.88
4/14/2021 4:30:00 AM 12.67 54.806 0.18 6.37 6.61 8.87
4/14/2021 4:45:00 AM 12.66 54.788 0.178 6.38 4.89 8.92
4/14/2021 5:00:00 AM 12.63 54.734 0.17 6.38 4.02 8.93
4/14/2021 5:15:00 AM 12.61 54.698 0.171 6.39 3.85 8.87
4/14/2021 5:30:00 AM 12.59 54.662 0.175 6.38 8 8.86
4/14/2021 5:45:00 AM 12.57 54.626 0.181 6.37 4.33 8.83
4/14/2021 6:00:00 AM 12.56 54.608 0.183 6.38 5.75 8.91
4/14/2021 6:15:00 AM 12.54 54.572 0.177 6.37 9.42 8.91
4/14/2021 6:30:00 AM 12.52 54.536 0.179 6.37 6.44 8.94
4/14/2021 6:45:00 AM 12.5 54.5 0.177 6.37 4.46 8.96
4/14/2021 7:00:00 AM 12.47 54.446 0.178 6.37 4.33 8.99
4/14/2021 7:15:00 AM 12.46 54.428 0.177 6.37 4.46 8.98
4/14/2021 7:30:00 AM 12.43 54.374 0.179 6.35 9.02 9.01
4/14/2021 7:45:00 AM 12.42 54.356 0.176 6.36 3.29 9.02
4/14/2021 8:00:00 AM 12.41 54.338 0.177 6.36 8.9 9.07
4/14/2021 8:15:00 AM 12.4 54.32 0.179 6.36 5.58 9.1
4/14/2021 8:30:00 AM 12.41 54.338 0.177 6.36 4.06 9.15
4/14/2021 8:45:00 AM 12.43 54.374 0.178 6.37 3.17 9.19
4/14/2021 9:00:00 AM 12.46 54.428 0.179 6.37 3.94 9.26
4/14/2021 9:15:00 AM 12.49 54.482 0.179 6.38 6.06 9.32
4/14/2021 9:30:00 AM 12.5 54.5 0.179 6.4 7.81 9.36
4/14/2021 9:45:00 AM 12.52 54.536 0.179 6.41 2.36 9.35
4/14/2021 10:00:00 AM 12.58 54.644 0.179 6.43 3.57 9.47
4/14/2021 10:15:00 AM 12.59 54.662 0.179 6.44 3.59 9.54
4/14/2021 10:30:00 AM 12.6 54.68 0.178 6.45 4.39 9.55
4/14/2021 10:45:00 AM 12.6 54.68 0.178 6.46 2.92 9.59
4/14/2021 11:00:00 AM 12.6 54.68 0.178 6.47 3.38 9.61
4/14/2021 11:15:00 AM 12.6 54.68 0.176 6.48 2.35 9.6
4/14/2021 11:30:00 AM 12.62 54.716 0.175 6.49 1.46 9.64
4/14/2021 11:45:00 AM 12.65 54.77 0.175 6.49 5.57 9.69
4/14/2021 12:00:00 PM 12.68 54.824 0.174 6.52 3.21 9.73
4/14/2021 12:15:00 PM 12.71 54.878 0.176 6.52 1.97 9.76
4/14/2021 12:30:00 PM 12.75 54.95 0.166 6.54 4.63 9.81
4/14/2021 12:45:00 PM 12.74 54.932 0.173 6.54 2.23 9.81
4/14/2021 1:00:00 PM 12.75 54.95 0.168 6.55 4 9.84
4/14/2021 1:15:00 PM 12.75 54.95 0.172 6.55 2.62 9.82
4/14/2021 1:30:00 PM 12.75 54.95 0.175 6.57 2.4 9.85
4/14/2021 1:45:00 PM 12.78 55.004 0.175 6.57 2.31 9.88
4/14/2021 2:00:00 PM 12.79 55.022 0.17 6.58 3.57 9.89
4/14/2021 2:15:00 PM 12.8 55.04 0.172 6.58 5.41 9.91
4/14/2021 2:30:00 PM 12.8 55.04 0.173 6.59 3.39 9.79
4/14/2021 2:45:00 PM 12.8 55.04 0.177 6.59 2.88 9.82
4/14/2021 3:00:00 PM 12.81 55.058 0.168 6.6 2.42 9.88
4/14/2021 3:15:00 PM 12.81 55.058 0.169 6.6 1.62 9.89
4/14/2021 3:30:00 PM 12.81 55.058 0.177 6.6 1.68 9.88
4/14/2021 3:45:00 PM 12.82 55.076 0.178 6.61 3.72 9.9
4/14/2021 4:00:00 PM 12.83 55.094 0.177 6.62 4.49 9.93
4/14/2021 4:15:00 PM 12.84 55.112 0.175 6.63 2 9.95
4/14/2021 4:30:00 PM 12.85 55.13 0.18 6.63 1.91 9.98
4/14/2021 4:45:00 PM 12.84 55.112 0.18 6.64 2.17 9.99
4/14/2021 5:00:00 PM 12.84 55.112 0.178 6.64 7.45 9.99
4/14/2021 5:15:00 PM 12.84 55.112 0.179 6.65 3.28 9.97
4/14/2021 5:30:00 PM 12.84 55.112 0.178 6.65 1.68 9.99
4/14/2021 5:45:00 PM 12.83 55.094 0.18 6.65 1.37 9.99
4/14/2021 6:00:00 PM 12.84 55.112 0.182 6.64 6.48 9.93
4/14/2021 6:15:00 PM 12.84 55.112 0.176 6.63 7.29 9.89
4/14/2021 6:30:00 PM 12.82 55.076 0.178 6.62 1.61 9.92
4/14/2021 6:45:00 PM 12.8 55.04 0.176 6.62 2.77 9.91
4/14/2021 7:00:00 PM 12.78 55.004 0.176 6.61 1.21 9.86
4/14/2021 7:15:00 PM 12.76 54.968 0.17 6.6 2.34 9.79
4/14/2021 7:30:00 PM 12.74 54.932 0.165 6.59 4.09 9.77
4/14/2021 7:45:00 PM 12.73 54.914 0.164 6.59 3.71 9.72
4/14/2021 8:00:00 PM 12.71 54.878 0.179 6.58 5.9 9.67
4/14/2021 8:15:00 PM 12.68 54.824 0.18 6.58 2.51 9.64
4/14/2021 8:30:00 PM 12.66 54.788 0.18 6.57 3.19 9.59
4/14/2021 8:45:00 PM 12.64 54.752 0.179 6.57 9.69 9.57
4/14/2021 9:00:00 PM 12.62 54.716 0.181 6.55 6.88 9.5
4/14/2021 9:15:00 PM 12.6 54.68 0.184 6.56 0.72 9.43
4/14/2021 9:30:00 PM 12.58 54.644 0.185 6.54 8.99 9.46
4/14/2021 9:45:00 PM 12.55 54.59 0.186 6.54 4.25 9.41
4/14/2021 10:00:00 PM 12.52 54.536 0.187 6.53 5.9 9.41
4/14/2021 10:15:00 PM 12.49 54.482 0.184 6.53 4.01 9.4
4/14/2021 10:30:00 PM 12.46 54.428 0.18 6.52 5.97 9.37
4/14/2021 10:45:00 PM 12.43 54.374 0.179 6.51 1.41 9.37
4/14/2021 11:00:00 PM 12.4 54.32 0.178 6.51 4.76 9.36
4/14/2021 11:15:00 PM 12.37 54.266 0.179 6.5 4.09 9.33
4/14/2021 11:30:00 PM 12.35 54.23 0.177 6.5 3.8 9.31
4/14/2021 11:45:00 PM 12.32 54.176 0.178 6.49 8.27 9.31
4/15/2021 12:00:00 AM 12.29 54.122 0.178 6.47 3 9.3
4/15/2021 12:15:00 AM 12.26 54.068 0.18 6.48 3.56 9.26
4/15/2021 12:30:00 AM 12.23 54.014 0.18 6.46 3.04 9.25
4/15/2021 12:45:00 AM 12.21 53.978 0.179 6.46 4.43 9.25
4/15/2021 1:00:00 AM 12.18 53.924 0.179 6.46 2.28 9
4/15/2021 1:15:00 AM 12.15 53.87 0.182 6.45 4.74 9.23
4/15/2021 1:30:00 AM 12.14 53.852 0.181 6.44 2.47 9.22
4/15/2021 1:45:00 AM 12.11 53.798 0.178 6.43 4.77 9.2
4/15/2021 2:00:00 AM 12.09 53.762 0.177 6.44 3.99 9.12
4/15/2021 2:15:00 AM 12.06 53.708 0.177 6.45 6.72 9.2
4/15/2021 2:30:00 AM 12.05 53.69 0.178 6.44 3.14 9.19
4/15/2021 2:45:00 AM 12.04 53.672 0.179 6.42 4.55 9.19
4/15/2021 3:00:00 AM 12.02 53.636 0.182 6.42 7.34 9.17
4/15/2021 3:15:00 AM 12.02 53.636 0.182 6.41 1.39 9.17
4/15/2021 3:30:00 AM 12.01 53.618 0.181 6.41 6.97 9.17
4/15/2021 3:45:00 AM 12 53.6 0.183 6.41 1.05 9.16
4/15/2021 4:00:00 AM 11.99 53.582 0.179 6.41 2.48 9.17
4/15/2021 4:15:00 AM 11.97 53.546 0.185 6.4 2.07 9.16
4/15/2021 4:30:00 AM 11.96 53.528 0.178 6.41 2.72 9.18
4/15/2021 4:45:00 AM 11.94 53.492 0.181 6.4 3.25 9.19
4/15/2021 5:00:00 AM 11.93 53.474 0.179 6.4 9.76 9.15
4/15/2021 5:15:00 AM 11.91 53.438 0.179 6.4 5.65 9.17
4/15/2021 5:30:00 AM 11.9 53.42 0.18 6.41 3.99 9.16
4/15/2021 5:45:00 AM 11.9 53.42 0.181 6.39 3.81 9.15
4/15/2021 6:00:00 AM 11.89 53.402 0.185 6.39 4.31 9.15
4/15/2021 6:15:00 AM 11.88 53.384 0.185 6.38 10.27 9.14
4/15/2021 6:30:00 AM 11.87 53.366 0.185 6.39 2.58 9.16
4/15/2021 6:45:00 AM 11.86 53.348 0.186 6.39 4.57 9.15
4/15/2021 7:00:00 AM 11.85 53.33 0.183 6.4 2.2 9.16
4/15/2021 7:15:00 AM 11.84 53.312 0.184 6.4 2.9 9.16
4/15/2021 7:30:00 AM 11.84 53.312 0.182 6.41 3.7 9.2
4/15/2021 7:45:00 AM 11.83 53.294 0.183 6.41 20.28 9.21
4/15/2021 8:00:00 AM 11.84 53.312 0.18 6.41 16.61 9.23
4/15/2021 8:15:00 AM 11.83 53.294 0.18 6.42 3.69 9.25
4/15/2021 8:30:00 AM 11.83 53.294 0.18 6.42 5.99 9.3
4/15/2021 8:45:00 AM 11.83 53.294 0.18 6.43 1.24 9.33
4/15/2021 9:00:00 AM 11.84 53.312 0.184 6.43 2.27 9.36
4/15/2021 9:15:00 AM 11.9 53.42 0.184 6.45 0.5 9.43
4/15/2021 9:30:00 AM 11.91 53.438 0.184 6.46 2.46 9.49
4/15/2021 9:45:00 AM 11.92 53.456 0.187 6.48 1.22 9.54
4/15/2021 10:00:00 AM 11.94 53.492 0.185 6.49 69.24 9.57
4/15/2021 10:15:00 AM 11.96 53.528 0.186 6.5 5.37 9.59
4/15/2021 10:30:00 AM -100000 -179968 -100000 -100000 -100000 -100000
4/15/2021 10:45:00 AM -100000 -179968 -100000 -100000 -100000 -100000
4/15/2021 11:00:00 AM -100000 -179968 -100000 -100000 -100000 -100000
4/15/2021 11:15:00 AM 12.23 54.014 0 7 0 0
4/15/2021 11:30:00 AM 12.25 54.05 0.244 7.19 8.68 11.17
4/15/2021 11:45:00 AM 12.31 54.158 0.233 6.87 4.66 11.21
4/15/2021 12:00:00 PM 12.38 54.284 0.229 6.79 6.84 11.25
4/15/2021 12:15:00 PM 12.41 54.338 0.226 6.8 6.09 11.27
4/15/2021 12:30:00 PM 12.45 54.41 0.225 6.82 5.66 11.3
4/15/2021 12:45:00 PM 12.41 54.338 0.224 6.88 7.58 11.28
4/15/2021 1:00:00 PM 12.35 54.23 0.223 6.91 7.61 11.26
4/15/2021 1:15:00 PM 12.32 54.176 0.221 6.93 4.82 11.29
4/15/2021 1:30:00 PM 12.3 54.14 0.221 6.97 3.57 11.29
4/15/2021 1:45:00 PM 12.32 54.176 0.22 6.95 2.9 11.31
4/15/2021 2:00:00 PM 12.39 54.302 0.22 6.93 6.93 11.38
4/15/2021 2:15:00 PM 12.49 54.482 0.22 7 5.8 11.41
4/15/2021 2:30:00 PM 12.58 54.644 0.219 7 4.79 11.46
4/15/2021 2:45:00 PM 12.68 54.824 0.219 7.03 4.19 11.52
4/15/2021 3:00:00 PM 12.8 55.04 0.22 7.06 6.29 11.55
4/15/2021 3:15:00 PM 12.86 55.148 0.221 7.08 4.92 11.58
4/15/2021 3:30:00 PM 12.88 55.184 0.221 7.07 5.21 11.58
4/15/2021 3:45:00 PM 12.88 55.184 0.221 7.12 3.76 11.57
4/15/2021 4:00:00 PM 12.88 55.184 0.221 7.12 7.1 11.58
4/15/2021 4:15:00 PM 12.93 55.274 0.22 7.16 5.82 11.58
4/15/2021 4:30:00 PM 12.96 55.328 0.22 7.13 5.87 11.6
4/15/2021 4:45:00 PM 13 55.4 0.219 7.14 7.18 11.57
4/15/2021 5:00:00 PM 13.08 55.544 0.22 7.16 3.78 11.58
4/15/2021 5:15:00 PM 13.15 55.67 0.219 7.18 4.88 11.56
4/15/2021 5:30:00 PM 13.21 55.778 0.22 7.21 4.53 11.57
4/15/2021 5:45:00 PM 13.26 55.868 0.22 7.22 3.89 11.55
4/15/2021 6:00:00 PM 13.25 55.85 0.223 7.21 5.45 11.51
4/15/2021 6:15:00 PM 13.24 55.832 0.225 7.23 3.39 11.48
4/15/2021 6:30:00 PM 13.21 55.778 0.228 7.22 3.69 11.44
4/15/2021 6:45:00 PM 13.16 55.688 0.227 7.19 4.37 11.37
4/15/2021 7:00:00 PM 13.09 55.562 0.226 7.21 4.52 11.32
4/15/2021 7:15:00 PM 13.01 55.418 0.225 7.18 6.83 11.24
4/15/2021 7:30:00 PM 12.95 55.31 0.224 7.17 6.06 11.19
4/15/2021 7:45:00 PM 12.87 55.166 0.223 7.16 5.79 11.08
4/15/2021 8:00:00 PM 12.8 55.04 0.223 7.14 3.52 11.03
4/15/2021 8:15:00 PM 12.74 54.932 0.223 7.11 3.81 10.97
4/15/2021 8:30:00 PM 12.69 54.842 0.222 7.07 4.76 10.91
4/15/2021 8:45:00 PM 12.67 54.806 0.223 7.04 5.76 10.84
4/15/2021 9:00:00 PM 12.66 54.788 0.224 7.04 4.33 10.77
4/15/2021 9:15:00 PM 12.67 54.806 0.227 7.01 8.12 10.73
4/15/2021 9:30:00 PM 12.67 54.806 0.228 7.02 4.82 10.66
4/15/2021 9:45:00 PM 12.66 54.788 0.228 7 3.29 10.63
4/15/2021 10:00:00 PM 12.65 54.77 0.227 6.99 4.83 10.56
4/15/2021 10:15:00 PM 12.63 54.734 0.227 6.97 5.34 10.54
4/15/2021 10:30:00 PM 12.6 54.68 0.225 6.96 7.72 10.5
4/15/2021 10:45:00 PM 12.56 54.608 0.224 6.94 4.86 10.48
4/15/2021 11:00:00 PM 12.54 54.572 0.223 6.94 2.43 10.45
4/15/2021 11:15:00 PM 12.5 54.5 0.223 6.96 4.04 10.43
4/15/2021 11:30:00 PM 12.46 54.428 0.222 6.96 3.58 10.41
4/15/2021 11:45:00 PM 12.39 54.302 0.224 6.96 7.33 10.41
4/16/2021 12:00:00 AM 12.34 54.212 0.224 6.93 5.01 10.38
4/16/2021 12:15:00 AM 12.28 54.104 0.225 6.92 3.39 10.38
4/16/2021 12:30:00 AM 12.22 53.996 0.228 6.89 4.91 10.35
4/16/2021 12:45:00 AM 12.15 53.87 0.227 6.88 5.23 10.34
4/16/2021 1:00:00 AM 12.08 53.744 0.228 6.86 6.93 10.34
4/16/2021 1:15:00 AM 12.02 53.636 0.227 6.87 4.54 10.34
4/16/2021 1:30:00 AM 11.95 53.51 0.225 6.87 6.04 10.34
4/16/2021 1:45:00 AM 11.88 53.384 0.224 6.82 12.97 10.36
4/16/2021 2:00:00 AM 11.81 53.258 0.222 6.81 7.97 10.35
4/16/2021 2:15:00 AM 11.75 53.15 0.223 6.82 4.56 10.36
4/16/2021 2:30:00 AM 11.68 53.024 0.222 6.81 8.32 10.36
4/16/2021 2:45:00 AM 11.62 52.916 0.223 6.8 8.2 10.36
4/16/2021 3:00:00 AM 11.57 52.826 0.224 6.77 6.52 10.37
4/16/2021 3:15:00 AM 11.53 52.754 0.226 6.76 3.69 10.36
4/16/2021 3:30:00 AM 11.49 52.682 0.227 6.75 8.03 10.36
4/16/2021 3:45:00 AM 11.46 52.628 0.227 6.74 10.09 10.36
4/16/2021 4:00:00 AM 11.42 52.556 0.228 6.73 8.03 10.37
4/16/2021 4:15:00 AM 11.39 52.502 0.227 6.73 8.9 10.37
4/16/2021 4:30:00 AM 11.36 52.448 0.225 6.74 4.02 10.37
4/16/2021 4:45:00 AM 11.32 52.376 0.224 6.71 7.82 10.37
4/16/2021 5:00:00 AM 11.29 52.322 0.225 6.72 10.31 10.37
4/16/2021 5:15:00 AM 11.27 52.286 0.224 6.71 6.11 10.38
4/16/2021 5:30:00 AM 11.24 52.232 0.223 6.71 7.16 10.39
4/16/2021 5:45:00 AM 11.21 52.178 0.226 6.7 7.64 10.36
4/16/2021 6:00:00 AM 11.18 52.124 0.221 6.7 4.34 10.38
4/16/2021 6:15:00 AM 11.15 52.07 0.224 6.7 10.02 10.4
4/16/2021 6:30:00 AM 11.11 51.998 0.229 6.69 5.78 10.39
4/16/2021 6:45:00 AM 11.07 51.926 0.23 6.71 7.12 10.41
4/16/2021 7:00:00 AM 11.03 51.854 0.23 6.7 8.28 10.42
4/16/2021 7:15:00 AM 10.99 51.782 0.229 6.68 6.76 10.46
4/16/2021 7:30:00 AM 10.96 51.728 0.227 6.7 8.8 10.5
4/16/2021 7:45:00 AM 10.94 51.692 0.227 6.73 3.85 10.53
4/16/2021 8:00:00 AM 10.93 51.674 0.224 6.72 9.38 10.59
4/16/2021 8:15:00 AM 10.9 51.62 0.224 6.75 7.43 10.64
4/16/2021 8:30:00 AM 10.9 51.62 0.222 6.72 4.15 10.71
4/16/2021 8:45:00 AM 10.9 51.62 0.226 6.72 8.71 10.78
4/16/2021 9:00:00 AM 10.94 51.692 0.221 6.74 6.76 10.84
4/16/2021 9:15:00 AM 11 51.8 0.222 6.75 5.79 10.91
4/16/2021 9:30:00 AM 11.01 51.818 0.224 6.77 5.26 10.98
4/16/2021 9:45:00 AM 11 51.8 0.224 6.79 3 11.03
4/16/2021 10:00:00 AM 11 51.8 0.223 6.77